<?xml version="1.0" encoding="UTF-8" standalone="no" ?>
<gpx xmlns="http://www.topografix.com/GPX/1/1" xmlns:xsi="http://www.w3.org/2001/XMLSchema-instance" xsi:schemaLocation="http://www.topografix.com/GPX/1/1 http://www.topografix.com/GPX/1/1/gpx.xsd" version="1.1" creator="VisuGPX - https://www.visugpx.com">
  <metadata>
    <name>Au départ d'Ollières</name>
    <desc><![CDATA[Parcours au départ d'Ollières, sur le plateau au nord de Pourrière]]></desc>
  </metadata>
  <trk>
    <name><![CDATA[20180914220719-NjxPk]]></name>
    <trkseg>
      <trkpt lat="43.48316" lon="5.82676">
        <ele>333.58</ele>
        <time>2016-01-24T07:05:50Z</time>
      </trkpt>
      <trkpt lat="43.48297" lon="5.82683">
        <ele>300.72</ele>
        <time>2016-01-24T07:05:58Z</time>
      </trkpt>
      <trkpt lat="43.48281" lon="5.827">
        <ele>265.52</ele>
        <time>2016-01-24T07:06:10Z</time>
      </trkpt>
      <trkpt lat="43.48285" lon="5.82675">
        <ele>276.32</ele>
        <time>2016-01-24T07:08:24Z</time>
      </trkpt>
      <trkpt lat="43.48275" lon="5.82652">
        <ele>276.39</ele>
        <time>2016-01-24T07:08:32Z</time>
      </trkpt>
      <trkpt lat="43.4827" lon="5.82628">
        <ele>276.72</ele>
        <time>2016-01-24T07:08:42Z</time>
      </trkpt>
      <trkpt lat="43.48277" lon="5.82601">
        <ele>277.64</ele>
        <time>2016-01-24T07:08:51Z</time>
      </trkpt>
      <trkpt lat="43.48287" lon="5.82577">
        <ele>277.95</ele>
        <time>2016-01-24T07:08:59Z</time>
      </trkpt>
      <trkpt lat="43.48298" lon="5.82557">
        <ele>278.09</ele>
        <time>2016-01-24T07:09:06Z</time>
      </trkpt>
      <trkpt lat="43.48311" lon="5.82539">
        <ele>277.58</ele>
        <time>2016-01-24T07:09:13Z</time>
      </trkpt>
      <trkpt lat="43.48324" lon="5.82521">
        <ele>277.4</ele>
        <time>2016-01-24T07:09:20Z</time>
      </trkpt>
      <trkpt lat="43.48335" lon="5.82498">
        <ele>277.85</ele>
        <time>2016-01-24T07:09:28Z</time>
      </trkpt>
      <trkpt lat="43.48341" lon="5.82472">
        <ele>277.55</ele>
        <time>2016-01-24T07:09:37Z</time>
      </trkpt>
      <trkpt lat="43.48341" lon="5.82446">
        <ele>277.91</ele>
        <time>2016-01-24T07:09:47Z</time>
      </trkpt>
      <trkpt lat="43.48342" lon="5.82421">
        <ele>278.3</ele>
        <time>2016-01-24T07:09:56Z</time>
      </trkpt>
      <trkpt lat="43.48342" lon="5.82393">
        <ele>279.28</ele>
        <time>2016-01-24T07:10:04Z</time>
      </trkpt>
      <trkpt lat="43.48345" lon="5.82365">
        <ele>281.21</ele>
        <time>2016-01-24T07:10:12Z</time>
      </trkpt>
      <trkpt lat="43.4835" lon="5.8234">
        <ele>283.87</ele>
        <time>2016-01-24T07:10:19Z</time>
      </trkpt>
      <trkpt lat="43.48344" lon="5.82314">
        <ele>281.72</ele>
        <time>2016-01-24T07:10:27Z</time>
      </trkpt>
      <trkpt lat="43.48332" lon="5.82293">
        <ele>279.43</ele>
        <time>2016-01-24T07:10:31Z</time>
      </trkpt>
      <trkpt lat="43.48331" lon="5.82266">
        <ele>279.05</ele>
        <time>2016-01-24T07:10:36Z</time>
      </trkpt>
      <trkpt lat="43.48329" lon="5.82238">
        <ele>279.78</ele>
        <time>2016-01-24T07:10:43Z</time>
      </trkpt>
      <trkpt lat="43.48328" lon="5.82212">
        <ele>282.24</ele>
        <time>2016-01-24T07:10:50Z</time>
      </trkpt>
      <trkpt lat="43.48325" lon="5.82186">
        <ele>285.33</ele>
        <time>2016-01-24T07:10:58Z</time>
      </trkpt>
      <trkpt lat="43.48324" lon="5.82159">
        <ele>287.92</ele>
        <time>2016-01-24T07:11:06Z</time>
      </trkpt>
      <trkpt lat="43.48324" lon="5.82134">
        <ele>287.79</ele>
        <time>2016-01-24T07:11:13Z</time>
      </trkpt>
      <trkpt lat="43.48324" lon="5.82107">
        <ele>287.66</ele>
        <time>2016-01-24T07:11:20Z</time>
      </trkpt>
      <trkpt lat="43.48324" lon="5.82081">
        <ele>287.09</ele>
        <time>2016-01-24T07:11:27Z</time>
      </trkpt>
      <trkpt lat="43.48325" lon="5.82056">
        <ele>288.94</ele>
        <time>2016-01-24T07:11:34Z</time>
      </trkpt>
      <trkpt lat="43.48327" lon="5.82029">
        <ele>292.36</ele>
        <time>2016-01-24T07:11:43Z</time>
      </trkpt>
      <trkpt lat="43.48328" lon="5.82004">
        <ele>296.5</ele>
        <time>2016-01-24T07:11:53Z</time>
      </trkpt>
      <trkpt lat="43.4833" lon="5.81978">
        <ele>300.33</ele>
        <time>2016-01-24T07:12:03Z</time>
      </trkpt>
      <trkpt lat="43.48334" lon="5.81954">
        <ele>303.53</ele>
        <time>2016-01-24T07:12:13Z</time>
      </trkpt>
      <trkpt lat="43.48339" lon="5.81929">
        <ele>305.44</ele>
        <time>2016-01-24T07:12:22Z</time>
      </trkpt>
      <trkpt lat="43.48343" lon="5.81903">
        <ele>308.67</ele>
        <time>2016-01-24T07:12:32Z</time>
      </trkpt>
      <trkpt lat="43.48348" lon="5.81879">
        <ele>311.43</ele>
        <time>2016-01-24T07:12:40Z</time>
      </trkpt>
      <trkpt lat="43.48352" lon="5.81853">
        <ele>312.11</ele>
        <time>2016-01-24T07:12:47Z</time>
      </trkpt>
      <trkpt lat="43.48356" lon="5.81828">
        <ele>313.54</ele>
        <time>2016-01-24T07:12:54Z</time>
      </trkpt>
      <trkpt lat="43.48361" lon="5.81803">
        <ele>316.33</ele>
        <time>2016-01-24T07:13:02Z</time>
      </trkpt>
      <trkpt lat="43.48367" lon="5.81778">
        <ele>318.88</ele>
        <time>2016-01-24T07:13:10Z</time>
      </trkpt>
      <trkpt lat="43.4837" lon="5.8175">
        <ele>320.14</ele>
        <time>2016-01-24T07:13:19Z</time>
      </trkpt>
      <trkpt lat="43.48374" lon="5.81725">
        <ele>317.16</ele>
        <time>2016-01-24T07:13:27Z</time>
      </trkpt>
      <trkpt lat="43.48379" lon="5.81698">
        <ele>317.14</ele>
        <time>2016-01-24T07:13:37Z</time>
      </trkpt>
      <trkpt lat="43.48385" lon="5.81674">
        <ele>316.89</ele>
        <time>2016-01-24T07:13:44Z</time>
      </trkpt>
      <trkpt lat="43.4839" lon="5.81646">
        <ele>312.69</ele>
        <time>2016-01-24T07:13:50Z</time>
      </trkpt>
      <trkpt lat="43.48396" lon="5.8162">
        <ele>309.02</ele>
        <time>2016-01-24T07:13:56Z</time>
      </trkpt>
      <trkpt lat="43.484" lon="5.81592">
        <ele>306.52</ele>
        <time>2016-01-24T07:14:03Z</time>
      </trkpt>
      <trkpt lat="43.48405" lon="5.81565">
        <ele>304.63</ele>
        <time>2016-01-24T07:14:10Z</time>
      </trkpt>
      <trkpt lat="43.4841" lon="5.8154">
        <ele>304.26</ele>
        <time>2016-01-24T07:14:17Z</time>
      </trkpt>
      <trkpt lat="43.48415" lon="5.81516">
        <ele>303.22</ele>
        <time>2016-01-24T07:14:24Z</time>
      </trkpt>
      <trkpt lat="43.48423" lon="5.81491">
        <ele>301.97</ele>
        <time>2016-01-24T07:14:31Z</time>
      </trkpt>
      <trkpt lat="43.48434" lon="5.81467">
        <ele>300.55</ele>
        <time>2016-01-24T07:14:38Z</time>
      </trkpt>
      <trkpt lat="43.48444" lon="5.81443">
        <ele>299.58</ele>
        <time>2016-01-24T07:14:45Z</time>
      </trkpt>
      <trkpt lat="43.48455" lon="5.81421">
        <ele>299</ele>
        <time>2016-01-24T07:14:52Z</time>
      </trkpt>
      <trkpt lat="43.48465" lon="5.814">
        <ele>298.77</ele>
        <time>2016-01-24T07:14:59Z</time>
      </trkpt>
      <trkpt lat="43.48475" lon="5.81377">
        <ele>299.82</ele>
        <time>2016-01-24T07:15:07Z</time>
      </trkpt>
      <trkpt lat="43.48484" lon="5.81354">
        <ele>301.06</ele>
        <time>2016-01-24T07:15:14Z</time>
      </trkpt>
      <trkpt lat="43.48491" lon="5.81331">
        <ele>300.66</ele>
        <time>2016-01-24T07:15:45Z</time>
      </trkpt>
      <trkpt lat="43.48497" lon="5.81307">
        <ele>301.98</ele>
        <time>2016-01-24T07:15:56Z</time>
      </trkpt>
      <trkpt lat="43.48504" lon="5.8128">
        <ele>302.71</ele>
        <time>2016-01-24T07:16:05Z</time>
      </trkpt>
      <trkpt lat="43.48508" lon="5.81255">
        <ele>303.04</ele>
        <time>2016-01-24T07:16:13Z</time>
      </trkpt>
      <trkpt lat="43.48512" lon="5.81228">
        <ele>303.53</ele>
        <time>2016-01-24T07:16:21Z</time>
      </trkpt>
      <trkpt lat="43.48513" lon="5.81203">
        <ele>304.42</ele>
        <time>2016-01-24T07:16:28Z</time>
      </trkpt>
      <trkpt lat="43.48513" lon="5.81177">
        <ele>305.85</ele>
        <time>2016-01-24T07:16:35Z</time>
      </trkpt>
      <trkpt lat="43.48514" lon="5.81152">
        <ele>307.48</ele>
        <time>2016-01-24T07:16:42Z</time>
      </trkpt>
      <trkpt lat="43.48516" lon="5.81126">
        <ele>308.56</ele>
        <time>2016-01-24T07:16:49Z</time>
      </trkpt>
      <trkpt lat="43.48517" lon="5.811">
        <ele>309.52</ele>
        <time>2016-01-24T07:16:56Z</time>
      </trkpt>
      <trkpt lat="43.48518" lon="5.81074">
        <ele>310.62</ele>
        <time>2016-01-24T07:17:03Z</time>
      </trkpt>
      <trkpt lat="43.4852" lon="5.81049">
        <ele>312.01</ele>
        <time>2016-01-24T07:17:10Z</time>
      </trkpt>
      <trkpt lat="43.48521" lon="5.81024">
        <ele>313.67</ele>
        <time>2016-01-24T07:17:17Z</time>
      </trkpt>
      <trkpt lat="43.48524" lon="5.80998">
        <ele>315.46</ele>
        <time>2016-01-24T07:17:24Z</time>
      </trkpt>
      <trkpt lat="43.48523" lon="5.80971">
        <ele>315.98</ele>
        <time>2016-01-24T07:17:33Z</time>
      </trkpt>
      <trkpt lat="43.48524" lon="5.80946">
        <ele>317.79</ele>
        <time>2016-01-24T07:17:42Z</time>
      </trkpt>
      <trkpt lat="43.48529" lon="5.80921">
        <ele>320.07</ele>
        <time>2016-01-24T07:17:52Z</time>
      </trkpt>
      <trkpt lat="43.48538" lon="5.80898">
        <ele>322.75</ele>
        <time>2016-01-24T07:18:03Z</time>
      </trkpt>
      <trkpt lat="43.48548" lon="5.80877">
        <ele>324.78</ele>
        <time>2016-01-24T07:18:14Z</time>
      </trkpt>
      <trkpt lat="43.48564" lon="5.80865">
        <ele>325.56</ele>
        <time>2016-01-24T07:18:24Z</time>
      </trkpt>
      <trkpt lat="43.48575" lon="5.80844">
        <ele>324.34</ele>
        <time>2016-01-24T07:18:34Z</time>
      </trkpt>
      <trkpt lat="43.48586" lon="5.80823">
        <ele>328.11</ele>
        <time>2016-01-24T07:18:46Z</time>
      </trkpt>
      <trkpt lat="43.48604" lon="5.80812">
        <ele>330.28</ele>
        <time>2016-01-24T07:18:56Z</time>
      </trkpt>
      <trkpt lat="43.48622" lon="5.80804">
        <ele>332.12</ele>
        <time>2016-01-24T07:19:07Z</time>
      </trkpt>
      <trkpt lat="43.48638" lon="5.80791">
        <ele>333.9</ele>
        <time>2016-01-24T07:19:18Z</time>
      </trkpt>
      <trkpt lat="43.48655" lon="5.80779">
        <ele>334.21</ele>
        <time>2016-01-24T07:19:28Z</time>
      </trkpt>
      <trkpt lat="43.48668" lon="5.80759">
        <ele>335.02</ele>
        <time>2016-01-24T07:19:39Z</time>
      </trkpt>
      <trkpt lat="43.48678" lon="5.80737">
        <ele>337.41</ele>
        <time>2016-01-24T07:19:50Z</time>
      </trkpt>
      <trkpt lat="43.48681" lon="5.80712">
        <ele>341.26</ele>
        <time>2016-01-24T07:20:02Z</time>
      </trkpt>
      <trkpt lat="43.48684" lon="5.80687">
        <ele>344.23</ele>
        <time>2016-01-24T07:20:12Z</time>
      </trkpt>
      <trkpt lat="43.48688" lon="5.80662">
        <ele>345.6</ele>
        <time>2016-01-24T07:20:22Z</time>
      </trkpt>
      <trkpt lat="43.48691" lon="5.80636">
        <ele>347.91</ele>
        <time>2016-01-24T07:20:33Z</time>
      </trkpt>
      <trkpt lat="43.48695" lon="5.80611">
        <ele>348.75</ele>
        <time>2016-01-24T07:20:42Z</time>
      </trkpt>
      <trkpt lat="43.48698" lon="5.80586">
        <ele>349.06</ele>
        <time>2016-01-24T07:20:52Z</time>
      </trkpt>
      <trkpt lat="43.48705" lon="5.80561">
        <ele>348.54</ele>
        <time>2016-01-24T07:21:00Z</time>
      </trkpt>
      <trkpt lat="43.48709" lon="5.80536">
        <ele>348.99</ele>
        <time>2016-01-24T07:21:09Z</time>
      </trkpt>
      <trkpt lat="43.48712" lon="5.80511">
        <ele>350.28</ele>
        <time>2016-01-24T07:21:18Z</time>
      </trkpt>
      <trkpt lat="43.48717" lon="5.80485">
        <ele>351.6</ele>
        <time>2016-01-24T07:21:29Z</time>
      </trkpt>
      <trkpt lat="43.48721" lon="5.8046">
        <ele>353.3</ele>
        <time>2016-01-24T07:21:38Z</time>
      </trkpt>
      <trkpt lat="43.48727" lon="5.80436">
        <ele>352.9</ele>
        <time>2016-01-24T07:21:47Z</time>
      </trkpt>
      <trkpt lat="43.48736" lon="5.80413">
        <ele>351.81</ele>
        <time>2016-01-24T07:21:56Z</time>
      </trkpt>
      <trkpt lat="43.48743" lon="5.8039">
        <ele>353.36</ele>
        <time>2016-01-24T07:22:07Z</time>
      </trkpt>
      <trkpt lat="43.48751" lon="5.80364">
        <ele>352.72</ele>
        <time>2016-01-24T07:22:19Z</time>
      </trkpt>
      <trkpt lat="43.48758" lon="5.8034">
        <ele>350.95</ele>
        <time>2016-01-24T07:22:28Z</time>
      </trkpt>
      <trkpt lat="43.48765" lon="5.80316">
        <ele>350.05</ele>
        <time>2016-01-24T07:22:38Z</time>
      </trkpt>
      <trkpt lat="43.48772" lon="5.80293">
        <ele>349.32</ele>
        <time>2016-01-24T07:22:46Z</time>
      </trkpt>
      <trkpt lat="43.48781" lon="5.80267">
        <ele>348.91</ele>
        <time>2016-01-24T07:22:53Z</time>
      </trkpt>
      <trkpt lat="43.48789" lon="5.80242">
        <ele>348.17</ele>
        <time>2016-01-24T07:22:58Z</time>
      </trkpt>
      <trkpt lat="43.48798" lon="5.80211">
        <ele>346.24</ele>
        <time>2016-01-24T07:23:02Z</time>
      </trkpt>
      <trkpt lat="43.48806" lon="5.80184">
        <ele>344.69</ele>
        <time>2016-01-24T07:23:05Z</time>
      </trkpt>
      <trkpt lat="43.48813" lon="5.80161">
        <ele>344.23</ele>
        <time>2016-01-24T07:23:08Z</time>
      </trkpt>
      <trkpt lat="43.4882" lon="5.80138">
        <ele>344.17</ele>
        <time>2016-01-24T07:23:12Z</time>
      </trkpt>
      <trkpt lat="43.48827" lon="5.80113">
        <ele>344.63</ele>
        <time>2016-01-24T07:23:17Z</time>
      </trkpt>
      <trkpt lat="43.48835" lon="5.80088">
        <ele>344.98</ele>
        <time>2016-01-24T07:23:22Z</time>
      </trkpt>
      <trkpt lat="43.48843" lon="5.80062">
        <ele>345.79</ele>
        <time>2016-01-24T07:23:28Z</time>
      </trkpt>
      <trkpt lat="43.48851" lon="5.80038">
        <ele>347.49</ele>
        <time>2016-01-24T07:23:34Z</time>
      </trkpt>
      <trkpt lat="43.48858" lon="5.80014">
        <ele>348.36</ele>
        <time>2016-01-24T07:23:39Z</time>
      </trkpt>
      <trkpt lat="43.48866" lon="5.79988">
        <ele>349.12</ele>
        <time>2016-01-24T07:23:45Z</time>
      </trkpt>
      <trkpt lat="43.48873" lon="5.79961">
        <ele>349.55</ele>
        <time>2016-01-24T07:23:51Z</time>
      </trkpt>
      <trkpt lat="43.48881" lon="5.79936">
        <ele>350.17</ele>
        <time>2016-01-24T07:23:57Z</time>
      </trkpt>
      <trkpt lat="43.48889" lon="5.7991">
        <ele>351</ele>
        <time>2016-01-24T07:24:04Z</time>
      </trkpt>
      <trkpt lat="43.48896" lon="5.79886">
        <ele>352.85</ele>
        <time>2016-01-24T07:24:11Z</time>
      </trkpt>
      <trkpt lat="43.48902" lon="5.79861">
        <ele>353.94</ele>
        <time>2016-01-24T07:24:17Z</time>
      </trkpt>
      <trkpt lat="43.4891" lon="5.79838">
        <ele>354.48</ele>
        <time>2016-01-24T07:24:22Z</time>
      </trkpt>
      <trkpt lat="43.48917" lon="5.79813">
        <ele>354.16</ele>
        <time>2016-01-24T07:24:28Z</time>
      </trkpt>
      <trkpt lat="43.48925" lon="5.79789">
        <ele>352.57</ele>
        <time>2016-01-24T07:24:34Z</time>
      </trkpt>
      <trkpt lat="43.48933" lon="5.79765">
        <ele>352.19</ele>
        <time>2016-01-24T07:24:40Z</time>
      </trkpt>
      <trkpt lat="43.4894" lon="5.79742">
        <ele>353.51</ele>
        <time>2016-01-24T07:24:46Z</time>
      </trkpt>
      <trkpt lat="43.48947" lon="5.79717">
        <ele>353.5</ele>
        <time>2016-01-24T07:24:51Z</time>
      </trkpt>
      <trkpt lat="43.48954" lon="5.7969">
        <ele>355.25</ele>
        <time>2016-01-24T07:24:58Z</time>
      </trkpt>
      <trkpt lat="43.48961" lon="5.79667">
        <ele>355.34</ele>
        <time>2016-01-24T07:25:04Z</time>
      </trkpt>
      <trkpt lat="43.48969" lon="5.79644">
        <ele>355.99</ele>
        <time>2016-01-24T07:25:11Z</time>
      </trkpt>
      <trkpt lat="43.48983" lon="5.79626">
        <ele>355.62</ele>
        <time>2016-01-24T07:25:21Z</time>
      </trkpt>
      <trkpt lat="43.49002" lon="5.7962">
        <ele>355.32</ele>
        <time>2016-01-24T07:25:36Z</time>
      </trkpt>
      <trkpt lat="43.49021" lon="5.79614">
        <ele>356.25</ele>
        <time>2016-01-24T07:25:43Z</time>
      </trkpt>
      <trkpt lat="43.4904" lon="5.79608">
        <ele>356.02</ele>
        <time>2016-01-24T07:25:49Z</time>
      </trkpt>
      <trkpt lat="43.49061" lon="5.79599">
        <ele>356.71</ele>
        <time>2016-01-24T07:25:55Z</time>
      </trkpt>
      <trkpt lat="43.49079" lon="5.79592">
        <ele>357.45</ele>
        <time>2016-01-24T07:26:01Z</time>
      </trkpt>
      <trkpt lat="43.49099" lon="5.79584">
        <ele>357.04</ele>
        <time>2016-01-24T07:26:07Z</time>
      </trkpt>
      <trkpt lat="43.49118" lon="5.79577">
        <ele>356.5</ele>
        <time>2016-01-24T07:26:13Z</time>
      </trkpt>
      <trkpt lat="43.49138" lon="5.79569">
        <ele>357.09</ele>
        <time>2016-01-24T07:26:19Z</time>
      </trkpt>
      <trkpt lat="43.49159" lon="5.79561">
        <ele>358.48</ele>
        <time>2016-01-24T07:26:25Z</time>
      </trkpt>
      <trkpt lat="43.49177" lon="5.79554">
        <ele>358.39</ele>
        <time>2016-01-24T07:26:30Z</time>
      </trkpt>
      <trkpt lat="43.49195" lon="5.79546">
        <ele>358.75</ele>
        <time>2016-01-24T07:26:35Z</time>
      </trkpt>
      <trkpt lat="43.49215" lon="5.79537">
        <ele>359.76</ele>
        <time>2016-01-24T07:26:41Z</time>
      </trkpt>
      <trkpt lat="43.49232" lon="5.79527">
        <ele>360.99</ele>
        <time>2016-01-24T07:26:47Z</time>
      </trkpt>
      <trkpt lat="43.49249" lon="5.79516">
        <ele>361.34</ele>
        <time>2016-01-24T07:26:53Z</time>
      </trkpt>
      <trkpt lat="43.49267" lon="5.79501">
        <ele>362.32</ele>
        <time>2016-01-24T07:27:00Z</time>
      </trkpt>
      <trkpt lat="43.49283" lon="5.79485">
        <ele>363.36</ele>
        <time>2016-01-24T07:27:07Z</time>
      </trkpt>
      <trkpt lat="43.49299" lon="5.79469">
        <ele>364.33</ele>
        <time>2016-01-24T07:27:14Z</time>
      </trkpt>
      <trkpt lat="43.49316" lon="5.79454">
        <ele>365.66</ele>
        <time>2016-01-24T07:27:21Z</time>
      </trkpt>
      <trkpt lat="43.49332" lon="5.7944">
        <ele>365.97</ele>
        <time>2016-01-24T07:27:28Z</time>
      </trkpt>
      <trkpt lat="43.4935" lon="5.79426">
        <ele>366.37</ele>
        <time>2016-01-24T07:27:36Z</time>
      </trkpt>
      <trkpt lat="43.49366" lon="5.79414">
        <ele>366.84</ele>
        <time>2016-01-24T07:27:44Z</time>
      </trkpt>
      <trkpt lat="43.49383" lon="5.79403">
        <ele>368.15</ele>
        <time>2016-01-24T07:27:53Z</time>
      </trkpt>
      <trkpt lat="43.494" lon="5.79392">
        <ele>369.63</ele>
        <time>2016-01-24T07:28:02Z</time>
      </trkpt>
      <trkpt lat="43.49419" lon="5.79384">
        <ele>371.31</ele>
        <time>2016-01-24T07:28:11Z</time>
      </trkpt>
      <trkpt lat="43.49439" lon="5.79379">
        <ele>373.28</ele>
        <time>2016-01-24T07:28:21Z</time>
      </trkpt>
      <trkpt lat="43.49457" lon="5.79373">
        <ele>374.24</ele>
        <time>2016-01-24T07:28:31Z</time>
      </trkpt>
      <trkpt lat="43.49475" lon="5.79366">
        <ele>376.49</ele>
        <time>2016-01-24T07:28:41Z</time>
      </trkpt>
      <trkpt lat="43.49492" lon="5.79359">
        <ele>378.73</ele>
        <time>2016-01-24T07:28:51Z</time>
      </trkpt>
      <trkpt lat="43.4951" lon="5.7935">
        <ele>379.82</ele>
        <time>2016-01-24T07:29:01Z</time>
      </trkpt>
      <trkpt lat="43.49526" lon="5.79337">
        <ele>380.8</ele>
        <time>2016-01-24T07:29:11Z</time>
      </trkpt>
      <trkpt lat="43.49541" lon="5.7932">
        <ele>381.33</ele>
        <time>2016-01-24T07:29:23Z</time>
      </trkpt>
      <trkpt lat="43.49555" lon="5.79302">
        <ele>381.04</ele>
        <time>2016-01-24T07:29:34Z</time>
      </trkpt>
      <trkpt lat="43.49567" lon="5.79283">
        <ele>380.43</ele>
        <time>2016-01-24T07:29:45Z</time>
      </trkpt>
      <trkpt lat="43.49584" lon="5.79267">
        <ele>380.42</ele>
        <time>2016-01-24T07:33:38Z</time>
      </trkpt>
      <trkpt lat="43.496" lon="5.79253">
        <ele>380.64</ele>
        <time>2016-01-24T07:33:45Z</time>
      </trkpt>
      <trkpt lat="43.49619" lon="5.7924">
        <ele>380.16</ele>
        <time>2016-01-24T07:33:50Z</time>
      </trkpt>
      <trkpt lat="43.4964" lon="5.79229">
        <ele>378.8</ele>
        <time>2016-01-24T07:33:54Z</time>
      </trkpt>
      <trkpt lat="43.49662" lon="5.7922">
        <ele>377.51</ele>
        <time>2016-01-24T07:33:58Z</time>
      </trkpt>
      <trkpt lat="43.4968" lon="5.79212">
        <ele>377.65</ele>
        <time>2016-01-24T07:34:02Z</time>
      </trkpt>
      <trkpt lat="43.49701" lon="5.79203">
        <ele>378.71</ele>
        <time>2016-01-24T07:34:07Z</time>
      </trkpt>
      <trkpt lat="43.49718" lon="5.79194">
        <ele>382.4</ele>
        <time>2016-01-24T07:34:13Z</time>
      </trkpt>
      <trkpt lat="43.49737" lon="5.79184">
        <ele>385.5</ele>
        <time>2016-01-24T07:34:21Z</time>
      </trkpt>
      <trkpt lat="43.49754" lon="5.79174">
        <ele>386.56</ele>
        <time>2016-01-24T07:34:28Z</time>
      </trkpt>
      <trkpt lat="43.49771" lon="5.79164">
        <ele>387.14</ele>
        <time>2016-01-24T07:34:35Z</time>
      </trkpt>
      <trkpt lat="43.49791" lon="5.79153">
        <ele>387.78</ele>
        <time>2016-01-24T07:34:43Z</time>
      </trkpt>
      <trkpt lat="43.49809" lon="5.79145">
        <ele>388.19</ele>
        <time>2016-01-24T07:34:50Z</time>
      </trkpt>
      <trkpt lat="43.49829" lon="5.79135">
        <ele>389.08</ele>
        <time>2016-01-24T07:34:57Z</time>
      </trkpt>
      <trkpt lat="43.49849" lon="5.79128">
        <ele>388.5</ele>
        <time>2016-01-24T07:35:04Z</time>
      </trkpt>
      <trkpt lat="43.49866" lon="5.7912">
        <ele>388.54</ele>
        <time>2016-01-24T07:35:10Z</time>
      </trkpt>
      <trkpt lat="43.49885" lon="5.7911">
        <ele>388.61</ele>
        <time>2016-01-24T07:35:17Z</time>
      </trkpt>
      <trkpt lat="43.49905" lon="5.79102">
        <ele>387.88</ele>
        <time>2016-01-24T07:35:24Z</time>
      </trkpt>
      <trkpt lat="43.49924" lon="5.79096">
        <ele>387.45</ele>
        <time>2016-01-24T07:35:31Z</time>
      </trkpt>
      <trkpt lat="43.49944" lon="5.79091">
        <ele>387</ele>
        <time>2016-01-24T07:35:37Z</time>
      </trkpt>
      <trkpt lat="43.49962" lon="5.79084">
        <ele>386.46</ele>
        <time>2016-01-24T07:35:42Z</time>
      </trkpt>
      <trkpt lat="43.49984" lon="5.79077">
        <ele>384.03</ele>
        <time>2016-01-24T07:35:47Z</time>
      </trkpt>
      <trkpt lat="43.50005" lon="5.79073">
        <ele>381.8</ele>
        <time>2016-01-24T07:35:51Z</time>
      </trkpt>
      <trkpt lat="43.50027" lon="5.79069">
        <ele>378.59</ele>
        <time>2016-01-24T07:35:54Z</time>
      </trkpt>
      <trkpt lat="43.50053" lon="5.79064">
        <ele>373.95</ele>
        <time>2016-01-24T07:35:57Z</time>
      </trkpt>
      <trkpt lat="43.50077" lon="5.79052">
        <ele>369.4</ele>
        <time>2016-01-24T07:36:00Z</time>
      </trkpt>
      <trkpt lat="43.50092" lon="5.7903">
        <ele>369.09</ele>
        <time>2016-01-24T07:36:03Z</time>
      </trkpt>
      <trkpt lat="43.50105" lon="5.79012">
        <ele>369.46</ele>
        <time>2016-01-24T07:36:06Z</time>
      </trkpt>
      <trkpt lat="43.50123" lon="5.78997">
        <ele>371.01</ele>
        <time>2016-01-24T07:36:10Z</time>
      </trkpt>
      <trkpt lat="43.50143" lon="5.78984">
        <ele>373.06</ele>
        <time>2016-01-24T07:36:15Z</time>
      </trkpt>
      <trkpt lat="43.5016" lon="5.78976">
        <ele>374.44</ele>
        <time>2016-01-24T07:36:20Z</time>
      </trkpt>
      <trkpt lat="43.5018" lon="5.7897">
        <ele>374.39</ele>
        <time>2016-01-24T07:36:26Z</time>
      </trkpt>
      <trkpt lat="43.50199" lon="5.78968">
        <ele>373.44</ele>
        <time>2016-01-24T07:36:31Z</time>
      </trkpt>
      <trkpt lat="43.50218" lon="5.78964">
        <ele>371.91</ele>
        <time>2016-01-24T07:36:35Z</time>
      </trkpt>
      <trkpt lat="43.50238" lon="5.78955">
        <ele>370.22</ele>
        <time>2016-01-24T07:36:39Z</time>
      </trkpt>
      <trkpt lat="43.50258" lon="5.78939">
        <ele>368.12</ele>
        <time>2016-01-24T07:36:43Z</time>
      </trkpt>
      <trkpt lat="43.50271" lon="5.78918">
        <ele>366.66</ele>
        <time>2016-01-24T07:36:46Z</time>
      </trkpt>
      <trkpt lat="43.50279" lon="5.78892">
        <ele>365.33</ele>
        <time>2016-01-24T07:36:49Z</time>
      </trkpt>
      <trkpt lat="43.50284" lon="5.78865">
        <ele>364.68</ele>
        <time>2016-01-24T07:36:52Z</time>
      </trkpt>
      <trkpt lat="43.50285" lon="5.7884">
        <ele>364.41</ele>
        <time>2016-01-24T07:36:55Z</time>
      </trkpt>
      <trkpt lat="43.50282" lon="5.7881">
        <ele>364.38</ele>
        <time>2016-01-24T07:36:59Z</time>
      </trkpt>
      <trkpt lat="43.5029" lon="5.78785">
        <ele>364.76</ele>
        <time>2016-01-24T07:37:03Z</time>
      </trkpt>
      <trkpt lat="43.50309" lon="5.78782">
        <ele>366.49</ele>
        <time>2016-01-24T07:37:08Z</time>
      </trkpt>
      <trkpt lat="43.50329" lon="5.78783">
        <ele>367.23</ele>
        <time>2016-01-24T07:37:13Z</time>
      </trkpt>
      <trkpt lat="43.50348" lon="5.78785">
        <ele>367.58</ele>
        <time>2016-01-24T07:37:18Z</time>
      </trkpt>
      <trkpt lat="43.50367" lon="5.78787">
        <ele>368.29</ele>
        <time>2016-01-24T07:37:23Z</time>
      </trkpt>
      <trkpt lat="43.50385" lon="5.78792">
        <ele>369.06</ele>
        <time>2016-01-24T07:37:28Z</time>
      </trkpt>
      <trkpt lat="43.50404" lon="5.78799">
        <ele>368.53</ele>
        <time>2016-01-24T07:37:33Z</time>
      </trkpt>
      <trkpt lat="43.50421" lon="5.78807">
        <ele>367.74</ele>
        <time>2016-01-24T07:37:37Z</time>
      </trkpt>
      <trkpt lat="43.5044" lon="5.78815">
        <ele>366.87</ele>
        <time>2016-01-24T07:37:41Z</time>
      </trkpt>
      <trkpt lat="43.50462" lon="5.78817">
        <ele>365.07</ele>
        <time>2016-01-24T07:37:45Z</time>
      </trkpt>
      <trkpt lat="43.50482" lon="5.78813">
        <ele>362.31</ele>
        <time>2016-01-24T07:37:50Z</time>
      </trkpt>
      <trkpt lat="43.505" lon="5.78801">
        <ele>360.13</ele>
        <time>2016-01-24T07:37:54Z</time>
      </trkpt>
      <trkpt lat="43.50515" lon="5.78782">
        <ele>358.82</ele>
        <time>2016-01-24T07:37:58Z</time>
      </trkpt>
      <trkpt lat="43.50529" lon="5.7876">
        <ele>357.38</ele>
        <time>2016-01-24T07:38:02Z</time>
      </trkpt>
      <trkpt lat="43.50544" lon="5.78743">
        <ele>353.87</ele>
        <time>2016-01-24T07:40:02Z</time>
      </trkpt>
      <trkpt lat="43.50545" lon="5.78768">
        <ele>353.51</ele>
        <time>2016-01-24T07:40:21Z</time>
      </trkpt>
      <trkpt lat="43.50541" lon="5.78793">
        <ele>351.76</ele>
        <time>2016-01-24T07:40:26Z</time>
      </trkpt>
      <trkpt lat="43.50545" lon="5.7882">
        <ele>349.29</ele>
        <time>2016-01-24T07:40:32Z</time>
      </trkpt>
      <trkpt lat="43.50559" lon="5.78837">
        <ele>348.1</ele>
        <time>2016-01-24T07:40:38Z</time>
      </trkpt>
      <trkpt lat="43.5058" lon="5.78842">
        <ele>348.06</ele>
        <time>2016-01-24T07:40:44Z</time>
      </trkpt>
      <trkpt lat="43.50599" lon="5.78849">
        <ele>348.45</ele>
        <time>2016-01-24T07:40:50Z</time>
      </trkpt>
      <trkpt lat="43.50619" lon="5.78851">
        <ele>348.73</ele>
        <time>2016-01-24T07:40:56Z</time>
      </trkpt>
      <trkpt lat="43.50636" lon="5.78844">
        <ele>349.04</ele>
        <time>2016-01-24T07:41:01Z</time>
      </trkpt>
      <trkpt lat="43.50652" lon="5.78826">
        <ele>349.71</ele>
        <time>2016-01-24T07:41:07Z</time>
      </trkpt>
      <trkpt lat="43.5066" lon="5.78799">
        <ele>351.2</ele>
        <time>2016-01-24T07:41:13Z</time>
      </trkpt>
      <trkpt lat="43.50666" lon="5.78772">
        <ele>351.96</ele>
        <time>2016-01-24T07:41:19Z</time>
      </trkpt>
      <trkpt lat="43.50674" lon="5.78749">
        <ele>352.21</ele>
        <time>2016-01-24T07:41:24Z</time>
      </trkpt>
      <trkpt lat="43.5069" lon="5.78729">
        <ele>353.24</ele>
        <time>2016-01-24T07:41:30Z</time>
      </trkpt>
      <trkpt lat="43.50705" lon="5.78712">
        <ele>355.81</ele>
        <time>2016-01-24T07:41:36Z</time>
      </trkpt>
      <trkpt lat="43.50724" lon="5.78703">
        <ele>357.91</ele>
        <time>2016-01-24T07:41:42Z</time>
      </trkpt>
      <trkpt lat="43.50742" lon="5.78706">
        <ele>357.49</ele>
        <time>2016-01-24T07:41:48Z</time>
      </trkpt>
      <trkpt lat="43.50756" lon="5.78726">
        <ele>357.51</ele>
        <time>2016-01-24T07:41:55Z</time>
      </trkpt>
      <trkpt lat="43.50768" lon="5.78745">
        <ele>357.2</ele>
        <time>2016-01-24T07:42:01Z</time>
      </trkpt>
      <trkpt lat="43.50784" lon="5.78757">
        <ele>357.49</ele>
        <time>2016-01-24T07:42:08Z</time>
      </trkpt>
      <trkpt lat="43.50802" lon="5.78756">
        <ele>358.3</ele>
        <time>2016-01-24T07:42:15Z</time>
      </trkpt>
      <trkpt lat="43.50818" lon="5.78744">
        <ele>360.32</ele>
        <time>2016-01-24T07:42:23Z</time>
      </trkpt>
      <trkpt lat="43.50833" lon="5.78729">
        <ele>360.77</ele>
        <time>2016-01-24T07:42:30Z</time>
      </trkpt>
      <trkpt lat="43.50842" lon="5.78704">
        <ele>361.86</ele>
        <time>2016-01-24T07:42:45Z</time>
      </trkpt>
      <trkpt lat="43.5086" lon="5.78714">
        <ele>363.91</ele>
        <time>2016-01-24T07:43:32Z</time>
      </trkpt>
      <trkpt lat="43.50877" lon="5.78704">
        <ele>365.81</ele>
        <time>2016-01-24T07:43:39Z</time>
      </trkpt>
      <trkpt lat="43.50897" lon="5.78703">
        <ele>368.07</ele>
        <time>2016-01-24T07:43:46Z</time>
      </trkpt>
      <trkpt lat="43.50915" lon="5.78712">
        <ele>368.99</ele>
        <time>2016-01-24T07:43:53Z</time>
      </trkpt>
      <trkpt lat="43.50928" lon="5.78729">
        <ele>368.77</ele>
        <time>2016-01-24T07:43:59Z</time>
      </trkpt>
      <trkpt lat="43.50946" lon="5.78734">
        <ele>368.43</ele>
        <time>2016-01-24T07:44:05Z</time>
      </trkpt>
      <trkpt lat="43.50964" lon="5.78726">
        <ele>369.67</ele>
        <time>2016-01-24T07:44:12Z</time>
      </trkpt>
      <trkpt lat="43.5098" lon="5.78715">
        <ele>369.96</ele>
        <time>2016-01-24T07:44:18Z</time>
      </trkpt>
      <trkpt lat="43.50997" lon="5.78703">
        <ele>370.09</ele>
        <time>2016-01-24T07:44:24Z</time>
      </trkpt>
      <trkpt lat="43.51014" lon="5.78695">
        <ele>372.24</ele>
        <time>2016-01-24T07:44:31Z</time>
      </trkpt>
      <trkpt lat="43.51031" lon="5.78686">
        <ele>372.5</ele>
        <time>2016-01-24T07:44:38Z</time>
      </trkpt>
      <trkpt lat="43.51051" lon="5.78679">
        <ele>373.08</ele>
        <time>2016-01-24T07:44:45Z</time>
      </trkpt>
      <trkpt lat="43.51071" lon="5.78677">
        <ele>373.63</ele>
        <time>2016-01-24T07:44:52Z</time>
      </trkpt>
      <trkpt lat="43.51092" lon="5.78673">
        <ele>373.84</ele>
        <time>2016-01-24T07:44:59Z</time>
      </trkpt>
      <trkpt lat="43.51112" lon="5.78667">
        <ele>374.37</ele>
        <time>2016-01-24T07:45:06Z</time>
      </trkpt>
      <trkpt lat="43.51131" lon="5.78663">
        <ele>374.92</ele>
        <time>2016-01-24T07:45:13Z</time>
      </trkpt>
      <trkpt lat="43.51151" lon="5.78661">
        <ele>375.28</ele>
        <time>2016-01-24T07:45:20Z</time>
      </trkpt>
      <trkpt lat="43.51171" lon="5.7866">
        <ele>375.7</ele>
        <time>2016-01-24T07:45:27Z</time>
      </trkpt>
      <trkpt lat="43.51191" lon="5.7866">
        <ele>376.97</ele>
        <time>2016-01-24T07:45:34Z</time>
      </trkpt>
      <trkpt lat="43.51209" lon="5.78656">
        <ele>377.89</ele>
        <time>2016-01-24T07:45:40Z</time>
      </trkpt>
      <trkpt lat="43.51227" lon="5.78648">
        <ele>378.86</ele>
        <time>2016-01-24T07:45:47Z</time>
      </trkpt>
      <trkpt lat="43.51242" lon="5.78628">
        <ele>378.69</ele>
        <time>2016-01-24T07:45:55Z</time>
      </trkpt>
      <trkpt lat="43.51253" lon="5.78605">
        <ele>376.77</ele>
        <time>2016-01-24T07:46:03Z</time>
      </trkpt>
      <trkpt lat="43.51265" lon="5.78583">
        <ele>376.01</ele>
        <time>2016-01-24T07:46:10Z</time>
      </trkpt>
      <trkpt lat="43.51275" lon="5.7856">
        <ele>376.85</ele>
        <time>2016-01-24T07:46:17Z</time>
      </trkpt>
      <trkpt lat="43.51285" lon="5.78535">
        <ele>377.93</ele>
        <time>2016-01-24T07:46:24Z</time>
      </trkpt>
      <trkpt lat="43.513" lon="5.78519">
        <ele>379.33</ele>
        <time>2016-01-24T07:46:30Z</time>
      </trkpt>
      <trkpt lat="43.51313" lon="5.785">
        <ele>379.75</ele>
        <time>2016-01-24T07:46:36Z</time>
      </trkpt>
      <trkpt lat="43.51326" lon="5.78481">
        <ele>379.61</ele>
        <time>2016-01-24T07:46:42Z</time>
      </trkpt>
      <trkpt lat="43.51345" lon="5.78469">
        <ele>379.88</ele>
        <time>2016-01-24T07:46:48Z</time>
      </trkpt>
      <trkpt lat="43.51363" lon="5.78467">
        <ele>379.16</ele>
        <time>2016-01-24T07:46:54Z</time>
      </trkpt>
      <trkpt lat="43.51384" lon="5.78472">
        <ele>380.44</ele>
        <time>2016-01-24T07:47:01Z</time>
      </trkpt>
      <trkpt lat="43.51403" lon="5.78477">
        <ele>381.5</ele>
        <time>2016-01-24T07:47:07Z</time>
      </trkpt>
      <trkpt lat="43.51423" lon="5.78476">
        <ele>382.04</ele>
        <time>2016-01-24T07:47:13Z</time>
      </trkpt>
      <trkpt lat="43.51442" lon="5.78471">
        <ele>383.11</ele>
        <time>2016-01-24T07:47:19Z</time>
      </trkpt>
      <trkpt lat="43.51461" lon="5.78471">
        <ele>383.89</ele>
        <time>2016-01-24T07:47:25Z</time>
      </trkpt>
      <trkpt lat="43.5148" lon="5.78474">
        <ele>383.9</ele>
        <time>2016-01-24T07:47:31Z</time>
      </trkpt>
      <trkpt lat="43.51498" lon="5.78472">
        <ele>382.99</ele>
        <time>2016-01-24T07:47:37Z</time>
      </trkpt>
      <trkpt lat="43.51517" lon="5.78476">
        <ele>382.71</ele>
        <time>2016-01-24T07:47:43Z</time>
      </trkpt>
      <trkpt lat="43.51535" lon="5.78476">
        <ele>382.64</ele>
        <time>2016-01-24T07:47:49Z</time>
      </trkpt>
      <trkpt lat="43.51549" lon="5.7846">
        <ele>382.93</ele>
        <time>2016-01-24T07:47:55Z</time>
      </trkpt>
      <trkpt lat="43.51562" lon="5.78441">
        <ele>382.9</ele>
        <time>2016-01-24T07:48:01Z</time>
      </trkpt>
      <trkpt lat="43.51576" lon="5.78423">
        <ele>382.66</ele>
        <time>2016-01-24T07:48:07Z</time>
      </trkpt>
      <trkpt lat="43.51589" lon="5.78407">
        <ele>382.83</ele>
        <time>2016-01-24T07:48:13Z</time>
      </trkpt>
      <trkpt lat="43.51604" lon="5.7839">
        <ele>383.54</ele>
        <time>2016-01-24T07:48:20Z</time>
      </trkpt>
      <trkpt lat="43.5162" lon="5.78376">
        <ele>383.98</ele>
        <time>2016-01-24T07:48:26Z</time>
      </trkpt>
      <trkpt lat="43.51636" lon="5.78365">
        <ele>385.04</ele>
        <time>2016-01-24T07:48:32Z</time>
      </trkpt>
      <trkpt lat="43.51653" lon="5.78354">
        <ele>386.37</ele>
        <time>2016-01-24T07:48:38Z</time>
      </trkpt>
      <trkpt lat="43.5167" lon="5.78346">
        <ele>389.43</ele>
        <time>2016-01-24T07:48:44Z</time>
      </trkpt>
      <trkpt lat="43.5169" lon="5.78341">
        <ele>390.43</ele>
        <time>2016-01-24T07:48:50Z</time>
      </trkpt>
      <trkpt lat="43.51709" lon="5.78341">
        <ele>390.66</ele>
        <time>2016-01-24T07:48:56Z</time>
      </trkpt>
      <trkpt lat="43.51725" lon="5.78356">
        <ele>390.61</ele>
        <time>2016-01-24T07:49:02Z</time>
      </trkpt>
      <trkpt lat="43.51735" lon="5.78377">
        <ele>389.79</ele>
        <time>2016-01-24T07:49:08Z</time>
      </trkpt>
      <trkpt lat="43.51742" lon="5.784">
        <ele>389.12</ele>
        <time>2016-01-24T07:49:14Z</time>
      </trkpt>
      <trkpt lat="43.51749" lon="5.78424">
        <ele>387.86</ele>
        <time>2016-01-24T07:49:20Z</time>
      </trkpt>
      <trkpt lat="43.51763" lon="5.78445">
        <ele>386.52</ele>
        <time>2016-01-24T07:49:27Z</time>
      </trkpt>
      <trkpt lat="43.5178" lon="5.78461">
        <ele>387.81</ele>
        <time>2016-01-24T07:49:34Z</time>
      </trkpt>
      <trkpt lat="43.51798" lon="5.78471">
        <ele>388.86</ele>
        <time>2016-01-24T07:49:42Z</time>
      </trkpt>
      <trkpt lat="43.51816" lon="5.78477">
        <ele>388.63</ele>
        <time>2016-01-24T07:49:53Z</time>
      </trkpt>
      <trkpt lat="43.51841" lon="5.78472">
        <ele>389.02</ele>
        <time>2016-01-24T07:51:23Z</time>
      </trkpt>
      <trkpt lat="43.5186" lon="5.78472">
        <ele>391.55</ele>
        <time>2016-01-24T07:53:29Z</time>
      </trkpt>
      <trkpt lat="43.51877" lon="5.78479">
        <ele>393.76</ele>
        <time>2016-01-24T07:53:36Z</time>
      </trkpt>
      <trkpt lat="43.51897" lon="5.7848">
        <ele>396.44</ele>
        <time>2016-01-24T07:53:43Z</time>
      </trkpt>
      <trkpt lat="43.51917" lon="5.78479">
        <ele>398.66</ele>
        <time>2016-01-24T07:53:50Z</time>
      </trkpt>
      <trkpt lat="43.51935" lon="5.78475">
        <ele>401.62</ele>
        <time>2016-01-24T07:53:57Z</time>
      </trkpt>
      <trkpt lat="43.51954" lon="5.78472">
        <ele>402.13</ele>
        <time>2016-01-24T07:54:03Z</time>
      </trkpt>
      <trkpt lat="43.51975" lon="5.78466">
        <ele>401.93</ele>
        <time>2016-01-24T07:54:09Z</time>
      </trkpt>
      <trkpt lat="43.51992" lon="5.78459">
        <ele>401.77</ele>
        <time>2016-01-24T07:54:14Z</time>
      </trkpt>
      <trkpt lat="43.52012" lon="5.78454">
        <ele>402.81</ele>
        <time>2016-01-24T07:54:20Z</time>
      </trkpt>
      <trkpt lat="43.5203" lon="5.78448">
        <ele>404.73</ele>
        <time>2016-01-24T07:54:26Z</time>
      </trkpt>
      <trkpt lat="43.52049" lon="5.78441">
        <ele>405.08</ele>
        <time>2016-01-24T07:54:32Z</time>
      </trkpt>
      <trkpt lat="43.52068" lon="5.78439">
        <ele>407.73</ele>
        <time>2016-01-24T07:54:39Z</time>
      </trkpt>
      <trkpt lat="43.52088" lon="5.7844">
        <ele>408.91</ele>
        <time>2016-01-24T07:54:45Z</time>
      </trkpt>
      <trkpt lat="43.52106" lon="5.78445">
        <ele>408.68</ele>
        <time>2016-01-24T07:54:51Z</time>
      </trkpt>
      <trkpt lat="43.52125" lon="5.78454">
        <ele>409.31</ele>
        <time>2016-01-24T07:54:58Z</time>
      </trkpt>
      <trkpt lat="43.52143" lon="5.78464">
        <ele>408.9</ele>
        <time>2016-01-24T07:55:04Z</time>
      </trkpt>
      <trkpt lat="43.5216" lon="5.78474">
        <ele>408.94</ele>
        <time>2016-01-24T07:55:10Z</time>
      </trkpt>
      <trkpt lat="43.52178" lon="5.78489">
        <ele>411.08</ele>
        <time>2016-01-24T07:55:17Z</time>
      </trkpt>
      <trkpt lat="43.52192" lon="5.78506">
        <ele>414.68</ele>
        <time>2016-01-24T07:55:24Z</time>
      </trkpt>
      <trkpt lat="43.52209" lon="5.78522">
        <ele>417.84</ele>
        <time>2016-01-24T07:55:31Z</time>
      </trkpt>
      <trkpt lat="43.52222" lon="5.78539">
        <ele>420.23</ele>
        <time>2016-01-24T07:55:37Z</time>
      </trkpt>
      <trkpt lat="43.52238" lon="5.78559">
        <ele>423.36</ele>
        <time>2016-01-24T07:55:44Z</time>
      </trkpt>
      <trkpt lat="43.5225" lon="5.78578">
        <ele>426.76</ele>
        <time>2016-01-24T07:55:50Z</time>
      </trkpt>
      <trkpt lat="43.5226" lon="5.78598">
        <ele>430.28</ele>
        <time>2016-01-24T07:55:56Z</time>
      </trkpt>
      <trkpt lat="43.52275" lon="5.78614">
        <ele>433.26</ele>
        <time>2016-01-24T07:56:02Z</time>
      </trkpt>
      <trkpt lat="43.5229" lon="5.78631">
        <ele>436.48</ele>
        <time>2016-01-24T07:56:09Z</time>
      </trkpt>
      <trkpt lat="43.52304" lon="5.78648">
        <ele>437.93</ele>
        <time>2016-01-24T07:56:15Z</time>
      </trkpt>
      <trkpt lat="43.52318" lon="5.78666">
        <ele>439.43</ele>
        <time>2016-01-24T07:56:21Z</time>
      </trkpt>
      <trkpt lat="43.52337" lon="5.78673">
        <ele>439.31</ele>
        <time>2016-01-24T07:56:27Z</time>
      </trkpt>
      <trkpt lat="43.52355" lon="5.78674">
        <ele>430.65</ele>
        <time>2016-01-24T07:56:33Z</time>
      </trkpt>
      <trkpt lat="43.52374" lon="5.78675">
        <ele>424.12</ele>
        <time>2016-01-24T07:56:40Z</time>
      </trkpt>
      <trkpt lat="43.52392" lon="5.78676">
        <ele>423.54</ele>
        <time>2016-01-24T07:56:46Z</time>
      </trkpt>
      <trkpt lat="43.52411" lon="5.7868">
        <ele>422.45</ele>
        <time>2016-01-24T07:56:52Z</time>
      </trkpt>
      <trkpt lat="43.52431" lon="5.7868">
        <ele>423.26</ele>
        <time>2016-01-24T07:56:59Z</time>
      </trkpt>
      <trkpt lat="43.5245" lon="5.78683">
        <ele>423.86</ele>
        <time>2016-01-24T07:57:05Z</time>
      </trkpt>
      <trkpt lat="43.5247" lon="5.78691">
        <ele>420.9</ele>
        <time>2016-01-24T07:57:11Z</time>
      </trkpt>
      <trkpt lat="43.52489" lon="5.78701">
        <ele>418.42</ele>
        <time>2016-01-24T07:57:17Z</time>
      </trkpt>
      <trkpt lat="43.52506" lon="5.78714">
        <ele>418.76</ele>
        <time>2016-01-24T07:57:23Z</time>
      </trkpt>
      <trkpt lat="43.52523" lon="5.78727">
        <ele>418.49</ele>
        <time>2016-01-24T07:57:29Z</time>
      </trkpt>
      <trkpt lat="43.5254" lon="5.78742">
        <ele>418.75</ele>
        <time>2016-01-24T07:57:35Z</time>
      </trkpt>
      <trkpt lat="43.52555" lon="5.78756">
        <ele>419.72</ele>
        <time>2016-01-24T07:57:41Z</time>
      </trkpt>
      <trkpt lat="43.52571" lon="5.78768">
        <ele>417.86</ele>
        <time>2016-01-24T07:57:47Z</time>
      </trkpt>
      <trkpt lat="43.5259" lon="5.7878">
        <ele>417.5</ele>
        <time>2016-01-24T07:57:54Z</time>
      </trkpt>
      <trkpt lat="43.52606" lon="5.78797">
        <ele>416.78</ele>
        <time>2016-01-24T07:58:01Z</time>
      </trkpt>
      <trkpt lat="43.52618" lon="5.78819">
        <ele>416.86</ele>
        <time>2016-01-24T07:58:08Z</time>
      </trkpt>
      <trkpt lat="43.52628" lon="5.7884">
        <ele>417.3</ele>
        <time>2016-01-24T07:58:14Z</time>
      </trkpt>
      <trkpt lat="43.5264" lon="5.78861">
        <ele>418</ele>
        <time>2016-01-24T07:58:20Z</time>
      </trkpt>
      <trkpt lat="43.52655" lon="5.78881">
        <ele>419.52</ele>
        <time>2016-01-24T07:58:27Z</time>
      </trkpt>
      <trkpt lat="43.52667" lon="5.78901">
        <ele>421.27</ele>
        <time>2016-01-24T07:58:33Z</time>
      </trkpt>
      <trkpt lat="43.52682" lon="5.78919">
        <ele>422.75</ele>
        <time>2016-01-24T07:58:39Z</time>
      </trkpt>
      <trkpt lat="43.527" lon="5.78932">
        <ele>427.02</ele>
        <time>2016-01-24T07:58:46Z</time>
      </trkpt>
      <trkpt lat="43.52717" lon="5.78942">
        <ele>430.42</ele>
        <time>2016-01-24T07:58:52Z</time>
      </trkpt>
      <trkpt lat="43.52735" lon="5.78949">
        <ele>431.3</ele>
        <time>2016-01-24T07:58:58Z</time>
      </trkpt>
      <trkpt lat="43.52754" lon="5.78958">
        <ele>431.81</ele>
        <time>2016-01-24T07:59:04Z</time>
      </trkpt>
      <trkpt lat="43.52775" lon="5.78962">
        <ele>433.69</ele>
        <time>2016-01-24T07:59:11Z</time>
      </trkpt>
      <trkpt lat="43.52793" lon="5.78964">
        <ele>435.73</ele>
        <time>2016-01-24T07:59:17Z</time>
      </trkpt>
      <trkpt lat="43.52813" lon="5.78969">
        <ele>435.32</ele>
        <time>2016-01-24T07:59:24Z</time>
      </trkpt>
      <trkpt lat="43.5283" lon="5.78979">
        <ele>432.35</ele>
        <time>2016-01-24T07:59:30Z</time>
      </trkpt>
      <trkpt lat="43.52847" lon="5.7899">
        <ele>430.09</ele>
        <time>2016-01-24T07:59:36Z</time>
      </trkpt>
      <trkpt lat="43.52867" lon="5.78999">
        <ele>430.6</ele>
        <time>2016-01-24T07:59:43Z</time>
      </trkpt>
      <trkpt lat="43.52885" lon="5.79011">
        <ele>430.15</ele>
        <time>2016-01-24T07:59:50Z</time>
      </trkpt>
      <trkpt lat="43.529" lon="5.79026">
        <ele>429.85</ele>
        <time>2016-01-24T07:59:56Z</time>
      </trkpt>
      <trkpt lat="43.52916" lon="5.79044">
        <ele>429.35</ele>
        <time>2016-01-24T08:00:03Z</time>
      </trkpt>
      <trkpt lat="43.52932" lon="5.79059">
        <ele>430.95</ele>
        <time>2016-01-24T08:00:10Z</time>
      </trkpt>
      <trkpt lat="43.52948" lon="5.79075">
        <ele>429.12</ele>
        <time>2016-01-24T08:00:17Z</time>
      </trkpt>
      <trkpt lat="43.52965" lon="5.7909">
        <ele>428.28</ele>
        <time>2016-01-24T08:00:25Z</time>
      </trkpt>
      <trkpt lat="43.5298" lon="5.79109">
        <ele>429.62</ele>
        <time>2016-01-24T08:00:34Z</time>
      </trkpt>
      <trkpt lat="43.52993" lon="5.79129">
        <ele>429.7</ele>
        <time>2016-01-24T08:00:43Z</time>
      </trkpt>
      <trkpt lat="43.53007" lon="5.79144">
        <ele>426.13</ele>
        <time>2016-01-24T08:06:49Z</time>
      </trkpt>
      <trkpt lat="43.5302" lon="5.79165">
        <ele>428.79</ele>
        <time>2016-01-24T08:07:00Z</time>
      </trkpt>
      <trkpt lat="43.53029" lon="5.79186">
        <ele>432.6</ele>
        <time>2016-01-24T08:07:08Z</time>
      </trkpt>
      <trkpt lat="43.53035" lon="5.7921">
        <ele>434.57</ele>
        <time>2016-01-24T08:07:15Z</time>
      </trkpt>
      <trkpt lat="43.5304" lon="5.79237">
        <ele>435.62</ele>
        <time>2016-01-24T08:07:22Z</time>
      </trkpt>
      <trkpt lat="43.53045" lon="5.79262">
        <ele>436.4</ele>
        <time>2016-01-24T08:07:29Z</time>
      </trkpt>
      <trkpt lat="43.53051" lon="5.79287">
        <ele>436.4</ele>
        <time>2016-01-24T08:07:36Z</time>
      </trkpt>
      <trkpt lat="43.53058" lon="5.79314">
        <ele>436.43</ele>
        <time>2016-01-24T08:07:43Z</time>
      </trkpt>
      <trkpt lat="43.53067" lon="5.79339">
        <ele>437.63</ele>
        <time>2016-01-24T08:07:51Z</time>
      </trkpt>
      <trkpt lat="43.5308" lon="5.79361">
        <ele>438.52</ele>
        <time>2016-01-24T08:07:59Z</time>
      </trkpt>
      <trkpt lat="43.53096" lon="5.79375">
        <ele>439.08</ele>
        <time>2016-01-24T08:08:07Z</time>
      </trkpt>
      <trkpt lat="43.53113" lon="5.79391">
        <ele>437.83</ele>
        <time>2016-01-24T08:08:15Z</time>
      </trkpt>
      <trkpt lat="43.53128" lon="5.79406">
        <ele>437.37</ele>
        <time>2016-01-24T08:08:22Z</time>
      </trkpt>
      <trkpt lat="43.53145" lon="5.79421">
        <ele>437.24</ele>
        <time>2016-01-24T08:08:30Z</time>
      </trkpt>
      <trkpt lat="43.53164" lon="5.7943">
        <ele>437.7</ele>
        <time>2016-01-24T08:08:38Z</time>
      </trkpt>
      <trkpt lat="43.53184" lon="5.79428">
        <ele>441.59</ele>
        <time>2016-01-24T08:08:47Z</time>
      </trkpt>
      <trkpt lat="43.53203" lon="5.79422">
        <ele>447.44</ele>
        <time>2016-01-24T08:08:56Z</time>
      </trkpt>
      <trkpt lat="43.53223" lon="5.79421">
        <ele>450.44</ele>
        <time>2016-01-24T08:09:04Z</time>
      </trkpt>
      <trkpt lat="43.53242" lon="5.79422">
        <ele>450.21</ele>
        <time>2016-01-24T08:09:11Z</time>
      </trkpt>
      <trkpt lat="43.53262" lon="5.79423">
        <ele>449.3</ele>
        <time>2016-01-24T08:09:18Z</time>
      </trkpt>
      <trkpt lat="43.53281" lon="5.79431">
        <ele>447.07</ele>
        <time>2016-01-24T08:09:25Z</time>
      </trkpt>
      <trkpt lat="43.53299" lon="5.79443">
        <ele>445.72</ele>
        <time>2016-01-24T08:09:32Z</time>
      </trkpt>
      <trkpt lat="43.53316" lon="5.79455">
        <ele>444.24</ele>
        <time>2016-01-24T08:09:39Z</time>
      </trkpt>
      <trkpt lat="43.53332" lon="5.79466">
        <ele>443.85</ele>
        <time>2016-01-24T08:09:46Z</time>
      </trkpt>
      <trkpt lat="43.53349" lon="5.79475">
        <ele>444.29</ele>
        <time>2016-01-24T08:09:53Z</time>
      </trkpt>
      <trkpt lat="43.53368" lon="5.79482">
        <ele>444.28</ele>
        <time>2016-01-24T08:10:01Z</time>
      </trkpt>
      <trkpt lat="43.53387" lon="5.7948">
        <ele>447.95</ele>
        <time>2016-01-24T08:10:09Z</time>
      </trkpt>
      <trkpt lat="43.53406" lon="5.79478">
        <ele>449.23</ele>
        <time>2016-01-24T08:10:17Z</time>
      </trkpt>
      <trkpt lat="43.53425" lon="5.79485">
        <ele>448.49</ele>
        <time>2016-01-24T08:10:24Z</time>
      </trkpt>
      <trkpt lat="43.53441" lon="5.79499">
        <ele>450.02</ele>
        <time>2016-01-24T08:10:32Z</time>
      </trkpt>
      <trkpt lat="43.53454" lon="5.79519">
        <ele>449.65</ele>
        <time>2016-01-24T08:10:40Z</time>
      </trkpt>
      <trkpt lat="43.53468" lon="5.7954">
        <ele>448.51</ele>
        <time>2016-01-24T08:10:48Z</time>
      </trkpt>
      <trkpt lat="43.53484" lon="5.79557">
        <ele>447.21</ele>
        <time>2016-01-24T08:10:55Z</time>
      </trkpt>
      <trkpt lat="43.535" lon="5.79569">
        <ele>446.73</ele>
        <time>2016-01-24T08:11:02Z</time>
      </trkpt>
      <trkpt lat="43.53519" lon="5.79578">
        <ele>447.26</ele>
        <time>2016-01-24T08:11:10Z</time>
      </trkpt>
      <trkpt lat="43.53537" lon="5.79584">
        <ele>447.85</ele>
        <time>2016-01-24T08:11:17Z</time>
      </trkpt>
      <trkpt lat="43.53556" lon="5.79593">
        <ele>448.27</ele>
        <time>2016-01-24T08:11:24Z</time>
      </trkpt>
      <trkpt lat="43.5357" lon="5.79611">
        <ele>448.24</ele>
        <time>2016-01-24T08:11:31Z</time>
      </trkpt>
      <trkpt lat="43.53582" lon="5.79632">
        <ele>448.8</ele>
        <time>2016-01-24T08:11:38Z</time>
      </trkpt>
      <trkpt lat="43.53595" lon="5.79654">
        <ele>449.3</ele>
        <time>2016-01-24T08:11:45Z</time>
      </trkpt>
      <trkpt lat="43.53609" lon="5.7967">
        <ele>449.51</ele>
        <time>2016-01-24T08:11:51Z</time>
      </trkpt>
      <trkpt lat="43.53626" lon="5.79682">
        <ele>449.37</ele>
        <time>2016-01-24T08:11:57Z</time>
      </trkpt>
      <trkpt lat="43.53643" lon="5.79692">
        <ele>450.26</ele>
        <time>2016-01-24T08:12:03Z</time>
      </trkpt>
      <trkpt lat="43.53661" lon="5.79707">
        <ele>450.84</ele>
        <time>2016-01-24T08:12:10Z</time>
      </trkpt>
      <trkpt lat="43.5368" lon="5.79718">
        <ele>451.02</ele>
        <time>2016-01-24T08:12:17Z</time>
      </trkpt>
      <trkpt lat="43.537" lon="5.79724">
        <ele>452.64</ele>
        <time>2016-01-24T08:12:25Z</time>
      </trkpt>
      <trkpt lat="43.53715" lon="5.7974">
        <ele>454.13</ele>
        <time>2016-01-24T08:12:32Z</time>
      </trkpt>
      <trkpt lat="43.53727" lon="5.7976">
        <ele>454.45</ele>
        <time>2016-01-24T08:12:39Z</time>
      </trkpt>
      <trkpt lat="43.5374" lon="5.7978">
        <ele>455.44</ele>
        <time>2016-01-24T08:12:46Z</time>
      </trkpt>
      <trkpt lat="43.53753" lon="5.798">
        <ele>455.71</ele>
        <time>2016-01-24T08:12:53Z</time>
      </trkpt>
      <trkpt lat="43.53771" lon="5.79813">
        <ele>457.14</ele>
        <time>2016-01-24T08:13:01Z</time>
      </trkpt>
      <trkpt lat="43.5379" lon="5.79822">
        <ele>457.46</ele>
        <time>2016-01-24T08:13:09Z</time>
      </trkpt>
      <trkpt lat="43.53805" lon="5.79836">
        <ele>458.86</ele>
        <time>2016-01-24T08:13:17Z</time>
      </trkpt>
      <trkpt lat="43.5382" lon="5.79854">
        <ele>459.43</ele>
        <time>2016-01-24T08:13:25Z</time>
      </trkpt>
      <trkpt lat="43.53836" lon="5.79866">
        <ele>462.02</ele>
        <time>2016-01-24T08:13:33Z</time>
      </trkpt>
      <trkpt lat="43.53853" lon="5.79876">
        <ele>464.55</ele>
        <time>2016-01-24T08:13:41Z</time>
      </trkpt>
      <trkpt lat="43.53869" lon="5.79888">
        <ele>466.06</ele>
        <time>2016-01-24T08:13:49Z</time>
      </trkpt>
      <trkpt lat="43.53884" lon="5.79907">
        <ele>468.04</ele>
        <time>2016-01-24T08:13:58Z</time>
      </trkpt>
      <trkpt lat="43.53892" lon="5.79929">
        <ele>469.33</ele>
        <time>2016-01-24T08:14:06Z</time>
      </trkpt>
      <trkpt lat="43.53901" lon="5.79952">
        <ele>470.49</ele>
        <time>2016-01-24T08:14:14Z</time>
      </trkpt>
      <trkpt lat="43.53912" lon="5.79972">
        <ele>471.53</ele>
        <time>2016-01-24T08:14:22Z</time>
      </trkpt>
      <trkpt lat="43.53924" lon="5.79991">
        <ele>472.82</ele>
        <time>2016-01-24T08:14:30Z</time>
      </trkpt>
      <trkpt lat="43.53938" lon="5.80008">
        <ele>474.2</ele>
        <time>2016-01-24T08:14:38Z</time>
      </trkpt>
      <trkpt lat="43.53955" lon="5.80022">
        <ele>475.91</ele>
        <time>2016-01-24T08:14:47Z</time>
      </trkpt>
      <trkpt lat="43.5397" lon="5.80037">
        <ele>477.37</ele>
        <time>2016-01-24T08:14:56Z</time>
      </trkpt>
      <trkpt lat="43.53985" lon="5.80052">
        <ele>479.1</ele>
        <time>2016-01-24T08:15:05Z</time>
      </trkpt>
      <trkpt lat="43.54001" lon="5.80066">
        <ele>480.16</ele>
        <time>2016-01-24T08:15:15Z</time>
      </trkpt>
      <trkpt lat="43.54015" lon="5.80084">
        <ele>483.41</ele>
        <time>2016-01-24T08:15:26Z</time>
      </trkpt>
      <trkpt lat="43.54025" lon="5.80106">
        <ele>484.98</ele>
        <time>2016-01-24T08:15:37Z</time>
      </trkpt>
      <trkpt lat="43.54035" lon="5.80129">
        <ele>486.64</ele>
        <time>2016-01-24T08:15:47Z</time>
      </trkpt>
      <trkpt lat="43.54047" lon="5.80147">
        <ele>487.99</ele>
        <time>2016-01-24T08:15:58Z</time>
      </trkpt>
      <trkpt lat="43.54061" lon="5.80165">
        <ele>490.56</ele>
        <time>2016-01-24T08:16:10Z</time>
      </trkpt>
      <trkpt lat="43.54072" lon="5.80187">
        <ele>492.46</ele>
        <time>2016-01-24T08:16:23Z</time>
      </trkpt>
      <trkpt lat="43.54081" lon="5.8021">
        <ele>496.08</ele>
        <time>2016-01-24T08:16:36Z</time>
      </trkpt>
      <trkpt lat="43.54089" lon="5.80233">
        <ele>499.22</ele>
        <time>2016-01-24T08:16:48Z</time>
      </trkpt>
      <trkpt lat="43.54095" lon="5.80258">
        <ele>502.2</ele>
        <time>2016-01-24T08:17:01Z</time>
      </trkpt>
      <trkpt lat="43.54093" lon="5.80285">
        <ele>504.98</ele>
        <time>2016-01-24T08:17:12Z</time>
      </trkpt>
      <trkpt lat="43.54092" lon="5.80312">
        <ele>507.73</ele>
        <time>2016-01-24T08:17:23Z</time>
      </trkpt>
      <trkpt lat="43.54093" lon="5.80339">
        <ele>509.28</ele>
        <time>2016-01-24T08:17:33Z</time>
      </trkpt>
      <trkpt lat="43.5409" lon="5.80364">
        <ele>511.39</ele>
        <time>2016-01-24T08:17:43Z</time>
      </trkpt>
      <trkpt lat="43.5409" lon="5.80389">
        <ele>512.7</ele>
        <time>2016-01-24T08:17:52Z</time>
      </trkpt>
      <trkpt lat="43.54095" lon="5.80414">
        <ele>514.08</ele>
        <time>2016-01-24T08:18:02Z</time>
      </trkpt>
      <trkpt lat="43.54105" lon="5.80437">
        <ele>515.2</ele>
        <time>2016-01-24T08:18:13Z</time>
      </trkpt>
      <trkpt lat="43.54124" lon="5.80434">
        <ele>504.87</ele>
        <time>2016-01-24T08:29:39Z</time>
      </trkpt>
      <trkpt lat="43.54139" lon="5.80418">
        <ele>504.11</ele>
        <time>2016-01-24T08:29:46Z</time>
      </trkpt>
      <trkpt lat="43.54153" lon="5.80401">
        <ele>503.9</ele>
        <time>2016-01-24T08:29:53Z</time>
      </trkpt>
      <trkpt lat="43.54171" lon="5.80388">
        <ele>503.64</ele>
        <time>2016-01-24T08:30:01Z</time>
      </trkpt>
      <trkpt lat="43.54187" lon="5.80378">
        <ele>503.52</ele>
        <time>2016-01-24T08:30:08Z</time>
      </trkpt>
      <trkpt lat="43.54204" lon="5.80361">
        <ele>502.38</ele>
        <time>2016-01-24T08:30:18Z</time>
      </trkpt>
      <trkpt lat="43.54217" lon="5.80343">
        <ele>502.64</ele>
        <time>2016-01-24T08:30:25Z</time>
      </trkpt>
      <trkpt lat="43.54229" lon="5.80324">
        <ele>502.37</ele>
        <time>2016-01-24T08:30:32Z</time>
      </trkpt>
      <trkpt lat="43.5424" lon="5.80304">
        <ele>502.59</ele>
        <time>2016-01-24T08:30:39Z</time>
      </trkpt>
      <trkpt lat="43.5425" lon="5.8028">
        <ele>502.49</ele>
        <time>2016-01-24T08:30:47Z</time>
      </trkpt>
      <trkpt lat="43.54261" lon="5.80256">
        <ele>502.08</ele>
        <time>2016-01-24T08:30:55Z</time>
      </trkpt>
      <trkpt lat="43.54272" lon="5.80235">
        <ele>501.55</ele>
        <time>2016-01-24T08:31:02Z</time>
      </trkpt>
      <trkpt lat="43.54278" lon="5.80211">
        <ele>502.2</ele>
        <time>2016-01-24T08:31:09Z</time>
      </trkpt>
      <trkpt lat="43.54279" lon="5.80185">
        <ele>502.21</ele>
        <time>2016-01-24T08:31:16Z</time>
      </trkpt>
      <trkpt lat="43.54276" lon="5.80158">
        <ele>502.8</ele>
        <time>2016-01-24T08:31:24Z</time>
      </trkpt>
      <trkpt lat="43.54271" lon="5.80131">
        <ele>502.95</ele>
        <time>2016-01-24T08:31:32Z</time>
      </trkpt>
      <trkpt lat="43.54266" lon="5.80106">
        <ele>503.89</ele>
        <time>2016-01-24T08:31:39Z</time>
      </trkpt>
      <trkpt lat="43.54256" lon="5.80082">
        <ele>504.11</ele>
        <time>2016-01-24T08:31:46Z</time>
      </trkpt>
      <trkpt lat="43.54246" lon="5.80061">
        <ele>503.24</ele>
        <time>2016-01-24T08:31:52Z</time>
      </trkpt>
      <trkpt lat="43.54235" lon="5.8004">
        <ele>502.48</ele>
        <time>2016-01-24T08:31:58Z</time>
      </trkpt>
      <trkpt lat="43.54222" lon="5.80021">
        <ele>502.18</ele>
        <time>2016-01-24T08:32:04Z</time>
      </trkpt>
      <trkpt lat="43.5421" lon="5.80001">
        <ele>502.61</ele>
        <time>2016-01-24T08:32:10Z</time>
      </trkpt>
      <trkpt lat="43.54203" lon="5.79976">
        <ele>502.5</ele>
        <time>2016-01-24T08:32:16Z</time>
      </trkpt>
      <trkpt lat="43.54201" lon="5.79946">
        <ele>502.82</ele>
        <time>2016-01-24T08:32:22Z</time>
      </trkpt>
      <trkpt lat="43.542" lon="5.79921">
        <ele>502.86</ele>
        <time>2016-01-24T08:32:27Z</time>
      </trkpt>
      <trkpt lat="43.542" lon="5.79891">
        <ele>501.97</ele>
        <time>2016-01-24T08:32:33Z</time>
      </trkpt>
      <trkpt lat="43.542" lon="5.79866">
        <ele>501.07</ele>
        <time>2016-01-24T08:32:38Z</time>
      </trkpt>
      <trkpt lat="43.54201" lon="5.7984">
        <ele>500.75</ele>
        <time>2016-01-24T08:32:44Z</time>
      </trkpt>
      <trkpt lat="43.54198" lon="5.79814">
        <ele>501.44</ele>
        <time>2016-01-24T08:32:49Z</time>
      </trkpt>
      <trkpt lat="43.54194" lon="5.79786">
        <ele>501.56</ele>
        <time>2016-01-24T08:32:55Z</time>
      </trkpt>
      <trkpt lat="43.54183" lon="5.79764">
        <ele>502.3</ele>
        <time>2016-01-24T08:33:05Z</time>
      </trkpt>
      <trkpt lat="43.54172" lon="5.79742">
        <ele>504.12</ele>
        <time>2016-01-24T08:33:15Z</time>
      </trkpt>
      <trkpt lat="43.54162" lon="5.79718">
        <ele>506.25</ele>
        <time>2016-01-24T08:33:26Z</time>
      </trkpt>
      <trkpt lat="43.54153" lon="5.79696">
        <ele>508.52</ele>
        <time>2016-01-24T08:33:36Z</time>
      </trkpt>
      <trkpt lat="43.54143" lon="5.79675">
        <ele>511.79</ele>
        <time>2016-01-24T08:33:47Z</time>
      </trkpt>
      <trkpt lat="43.54129" lon="5.79658">
        <ele>515.99</ele>
        <time>2016-01-24T08:34:05Z</time>
      </trkpt>
      <trkpt lat="43.54112" lon="5.79648">
        <ele>518.24</ele>
        <time>2016-01-24T08:34:21Z</time>
      </trkpt>
      <trkpt lat="43.54111" lon="5.79622">
        <ele>519.53</ele>
        <time>2016-01-24T08:34:34Z</time>
      </trkpt>
      <trkpt lat="43.54102" lon="5.79598">
        <ele>523.81</ele>
        <time>2016-01-24T08:34:48Z</time>
      </trkpt>
      <trkpt lat="43.54091" lon="5.79579">
        <ele>526.33</ele>
        <time>2016-01-24T08:35:01Z</time>
      </trkpt>
      <trkpt lat="43.54078" lon="5.79559">
        <ele>527.69</ele>
        <time>2016-01-24T08:35:14Z</time>
      </trkpt>
      <trkpt lat="43.54066" lon="5.79539">
        <ele>529.9</ele>
        <time>2016-01-24T08:35:27Z</time>
      </trkpt>
      <trkpt lat="43.54052" lon="5.79521">
        <ele>531.59</ele>
        <time>2016-01-24T08:35:41Z</time>
      </trkpt>
      <trkpt lat="43.54035" lon="5.79513">
        <ele>534.79</ele>
        <time>2016-01-24T08:35:54Z</time>
      </trkpt>
      <trkpt lat="43.5402" lon="5.79498">
        <ele>539.43</ele>
        <time>2016-01-24T08:36:07Z</time>
      </trkpt>
      <trkpt lat="43.54005" lon="5.79482">
        <ele>543.47</ele>
        <time>2016-01-24T08:36:20Z</time>
      </trkpt>
      <trkpt lat="43.53996" lon="5.79459">
        <ele>546.31</ele>
        <time>2016-01-24T08:36:35Z</time>
      </trkpt>
      <trkpt lat="43.53989" lon="5.79436">
        <ele>549.15</ele>
        <time>2016-01-24T08:36:48Z</time>
      </trkpt>
      <trkpt lat="43.53981" lon="5.79413">
        <ele>550.07</ele>
        <time>2016-01-24T08:37:00Z</time>
      </trkpt>
      <trkpt lat="43.53971" lon="5.79392">
        <ele>550.94</ele>
        <time>2016-01-24T08:37:12Z</time>
      </trkpt>
      <trkpt lat="43.5396" lon="5.79371">
        <ele>552.29</ele>
        <time>2016-01-24T08:37:24Z</time>
      </trkpt>
      <trkpt lat="43.53952" lon="5.79348">
        <ele>552.91</ele>
        <time>2016-01-24T08:37:35Z</time>
      </trkpt>
      <trkpt lat="43.53944" lon="5.79325">
        <ele>553.81</ele>
        <time>2016-01-24T08:37:47Z</time>
      </trkpt>
      <trkpt lat="43.53935" lon="5.79302">
        <ele>554.32</ele>
        <time>2016-01-24T08:37:57Z</time>
      </trkpt>
      <trkpt lat="43.53926" lon="5.79279">
        <ele>553.66</ele>
        <time>2016-01-24T08:38:08Z</time>
      </trkpt>
      <trkpt lat="43.53917" lon="5.79258">
        <ele>554.32</ele>
        <time>2016-01-24T08:38:21Z</time>
      </trkpt>
      <trkpt lat="43.53909" lon="5.79235">
        <ele>556.18</ele>
        <time>2016-01-24T08:48:12Z</time>
      </trkpt>
      <trkpt lat="43.53902" lon="5.79212">
        <ele>555.12</ele>
        <time>2016-01-24T08:48:18Z</time>
      </trkpt>
      <trkpt lat="43.53892" lon="5.79187">
        <ele>553.47</ele>
        <time>2016-01-24T08:48:23Z</time>
      </trkpt>
      <trkpt lat="43.5388" lon="5.79165">
        <ele>552.31</ele>
        <time>2016-01-24T08:48:28Z</time>
      </trkpt>
      <trkpt lat="43.53864" lon="5.79152">
        <ele>552.96</ele>
        <time>2016-01-24T08:48:34Z</time>
      </trkpt>
      <trkpt lat="43.53853" lon="5.79131">
        <ele>552.28</ele>
        <time>2016-01-24T08:48:40Z</time>
      </trkpt>
      <trkpt lat="43.53851" lon="5.79106">
        <ele>550.1</ele>
        <time>2016-01-24T08:48:49Z</time>
      </trkpt>
      <trkpt lat="43.53857" lon="5.7908">
        <ele>547.95</ele>
        <time>2016-01-24T08:48:56Z</time>
      </trkpt>
      <trkpt lat="43.53866" lon="5.79056">
        <ele>546.13</ele>
        <time>2016-01-24T08:49:01Z</time>
      </trkpt>
      <trkpt lat="43.53865" lon="5.79029">
        <ele>543.62</ele>
        <time>2016-01-24T08:49:06Z</time>
      </trkpt>
      <trkpt lat="43.53859" lon="5.78999">
        <ele>541.25</ele>
        <time>2016-01-24T08:49:10Z</time>
      </trkpt>
      <trkpt lat="43.53852" lon="5.78974">
        <ele>539.55</ele>
        <time>2016-01-24T08:49:13Z</time>
      </trkpt>
      <trkpt lat="43.5385" lon="5.78947">
        <ele>537.38</ele>
        <time>2016-01-24T08:49:16Z</time>
      </trkpt>
      <trkpt lat="43.5385" lon="5.78916">
        <ele>534.81</ele>
        <time>2016-01-24T08:49:19Z</time>
      </trkpt>
      <trkpt lat="43.53851" lon="5.78888">
        <ele>532.11</ele>
        <time>2016-01-24T08:49:22Z</time>
      </trkpt>
      <trkpt lat="43.53852" lon="5.78861">
        <ele>529.2</ele>
        <time>2016-01-24T08:49:25Z</time>
      </trkpt>
      <trkpt lat="43.53852" lon="5.78833">
        <ele>526.36</ele>
        <time>2016-01-24T08:49:29Z</time>
      </trkpt>
      <trkpt lat="43.53845" lon="5.78807">
        <ele>525.3</ele>
        <time>2016-01-24T08:49:34Z</time>
      </trkpt>
      <trkpt lat="43.53831" lon="5.78788">
        <ele>525.4</ele>
        <time>2016-01-24T08:49:41Z</time>
      </trkpt>
      <trkpt lat="43.53822" lon="5.78765">
        <ele>524.99</ele>
        <time>2016-01-24T08:50:20Z</time>
      </trkpt>
      <trkpt lat="43.53809" lon="5.78747">
        <ele>526.23</ele>
        <time>2016-01-24T08:50:56Z</time>
      </trkpt>
      <trkpt lat="43.53793" lon="5.78737">
        <ele>527.03</ele>
        <time>2016-01-24T08:51:04Z</time>
      </trkpt>
      <trkpt lat="43.53783" lon="5.78714">
        <ele>529.27</ele>
        <time>2016-01-24T08:53:23Z</time>
      </trkpt>
      <trkpt lat="43.53777" lon="5.78689">
        <ele>528.44</ele>
        <time>2016-01-24T08:53:32Z</time>
      </trkpt>
      <trkpt lat="43.53772" lon="5.78662">
        <ele>527.86</ele>
        <time>2016-01-24T08:53:41Z</time>
      </trkpt>
      <trkpt lat="43.53767" lon="5.78636">
        <ele>527.27</ele>
        <time>2016-01-24T08:53:50Z</time>
      </trkpt>
      <trkpt lat="43.53763" lon="5.7861">
        <ele>525.64</ele>
        <time>2016-01-24T08:53:59Z</time>
      </trkpt>
      <trkpt lat="43.53758" lon="5.78586">
        <ele>526.35</ele>
        <time>2016-01-24T08:54:07Z</time>
      </trkpt>
      <trkpt lat="43.53751" lon="5.78562">
        <ele>526.62</ele>
        <time>2016-01-24T08:54:16Z</time>
      </trkpt>
      <trkpt lat="43.53747" lon="5.78536">
        <ele>527.24</ele>
        <time>2016-01-24T08:54:25Z</time>
      </trkpt>
      <trkpt lat="43.53743" lon="5.78508">
        <ele>527.65</ele>
        <time>2016-01-24T08:54:32Z</time>
      </trkpt>
      <trkpt lat="43.53742" lon="5.78482">
        <ele>526.56</ele>
        <time>2016-01-24T08:54:37Z</time>
      </trkpt>
      <trkpt lat="43.53736" lon="5.78455">
        <ele>526.12</ele>
        <time>2016-01-24T08:54:42Z</time>
      </trkpt>
      <trkpt lat="43.53725" lon="5.78432">
        <ele>525.64</ele>
        <time>2016-01-24T08:54:47Z</time>
      </trkpt>
      <trkpt lat="43.53728" lon="5.78407">
        <ele>523.16</ele>
        <time>2016-01-24T08:54:54Z</time>
      </trkpt>
      <trkpt lat="43.53746" lon="5.78398">
        <ele>521.42</ele>
        <time>2016-01-24T08:54:58Z</time>
      </trkpt>
      <trkpt lat="43.53766" lon="5.7839">
        <ele>519.67</ele>
        <time>2016-01-24T08:55:02Z</time>
      </trkpt>
      <trkpt lat="43.53783" lon="5.78381">
        <ele>518.09</ele>
        <time>2016-01-24T08:55:06Z</time>
      </trkpt>
      <trkpt lat="43.53796" lon="5.78362">
        <ele>514.34</ele>
        <time>2016-01-24T08:55:23Z</time>
      </trkpt>
      <trkpt lat="43.53812" lon="5.7835">
        <ele>513.28</ele>
        <time>2016-01-24T08:55:51Z</time>
      </trkpt>
      <trkpt lat="43.53814" lon="5.78323">
        <ele>509.62</ele>
        <time>2016-01-24T08:56:16Z</time>
      </trkpt>
      <trkpt lat="43.53813" lon="5.78298">
        <ele>509.05</ele>
        <time>2016-01-24T08:56:24Z</time>
      </trkpt>
      <trkpt lat="43.5381" lon="5.78272">
        <ele>508.01</ele>
        <time>2016-01-24T08:56:31Z</time>
      </trkpt>
      <trkpt lat="43.53804" lon="5.78246">
        <ele>506.74</ele>
        <time>2016-01-24T08:56:37Z</time>
      </trkpt>
      <trkpt lat="43.53795" lon="5.78222">
        <ele>506.07</ele>
        <time>2016-01-24T08:56:42Z</time>
      </trkpt>
      <trkpt lat="43.53788" lon="5.78197">
        <ele>505.33</ele>
        <time>2016-01-24T08:56:46Z</time>
      </trkpt>
      <trkpt lat="43.53782" lon="5.7817">
        <ele>504.41</ele>
        <time>2016-01-24T08:56:50Z</time>
      </trkpt>
      <trkpt lat="43.53775" lon="5.78144">
        <ele>503.43</ele>
        <time>2016-01-24T08:56:54Z</time>
      </trkpt>
      <trkpt lat="43.53771" lon="5.78118">
        <ele>502.6</ele>
        <time>2016-01-24T08:56:58Z</time>
      </trkpt>
      <trkpt lat="43.53768" lon="5.78091">
        <ele>501.01</ele>
        <time>2016-01-24T08:57:02Z</time>
      </trkpt>
      <trkpt lat="43.53769" lon="5.78064">
        <ele>498.59</ele>
        <time>2016-01-24T08:57:08Z</time>
      </trkpt>
      <trkpt lat="43.53777" lon="5.78042">
        <ele>497.1</ele>
        <time>2016-01-24T08:57:19Z</time>
      </trkpt>
      <trkpt lat="43.53786" lon="5.78018">
        <ele>496.63</ele>
        <time>2016-01-24T08:57:28Z</time>
      </trkpt>
      <trkpt lat="43.53797" lon="5.77996">
        <ele>496.4</ele>
        <time>2016-01-24T08:57:36Z</time>
      </trkpt>
      <trkpt lat="43.53807" lon="5.77973">
        <ele>495.39</ele>
        <time>2016-01-24T08:57:45Z</time>
      </trkpt>
      <trkpt lat="43.53819" lon="5.77954">
        <ele>495.04</ele>
        <time>2016-01-24T08:57:52Z</time>
      </trkpt>
      <trkpt lat="43.53829" lon="5.77933">
        <ele>495.57</ele>
        <time>2016-01-24T08:58:00Z</time>
      </trkpt>
      <trkpt lat="43.53834" lon="5.77909">
        <ele>496.9</ele>
        <time>2016-01-24T08:58:09Z</time>
      </trkpt>
      <trkpt lat="43.53833" lon="5.77883">
        <ele>498.57</ele>
        <time>2016-01-24T08:58:17Z</time>
      </trkpt>
      <trkpt lat="43.53829" lon="5.77856">
        <ele>501.31</ele>
        <time>2016-01-24T08:58:25Z</time>
      </trkpt>
      <trkpt lat="43.53824" lon="5.7783">
        <ele>502.37</ele>
        <time>2016-01-24T08:58:33Z</time>
      </trkpt>
      <trkpt lat="43.53817" lon="5.77807">
        <ele>502.95</ele>
        <time>2016-01-24T08:58:42Z</time>
      </trkpt>
      <trkpt lat="43.53807" lon="5.77786">
        <ele>504.04</ele>
        <time>2016-01-24T08:58:50Z</time>
      </trkpt>
      <trkpt lat="43.53799" lon="5.77762">
        <ele>504.52</ele>
        <time>2016-01-24T08:58:58Z</time>
      </trkpt>
      <trkpt lat="43.53798" lon="5.77734">
        <ele>503.99</ele>
        <time>2016-01-24T08:59:06Z</time>
      </trkpt>
      <trkpt lat="43.53806" lon="5.77709">
        <ele>503.67</ele>
        <time>2016-01-24T08:59:16Z</time>
      </trkpt>
      <trkpt lat="43.53818" lon="5.77687">
        <ele>504.4</ele>
        <time>2016-01-24T08:59:25Z</time>
      </trkpt>
      <trkpt lat="43.5381" lon="5.77664">
        <ele>505.65</ele>
        <time>2016-01-24T08:59:30Z</time>
      </trkpt>
      <trkpt lat="43.53793" lon="5.77643">
        <ele>504.66</ele>
        <time>2016-01-24T08:59:34Z</time>
      </trkpt>
      <trkpt lat="43.53776" lon="5.77627">
        <ele>503.19</ele>
        <time>2016-01-24T08:59:37Z</time>
      </trkpt>
      <trkpt lat="43.53759" lon="5.77606">
        <ele>501.72</ele>
        <time>2016-01-24T08:59:40Z</time>
      </trkpt>
      <trkpt lat="43.53741" lon="5.77583">
        <ele>500.24</ele>
        <time>2016-01-24T08:59:43Z</time>
      </trkpt>
      <trkpt lat="43.53726" lon="5.77556">
        <ele>498.59</ele>
        <time>2016-01-24T08:59:46Z</time>
      </trkpt>
      <trkpt lat="43.53713" lon="5.77524">
        <ele>496.82</ele>
        <time>2016-01-24T08:59:49Z</time>
      </trkpt>
      <trkpt lat="43.53701" lon="5.77492">
        <ele>494.7</ele>
        <time>2016-01-24T08:59:52Z</time>
      </trkpt>
      <trkpt lat="43.53693" lon="5.77464">
        <ele>493.02</ele>
        <time>2016-01-24T08:59:55Z</time>
      </trkpt>
      <trkpt lat="43.53692" lon="5.77438">
        <ele>490.17</ele>
        <time>2016-01-24T08:59:59Z</time>
      </trkpt>
      <trkpt lat="43.53708" lon="5.77423">
        <ele>487.16</ele>
        <time>2016-01-24T09:00:05Z</time>
      </trkpt>
      <trkpt lat="43.53723" lon="5.77409">
        <ele>483.96</ele>
        <time>2016-01-24T09:00:10Z</time>
      </trkpt>
      <trkpt lat="43.53741" lon="5.77393">
        <ele>480.75</ele>
        <time>2016-01-24T09:00:15Z</time>
      </trkpt>
      <trkpt lat="43.53758" lon="5.77375">
        <ele>477.66</ele>
        <time>2016-01-24T09:00:20Z</time>
      </trkpt>
      <trkpt lat="43.53774" lon="5.77354">
        <ele>474.65</ele>
        <time>2016-01-24T09:00:25Z</time>
      </trkpt>
      <trkpt lat="43.53787" lon="5.77335">
        <ele>472.61</ele>
        <time>2016-01-24T09:00:29Z</time>
      </trkpt>
      <trkpt lat="43.53799" lon="5.77315">
        <ele>470.77</ele>
        <time>2016-01-24T09:00:33Z</time>
      </trkpt>
      <trkpt lat="43.53813" lon="5.77294">
        <ele>468.42</ele>
        <time>2016-01-24T09:00:37Z</time>
      </trkpt>
      <trkpt lat="43.53828" lon="5.77274">
        <ele>465.98</ele>
        <time>2016-01-24T09:00:41Z</time>
      </trkpt>
      <trkpt lat="43.53844" lon="5.77257">
        <ele>464.04</ele>
        <time>2016-01-24T09:00:45Z</time>
      </trkpt>
      <trkpt lat="43.5386" lon="5.77239">
        <ele>463.72</ele>
        <time>2016-01-24T09:00:49Z</time>
      </trkpt>
      <trkpt lat="43.53872" lon="5.77218">
        <ele>461.28</ele>
        <time>2016-01-24T09:00:55Z</time>
      </trkpt>
      <trkpt lat="43.53886" lon="5.772">
        <ele>461.13</ele>
        <time>2016-01-24T09:01:05Z</time>
      </trkpt>
      <trkpt lat="43.539" lon="5.77182">
        <ele>468.07</ele>
        <time>2016-01-24T09:01:49Z</time>
      </trkpt>
      <trkpt lat="43.53918" lon="5.77175">
        <ele>479.39</ele>
        <time>2016-01-24T09:04:21Z</time>
      </trkpt>
      <trkpt lat="43.53937" lon="5.77171">
        <ele>480.49</ele>
        <time>2016-01-24T09:04:28Z</time>
      </trkpt>
      <trkpt lat="43.53955" lon="5.77165">
        <ele>481.69</ele>
        <time>2016-01-24T09:04:34Z</time>
      </trkpt>
      <trkpt lat="43.53973" lon="5.77159">
        <ele>482.62</ele>
        <time>2016-01-24T09:04:41Z</time>
      </trkpt>
      <trkpt lat="43.53993" lon="5.77152">
        <ele>484.8</ele>
        <time>2016-01-24T09:04:49Z</time>
      </trkpt>
      <trkpt lat="43.54012" lon="5.77143">
        <ele>487.32</ele>
        <time>2016-01-24T09:04:58Z</time>
      </trkpt>
      <trkpt lat="43.54029" lon="5.77132">
        <ele>490.35</ele>
        <time>2016-01-24T09:05:07Z</time>
      </trkpt>
      <trkpt lat="43.54047" lon="5.77121">
        <ele>492.46</ele>
        <time>2016-01-24T09:05:16Z</time>
      </trkpt>
      <trkpt lat="43.54064" lon="5.77109">
        <ele>494.73</ele>
        <time>2016-01-24T09:05:24Z</time>
      </trkpt>
      <trkpt lat="43.54079" lon="5.77094">
        <ele>495.68</ele>
        <time>2016-01-24T09:05:32Z</time>
      </trkpt>
      <trkpt lat="43.54094" lon="5.77076">
        <ele>496.69</ele>
        <time>2016-01-24T09:05:40Z</time>
      </trkpt>
      <trkpt lat="43.54107" lon="5.77055">
        <ele>496.81</ele>
        <time>2016-01-24T09:05:48Z</time>
      </trkpt>
      <trkpt lat="43.54119" lon="5.77035">
        <ele>497.2</ele>
        <time>2016-01-24T09:05:56Z</time>
      </trkpt>
      <trkpt lat="43.54129" lon="5.77012">
        <ele>497.33</ele>
        <time>2016-01-24T09:06:04Z</time>
      </trkpt>
      <trkpt lat="43.54138" lon="5.76987">
        <ele>497.19</ele>
        <time>2016-01-24T09:06:11Z</time>
      </trkpt>
      <trkpt lat="43.54144" lon="5.76961">
        <ele>497.05</ele>
        <time>2016-01-24T09:06:18Z</time>
      </trkpt>
      <trkpt lat="43.54148" lon="5.76935">
        <ele>496.84</ele>
        <time>2016-01-24T09:06:25Z</time>
      </trkpt>
      <trkpt lat="43.54151" lon="5.76909">
        <ele>496.28</ele>
        <time>2016-01-24T09:06:32Z</time>
      </trkpt>
      <trkpt lat="43.54154" lon="5.76882">
        <ele>495.78</ele>
        <time>2016-01-24T09:06:38Z</time>
      </trkpt>
      <trkpt lat="43.54157" lon="5.76855">
        <ele>495.18</ele>
        <time>2016-01-24T09:06:43Z</time>
      </trkpt>
      <trkpt lat="43.54161" lon="5.76827">
        <ele>494.4</ele>
        <time>2016-01-24T09:06:48Z</time>
      </trkpt>
      <trkpt lat="43.54167" lon="5.76797">
        <ele>493.9</ele>
        <time>2016-01-24T09:06:53Z</time>
      </trkpt>
      <trkpt lat="43.54174" lon="5.76768">
        <ele>493.61</ele>
        <time>2016-01-24T09:06:58Z</time>
      </trkpt>
      <trkpt lat="43.54181" lon="5.76743">
        <ele>493.22</ele>
        <time>2016-01-24T09:07:02Z</time>
      </trkpt>
      <trkpt lat="43.5419" lon="5.76719">
        <ele>492.7</ele>
        <time>2016-01-24T09:07:06Z</time>
      </trkpt>
      <trkpt lat="43.54199" lon="5.76695">
        <ele>492.05</ele>
        <time>2016-01-24T09:07:10Z</time>
      </trkpt>
      <trkpt lat="43.54208" lon="5.76669">
        <ele>491.88</ele>
        <time>2016-01-24T09:07:15Z</time>
      </trkpt>
      <trkpt lat="43.54216" lon="5.76641">
        <ele>491.83</ele>
        <time>2016-01-24T09:07:20Z</time>
      </trkpt>
      <trkpt lat="43.54221" lon="5.76614">
        <ele>492.4</ele>
        <time>2016-01-24T09:07:25Z</time>
      </trkpt>
      <trkpt lat="43.54225" lon="5.76585">
        <ele>493.65</ele>
        <time>2016-01-24T09:07:31Z</time>
      </trkpt>
      <trkpt lat="43.54225" lon="5.76559">
        <ele>494.81</ele>
        <time>2016-01-24T09:07:36Z</time>
      </trkpt>
      <trkpt lat="43.54223" lon="5.7653">
        <ele>495.26</ele>
        <time>2016-01-24T09:07:42Z</time>
      </trkpt>
      <trkpt lat="43.54216" lon="5.76501">
        <ele>494.43</ele>
        <time>2016-01-24T09:07:48Z</time>
      </trkpt>
      <trkpt lat="43.54199" lon="5.76484">
        <ele>493.19</ele>
        <time>2016-01-24T09:07:53Z</time>
      </trkpt>
      <trkpt lat="43.5418" lon="5.76491">
        <ele>491.95</ele>
        <time>2016-01-24T09:07:57Z</time>
      </trkpt>
      <trkpt lat="43.54164" lon="5.76504">
        <ele>490.78</ele>
        <time>2016-01-24T09:08:00Z</time>
      </trkpt>
      <trkpt lat="43.54146" lon="5.76519">
        <ele>489.7</ele>
        <time>2016-01-24T09:08:03Z</time>
      </trkpt>
      <trkpt lat="43.54126" lon="5.76535">
        <ele>488.15</ele>
        <time>2016-01-24T09:08:06Z</time>
      </trkpt>
      <trkpt lat="43.54104" lon="5.76551">
        <ele>485.72</ele>
        <time>2016-01-24T09:08:09Z</time>
      </trkpt>
      <trkpt lat="43.54081" lon="5.76567">
        <ele>484.04</ele>
        <time>2016-01-24T09:08:12Z</time>
      </trkpt>
      <trkpt lat="43.54058" lon="5.76573">
        <ele>482.44</ele>
        <time>2016-01-24T09:08:15Z</time>
      </trkpt>
      <trkpt lat="43.54034" lon="5.76567">
        <ele>480.42</ele>
        <time>2016-01-24T09:08:18Z</time>
      </trkpt>
      <trkpt lat="43.54014" lon="5.76551">
        <ele>478.85</ele>
        <time>2016-01-24T09:08:21Z</time>
      </trkpt>
      <trkpt lat="43.54003" lon="5.76528">
        <ele>476.55</ele>
        <time>2016-01-24T09:08:24Z</time>
      </trkpt>
      <trkpt lat="43.54" lon="5.76499">
        <ele>474.53</ele>
        <time>2016-01-24T09:08:27Z</time>
      </trkpt>
      <trkpt lat="43.53998" lon="5.76468">
        <ele>472.45</ele>
        <time>2016-01-24T09:08:30Z</time>
      </trkpt>
      <trkpt lat="43.53996" lon="5.76434">
        <ele>470.18</ele>
        <time>2016-01-24T09:08:33Z</time>
      </trkpt>
      <trkpt lat="43.53991" lon="5.764">
        <ele>467.92</ele>
        <time>2016-01-24T09:08:36Z</time>
      </trkpt>
      <trkpt lat="43.53986" lon="5.76365">
        <ele>465.49</ele>
        <time>2016-01-24T09:08:39Z</time>
      </trkpt>
      <trkpt lat="43.53984" lon="5.76331">
        <ele>463.17</ele>
        <time>2016-01-24T09:08:42Z</time>
      </trkpt>
      <trkpt lat="43.53979" lon="5.76298">
        <ele>460.47</ele>
        <time>2016-01-24T09:08:45Z</time>
      </trkpt>
      <trkpt lat="43.53969" lon="5.76267">
        <ele>458.13</ele>
        <time>2016-01-24T09:08:48Z</time>
      </trkpt>
      <trkpt lat="43.5396" lon="5.76239">
        <ele>456.08</ele>
        <time>2016-01-24T09:08:51Z</time>
      </trkpt>
      <trkpt lat="43.53949" lon="5.76213">
        <ele>454.24</ele>
        <time>2016-01-24T09:08:54Z</time>
      </trkpt>
      <trkpt lat="43.53936" lon="5.76185">
        <ele>452.2</ele>
        <time>2016-01-24T09:08:57Z</time>
      </trkpt>
      <trkpt lat="43.5393" lon="5.76155">
        <ele>449.71</ele>
        <time>2016-01-24T09:09:00Z</time>
      </trkpt>
      <trkpt lat="43.53926" lon="5.76122">
        <ele>447.82</ele>
        <time>2016-01-24T09:09:03Z</time>
      </trkpt>
      <trkpt lat="43.5392" lon="5.76089">
        <ele>445.95</ele>
        <time>2016-01-24T09:09:06Z</time>
      </trkpt>
      <trkpt lat="43.53914" lon="5.76055">
        <ele>444.32</ele>
        <time>2016-01-24T09:09:09Z</time>
      </trkpt>
      <trkpt lat="43.53908" lon="5.76026">
        <ele>442.47</ele>
        <time>2016-01-24T09:09:12Z</time>
      </trkpt>
      <trkpt lat="43.53902" lon="5.75997">
        <ele>440.67</ele>
        <time>2016-01-24T09:09:15Z</time>
      </trkpt>
      <trkpt lat="43.53897" lon="5.75969">
        <ele>437.94</ele>
        <time>2016-01-24T09:09:19Z</time>
      </trkpt>
      <trkpt lat="43.53904" lon="5.75944">
        <ele>433.68</ele>
        <time>2016-01-24T09:10:16Z</time>
      </trkpt>
      <trkpt lat="43.53916" lon="5.75924">
        <ele>433.34</ele>
        <time>2016-01-24T09:10:22Z</time>
      </trkpt>
      <trkpt lat="43.53928" lon="5.75901">
        <ele>434.53</ele>
        <time>2016-01-24T09:10:29Z</time>
      </trkpt>
      <trkpt lat="43.53939" lon="5.7588">
        <ele>434.65</ele>
        <time>2016-01-24T09:10:34Z</time>
      </trkpt>
      <trkpt lat="43.53952" lon="5.75857">
        <ele>434.3</ele>
        <time>2016-01-24T09:10:40Z</time>
      </trkpt>
      <trkpt lat="43.53964" lon="5.75838">
        <ele>434.63</ele>
        <time>2016-01-24T09:10:46Z</time>
      </trkpt>
      <trkpt lat="43.53977" lon="5.75818">
        <ele>434.79</ele>
        <time>2016-01-24T09:10:52Z</time>
      </trkpt>
      <trkpt lat="43.5399" lon="5.75798">
        <ele>434.12</ele>
        <time>2016-01-24T09:10:58Z</time>
      </trkpt>
      <trkpt lat="43.54005" lon="5.75777">
        <ele>433.4</ele>
        <time>2016-01-24T09:11:04Z</time>
      </trkpt>
      <trkpt lat="43.54018" lon="5.75757">
        <ele>433.41</ele>
        <time>2016-01-24T09:11:09Z</time>
      </trkpt>
      <trkpt lat="43.54029" lon="5.75737">
        <ele>432.7</ele>
        <time>2016-01-24T09:11:13Z</time>
      </trkpt>
      <trkpt lat="43.54041" lon="5.75711">
        <ele>432.57</ele>
        <time>2016-01-24T09:11:18Z</time>
      </trkpt>
      <trkpt lat="43.54052" lon="5.75688">
        <ele>432.09</ele>
        <time>2016-01-24T09:11:22Z</time>
      </trkpt>
      <trkpt lat="43.54061" lon="5.75663">
        <ele>432.08</ele>
        <time>2016-01-24T09:11:26Z</time>
      </trkpt>
      <trkpt lat="43.54069" lon="5.75639">
        <ele>431.51</ele>
        <time>2016-01-24T09:11:30Z</time>
      </trkpt>
      <trkpt lat="43.54077" lon="5.75613">
        <ele>431.37</ele>
        <time>2016-01-24T09:11:34Z</time>
      </trkpt>
      <trkpt lat="43.54083" lon="5.75587">
        <ele>431.11</ele>
        <time>2016-01-24T09:11:38Z</time>
      </trkpt>
      <trkpt lat="43.54089" lon="5.75563">
        <ele>430.91</ele>
        <time>2016-01-24T09:11:42Z</time>
      </trkpt>
      <trkpt lat="43.54094" lon="5.75537">
        <ele>430.65</ele>
        <time>2016-01-24T09:11:46Z</time>
      </trkpt>
      <trkpt lat="43.54098" lon="5.7551">
        <ele>430.23</ele>
        <time>2016-01-24T09:11:50Z</time>
      </trkpt>
      <trkpt lat="43.54099" lon="5.75485">
        <ele>430.12</ele>
        <time>2016-01-24T09:11:54Z</time>
      </trkpt>
      <trkpt lat="43.541" lon="5.75459">
        <ele>429.83</ele>
        <time>2016-01-24T09:11:58Z</time>
      </trkpt>
      <trkpt lat="43.541" lon="5.75431">
        <ele>429.3</ele>
        <time>2016-01-24T09:12:02Z</time>
      </trkpt>
      <trkpt lat="43.54102" lon="5.75401">
        <ele>428.98</ele>
        <time>2016-01-24T09:12:06Z</time>
      </trkpt>
      <trkpt lat="43.54106" lon="5.75369">
        <ele>428.27</ele>
        <time>2016-01-24T09:12:10Z</time>
      </trkpt>
      <trkpt lat="43.54108" lon="5.7534">
        <ele>427.6</ele>
        <time>2016-01-24T09:12:14Z</time>
      </trkpt>
      <trkpt lat="43.5411" lon="5.7531">
        <ele>427.03</ele>
        <time>2016-01-24T09:12:18Z</time>
      </trkpt>
      <trkpt lat="43.5411" lon="5.75282">
        <ele>426.69</ele>
        <time>2016-01-24T09:12:22Z</time>
      </trkpt>
      <trkpt lat="43.54102" lon="5.75258">
        <ele>426.9</ele>
        <time>2016-01-24T09:12:26Z</time>
      </trkpt>
      <trkpt lat="43.54088" lon="5.75242">
        <ele>428.91</ele>
        <time>2016-01-24T09:12:31Z</time>
      </trkpt>
      <trkpt lat="43.54069" lon="5.75228">
        <ele>431.76</ele>
        <time>2016-01-24T09:12:37Z</time>
      </trkpt>
      <trkpt lat="43.5405" lon="5.75219">
        <ele>434.47</ele>
        <time>2016-01-24T09:12:43Z</time>
      </trkpt>
      <trkpt lat="43.54031" lon="5.7521">
        <ele>437.58</ele>
        <time>2016-01-24T09:12:50Z</time>
      </trkpt>
      <trkpt lat="43.54012" lon="5.75201">
        <ele>440.33</ele>
        <time>2016-01-24T09:12:57Z</time>
      </trkpt>
      <trkpt lat="43.53996" lon="5.75185">
        <ele>443.38</ele>
        <time>2016-01-24T09:13:04Z</time>
      </trkpt>
      <trkpt lat="43.53982" lon="5.75166">
        <ele>446.37</ele>
        <time>2016-01-24T09:13:12Z</time>
      </trkpt>
      <trkpt lat="43.53968" lon="5.75147">
        <ele>449.87</ele>
        <time>2016-01-24T09:13:21Z</time>
      </trkpt>
      <trkpt lat="43.53955" lon="5.75129">
        <ele>450.97</ele>
        <time>2016-01-24T09:13:29Z</time>
      </trkpt>
      <trkpt lat="43.53936" lon="5.75121">
        <ele>454.7</ele>
        <time>2016-01-24T09:13:40Z</time>
      </trkpt>
      <trkpt lat="43.53918" lon="5.75119">
        <ele>458.46</ele>
        <time>2016-01-24T09:13:53Z</time>
      </trkpt>
      <trkpt lat="43.53899" lon="5.75118">
        <ele>462.17</ele>
        <time>2016-01-24T09:14:06Z</time>
      </trkpt>
      <trkpt lat="43.53881" lon="5.7512">
        <ele>465.48</ele>
        <time>2016-01-24T09:14:20Z</time>
      </trkpt>
      <trkpt lat="43.53862" lon="5.7512">
        <ele>469.14</ele>
        <time>2016-01-24T09:14:40Z</time>
      </trkpt>
      <trkpt lat="43.53845" lon="5.75111">
        <ele>471.18</ele>
        <time>2016-01-24T09:15:01Z</time>
      </trkpt>
      <trkpt lat="43.53827" lon="5.75103">
        <ele>473.42</ele>
        <time>2016-01-24T09:16:45Z</time>
      </trkpt>
      <trkpt lat="43.53811" lon="5.75091">
        <ele>472.47</ele>
        <time>2016-01-24T09:17:04Z</time>
      </trkpt>
      <trkpt lat="43.53794" lon="5.75074">
        <ele>470.21</ele>
        <time>2016-01-24T09:17:11Z</time>
      </trkpt>
      <trkpt lat="43.53782" lon="5.75055">
        <ele>467.23</ele>
        <time>2016-01-24T09:17:16Z</time>
      </trkpt>
      <trkpt lat="43.53772" lon="5.75034">
        <ele>465.29</ele>
        <time>2016-01-24T09:17:20Z</time>
      </trkpt>
      <trkpt lat="43.53759" lon="5.7501">
        <ele>462.49</ele>
        <time>2016-01-24T09:17:24Z</time>
      </trkpt>
      <trkpt lat="43.53747" lon="5.74983">
        <ele>458.18</ele>
        <time>2016-01-24T09:17:28Z</time>
      </trkpt>
      <trkpt lat="43.53738" lon="5.7496">
        <ele>454.93</ele>
        <time>2016-01-24T09:17:31Z</time>
      </trkpt>
      <trkpt lat="43.53729" lon="5.74936">
        <ele>451.31</ele>
        <time>2016-01-24T09:17:34Z</time>
      </trkpt>
      <trkpt lat="43.53716" lon="5.74913">
        <ele>446.91</ele>
        <time>2016-01-24T09:17:38Z</time>
      </trkpt>
      <trkpt lat="43.53697" lon="5.74917">
        <ele>443.72</ele>
        <time>2016-01-24T09:17:42Z</time>
      </trkpt>
      <trkpt lat="43.53679" lon="5.74926">
        <ele>441.85</ele>
        <time>2016-01-24T09:17:45Z</time>
      </trkpt>
      <trkpt lat="43.53658" lon="5.7493">
        <ele>440.22</ele>
        <time>2016-01-24T09:17:48Z</time>
      </trkpt>
      <trkpt lat="43.53636" lon="5.74932">
        <ele>439.34</ele>
        <time>2016-01-24T09:17:51Z</time>
      </trkpt>
      <trkpt lat="43.53613" lon="5.74935">
        <ele>438.4</ele>
        <time>2016-01-24T09:17:54Z</time>
      </trkpt>
      <trkpt lat="43.5359" lon="5.74934">
        <ele>437.09</ele>
        <time>2016-01-24T09:17:57Z</time>
      </trkpt>
      <trkpt lat="43.53569" lon="5.74927">
        <ele>436.18</ele>
        <time>2016-01-24T09:18:01Z</time>
      </trkpt>
      <trkpt lat="43.53548" lon="5.74928">
        <ele>436.29</ele>
        <time>2016-01-24T09:18:06Z</time>
      </trkpt>
      <trkpt lat="43.5353" lon="5.74931">
        <ele>436.23</ele>
        <time>2016-01-24T09:18:10Z</time>
      </trkpt>
      <trkpt lat="43.5351" lon="5.74937">
        <ele>435.17</ele>
        <time>2016-01-24T09:18:14Z</time>
      </trkpt>
      <trkpt lat="43.53489" lon="5.74944">
        <ele>434.64</ele>
        <time>2016-01-24T09:18:18Z</time>
      </trkpt>
      <trkpt lat="43.53468" lon="5.7495">
        <ele>434.6</ele>
        <time>2016-01-24T09:18:22Z</time>
      </trkpt>
      <trkpt lat="43.53447" lon="5.7495">
        <ele>434.26</ele>
        <time>2016-01-24T09:18:26Z</time>
      </trkpt>
      <trkpt lat="43.53426" lon="5.74951">
        <ele>432.92</ele>
        <time>2016-01-24T09:18:30Z</time>
      </trkpt>
      <trkpt lat="43.53406" lon="5.74955">
        <ele>432.78</ele>
        <time>2016-01-24T09:18:34Z</time>
      </trkpt>
      <trkpt lat="43.53387" lon="5.74956">
        <ele>432.59</ele>
        <time>2016-01-24T09:18:38Z</time>
      </trkpt>
      <trkpt lat="43.53366" lon="5.74967">
        <ele>433.15</ele>
        <time>2016-01-24T09:18:42Z</time>
      </trkpt>
      <trkpt lat="43.53349" lon="5.74982">
        <ele>434.47</ele>
        <time>2016-01-24T09:18:46Z</time>
      </trkpt>
      <trkpt lat="43.53333" lon="5.74997">
        <ele>436.27</ele>
        <time>2016-01-24T09:18:50Z</time>
      </trkpt>
      <trkpt lat="43.53319" lon="5.75016">
        <ele>436.93</ele>
        <time>2016-01-24T09:18:54Z</time>
      </trkpt>
      <trkpt lat="43.53308" lon="5.75038">
        <ele>437.65</ele>
        <time>2016-01-24T09:18:58Z</time>
      </trkpt>
      <trkpt lat="43.53298" lon="5.7506">
        <ele>436.69</ele>
        <time>2016-01-24T09:19:02Z</time>
      </trkpt>
      <trkpt lat="43.53285" lon="5.75084">
        <ele>437.05</ele>
        <time>2016-01-24T09:19:07Z</time>
      </trkpt>
      <trkpt lat="43.53275" lon="5.75106">
        <ele>436.89</ele>
        <time>2016-01-24T09:19:11Z</time>
      </trkpt>
      <trkpt lat="43.53265" lon="5.75128">
        <ele>436.37</ele>
        <time>2016-01-24T09:19:15Z</time>
      </trkpt>
      <trkpt lat="43.53255" lon="5.75149">
        <ele>436.22</ele>
        <time>2016-01-24T09:19:19Z</time>
      </trkpt>
      <trkpt lat="43.53244" lon="5.75174">
        <ele>436.22</ele>
        <time>2016-01-24T09:19:24Z</time>
      </trkpt>
      <trkpt lat="43.53232" lon="5.75198">
        <ele>436.18</ele>
        <time>2016-01-24T09:19:29Z</time>
      </trkpt>
      <trkpt lat="43.53217" lon="5.75222">
        <ele>435.56</ele>
        <time>2016-01-24T09:19:34Z</time>
      </trkpt>
      <trkpt lat="43.53204" lon="5.75241">
        <ele>434.79</ele>
        <time>2016-01-24T09:19:38Z</time>
      </trkpt>
      <trkpt lat="43.5319" lon="5.7526">
        <ele>435.12</ele>
        <time>2016-01-24T09:19:42Z</time>
      </trkpt>
      <trkpt lat="43.53175" lon="5.75281">
        <ele>436.56</ele>
        <time>2016-01-24T09:19:46Z</time>
      </trkpt>
      <trkpt lat="43.53161" lon="5.75302">
        <ele>438.43</ele>
        <time>2016-01-24T09:19:50Z</time>
      </trkpt>
      <trkpt lat="43.53148" lon="5.75319">
        <ele>440.29</ele>
        <time>2016-01-24T09:19:54Z</time>
      </trkpt>
      <trkpt lat="43.53132" lon="5.75342">
        <ele>443.24</ele>
        <time>2016-01-24T09:19:59Z</time>
      </trkpt>
      <trkpt lat="43.53119" lon="5.75359">
        <ele>446.38</ele>
        <time>2016-01-24T09:20:03Z</time>
      </trkpt>
      <trkpt lat="43.53104" lon="5.75381">
        <ele>448.36</ele>
        <time>2016-01-24T09:20:07Z</time>
      </trkpt>
      <trkpt lat="43.5309" lon="5.75402">
        <ele>448.33</ele>
        <time>2016-01-24T09:20:11Z</time>
      </trkpt>
      <trkpt lat="43.53078" lon="5.75424">
        <ele>449.06</ele>
        <time>2016-01-24T09:20:15Z</time>
      </trkpt>
      <trkpt lat="43.53066" lon="5.75447">
        <ele>449.77</ele>
        <time>2016-01-24T09:20:19Z</time>
      </trkpt>
      <trkpt lat="43.53054" lon="5.75472">
        <ele>449.25</ele>
        <time>2016-01-24T09:20:23Z</time>
      </trkpt>
      <trkpt lat="43.53042" lon="5.75497">
        <ele>448.89</ele>
        <time>2016-01-24T09:20:27Z</time>
      </trkpt>
      <trkpt lat="43.53032" lon="5.75522">
        <ele>448.78</ele>
        <time>2016-01-24T09:20:31Z</time>
      </trkpt>
      <trkpt lat="43.53021" lon="5.75547">
        <ele>448.38</ele>
        <time>2016-01-24T09:20:35Z</time>
      </trkpt>
      <trkpt lat="43.53009" lon="5.75573">
        <ele>447.61</ele>
        <time>2016-01-24T09:20:39Z</time>
      </trkpt>
      <trkpt lat="43.52997" lon="5.75599">
        <ele>446.7</ele>
        <time>2016-01-24T09:20:43Z</time>
      </trkpt>
      <trkpt lat="43.52988" lon="5.75624">
        <ele>446.6</ele>
        <time>2016-01-24T09:20:47Z</time>
      </trkpt>
      <trkpt lat="43.52977" lon="5.75649">
        <ele>446.17</ele>
        <time>2016-01-24T09:20:51Z</time>
      </trkpt>
      <trkpt lat="43.52972" lon="5.75676">
        <ele>446.86</ele>
        <time>2016-01-24T09:20:55Z</time>
      </trkpt>
      <trkpt lat="43.52969" lon="5.75701">
        <ele>447.42</ele>
        <time>2016-01-24T09:20:59Z</time>
      </trkpt>
      <trkpt lat="43.52965" lon="5.75726">
        <ele>448.14</ele>
        <time>2016-01-24T09:21:03Z</time>
      </trkpt>
      <trkpt lat="43.52961" lon="5.75751">
        <ele>448.44</ele>
        <time>2016-01-24T09:21:07Z</time>
      </trkpt>
      <trkpt lat="43.52955" lon="5.75779">
        <ele>446.64</ele>
        <time>2016-01-24T09:21:11Z</time>
      </trkpt>
      <trkpt lat="43.52948" lon="5.75805">
        <ele>443.48</ele>
        <time>2016-01-24T09:21:15Z</time>
      </trkpt>
      <trkpt lat="43.52943" lon="5.75832">
        <ele>441.08</ele>
        <time>2016-01-24T09:21:19Z</time>
      </trkpt>
      <trkpt lat="43.5294" lon="5.75857">
        <ele>440.38</ele>
        <time>2016-01-24T09:21:23Z</time>
      </trkpt>
      <trkpt lat="43.52937" lon="5.75882">
        <ele>440.02</ele>
        <time>2016-01-24T09:21:27Z</time>
      </trkpt>
      <trkpt lat="43.52933" lon="5.75908">
        <ele>440.05</ele>
        <time>2016-01-24T09:21:31Z</time>
      </trkpt>
      <trkpt lat="43.52929" lon="5.75936">
        <ele>440.24</ele>
        <time>2016-01-24T09:21:36Z</time>
      </trkpt>
      <trkpt lat="43.52929" lon="5.75963">
        <ele>440.88</ele>
        <time>2016-01-24T09:21:42Z</time>
      </trkpt>
      <trkpt lat="43.52943" lon="5.75983">
        <ele>440.38</ele>
        <time>2016-01-24T09:21:48Z</time>
      </trkpt>
      <trkpt lat="43.52958" lon="5.76004">
        <ele>440.36</ele>
        <time>2016-01-24T09:21:54Z</time>
      </trkpt>
      <trkpt lat="43.52972" lon="5.76021">
        <ele>440.64</ele>
        <time>2016-01-24T09:21:59Z</time>
      </trkpt>
      <trkpt lat="43.52987" lon="5.76037">
        <ele>439.67</ele>
        <time>2016-01-24T09:22:04Z</time>
      </trkpt>
      <trkpt lat="43.53005" lon="5.76055">
        <ele>438.03</ele>
        <time>2016-01-24T09:22:09Z</time>
      </trkpt>
      <trkpt lat="43.53021" lon="5.76071">
        <ele>436.4</ele>
        <time>2016-01-24T09:22:13Z</time>
      </trkpt>
      <trkpt lat="43.53035" lon="5.76092">
        <ele>435.03</ele>
        <time>2016-01-24T09:22:17Z</time>
      </trkpt>
      <trkpt lat="43.53051" lon="5.76115">
        <ele>433.91</ele>
        <time>2016-01-24T09:22:21Z</time>
      </trkpt>
      <trkpt lat="43.53066" lon="5.7614">
        <ele>432.73</ele>
        <time>2016-01-24T09:22:25Z</time>
      </trkpt>
      <trkpt lat="43.53081" lon="5.76165">
        <ele>431.82</ele>
        <time>2016-01-24T09:22:29Z</time>
      </trkpt>
      <trkpt lat="43.53093" lon="5.76192">
        <ele>431.55</ele>
        <time>2016-01-24T09:22:33Z</time>
      </trkpt>
      <trkpt lat="43.53104" lon="5.76221">
        <ele>431.18</ele>
        <time>2016-01-24T09:22:37Z</time>
      </trkpt>
      <trkpt lat="43.53111" lon="5.76248">
        <ele>431.28</ele>
        <time>2016-01-24T09:22:41Z</time>
      </trkpt>
      <trkpt lat="43.53119" lon="5.76275">
        <ele>432.98</ele>
        <time>2016-01-24T09:22:46Z</time>
      </trkpt>
      <trkpt lat="43.53131" lon="5.76299">
        <ele>434.25</ele>
        <time>2016-01-24T09:22:51Z</time>
      </trkpt>
      <trkpt lat="43.53144" lon="5.76321">
        <ele>435.04</ele>
        <time>2016-01-24T09:22:56Z</time>
      </trkpt>
      <trkpt lat="43.53157" lon="5.76341">
        <ele>434.86</ele>
        <time>2016-01-24T09:23:01Z</time>
      </trkpt>
      <trkpt lat="43.53171" lon="5.76364">
        <ele>435.39</ele>
        <time>2016-01-24T09:23:06Z</time>
      </trkpt>
      <trkpt lat="43.5318" lon="5.76386">
        <ele>435.1</ele>
        <time>2016-01-24T09:23:10Z</time>
      </trkpt>
      <trkpt lat="43.53186" lon="5.7641">
        <ele>434.7</ele>
        <time>2016-01-24T09:23:14Z</time>
      </trkpt>
      <trkpt lat="43.5319" lon="5.76435">
        <ele>434.3</ele>
        <time>2016-01-24T09:23:18Z</time>
      </trkpt>
      <trkpt lat="43.53191" lon="5.76464">
        <ele>435.58</ele>
        <time>2016-01-24T09:23:23Z</time>
      </trkpt>
      <trkpt lat="43.53196" lon="5.76492">
        <ele>436.78</ele>
        <time>2016-01-24T09:23:28Z</time>
      </trkpt>
      <trkpt lat="43.53202" lon="5.76518">
        <ele>438.05</ele>
        <time>2016-01-24T09:23:33Z</time>
      </trkpt>
      <trkpt lat="43.53207" lon="5.76542">
        <ele>438.11</ele>
        <time>2016-01-24T09:23:38Z</time>
      </trkpt>
      <trkpt lat="43.53213" lon="5.76568">
        <ele>439.27</ele>
        <time>2016-01-24T09:23:44Z</time>
      </trkpt>
      <trkpt lat="43.53218" lon="5.76593">
        <ele>440.72</ele>
        <time>2016-01-24T09:23:50Z</time>
      </trkpt>
      <trkpt lat="43.53228" lon="5.76617">
        <ele>443.15</ele>
        <time>2016-01-24T09:23:57Z</time>
      </trkpt>
      <trkpt lat="43.5324" lon="5.76635">
        <ele>445.38</ele>
        <time>2016-01-24T09:24:04Z</time>
      </trkpt>
      <trkpt lat="43.53254" lon="5.76654">
        <ele>446.01</ele>
        <time>2016-01-24T09:24:11Z</time>
      </trkpt>
      <trkpt lat="43.53267" lon="5.76672">
        <ele>447.08</ele>
        <time>2016-01-24T09:24:18Z</time>
      </trkpt>
      <trkpt lat="43.53283" lon="5.76686">
        <ele>450.36</ele>
        <time>2016-01-24T09:24:26Z</time>
      </trkpt>
      <trkpt lat="43.53303" lon="5.76687">
        <ele>449.24</ele>
        <time>2016-01-24T09:24:36Z</time>
      </trkpt>
      <trkpt lat="43.53321" lon="5.7669">
        <ele>448.31</ele>
        <time>2016-01-24T09:24:44Z</time>
      </trkpt>
      <trkpt lat="43.5334" lon="5.76696">
        <ele>449.16</ele>
        <time>2016-01-24T09:24:51Z</time>
      </trkpt>
      <trkpt lat="43.53358" lon="5.76707">
        <ele>449.83</ele>
        <time>2016-01-24T09:24:59Z</time>
      </trkpt>
      <trkpt lat="43.53376" lon="5.76716">
        <ele>451.2</ele>
        <time>2016-01-24T09:25:08Z</time>
      </trkpt>
      <trkpt lat="43.53393" lon="5.76728">
        <ele>452.57</ele>
        <time>2016-01-24T09:25:16Z</time>
      </trkpt>
      <trkpt lat="43.53409" lon="5.76745">
        <ele>453.31</ele>
        <time>2016-01-24T09:25:25Z</time>
      </trkpt>
      <trkpt lat="43.53425" lon="5.76761">
        <ele>453.09</ele>
        <time>2016-01-24T09:25:34Z</time>
      </trkpt>
      <trkpt lat="43.53439" lon="5.76777">
        <ele>453.04</ele>
        <time>2016-01-24T09:25:43Z</time>
      </trkpt>
      <trkpt lat="43.53456" lon="5.76791">
        <ele>453.57</ele>
        <time>2016-01-24T09:25:53Z</time>
      </trkpt>
      <trkpt lat="43.53475" lon="5.768">
        <ele>456.44</ele>
        <time>2016-01-24T09:26:03Z</time>
      </trkpt>
      <trkpt lat="43.53494" lon="5.76808">
        <ele>458.71</ele>
        <time>2016-01-24T09:26:13Z</time>
      </trkpt>
      <trkpt lat="43.53512" lon="5.76814">
        <ele>460.18</ele>
        <time>2016-01-24T09:26:21Z</time>
      </trkpt>
      <trkpt lat="43.53531" lon="5.76821">
        <ele>459.73</ele>
        <time>2016-01-24T09:26:29Z</time>
      </trkpt>
      <trkpt lat="43.53549" lon="5.76824">
        <ele>460.47</ele>
        <time>2016-01-24T09:26:38Z</time>
      </trkpt>
      <trkpt lat="43.53568" lon="5.76827">
        <ele>458.23</ele>
        <time>2016-01-24T09:26:48Z</time>
      </trkpt>
      <trkpt lat="43.53586" lon="5.76832">
        <ele>459.49</ele>
        <time>2016-01-24T09:26:56Z</time>
      </trkpt>
      <trkpt lat="43.53605" lon="5.76841">
        <ele>460.89</ele>
        <time>2016-01-24T09:27:04Z</time>
      </trkpt>
      <trkpt lat="43.53623" lon="5.76848">
        <ele>462.61</ele>
        <time>2016-01-24T09:27:12Z</time>
      </trkpt>
      <trkpt lat="43.53643" lon="5.76848">
        <ele>462.9</ele>
        <time>2016-01-24T09:27:21Z</time>
      </trkpt>
      <trkpt lat="43.53661" lon="5.76855">
        <ele>463.4</ele>
        <time>2016-01-24T09:27:28Z</time>
      </trkpt>
      <trkpt lat="43.53678" lon="5.76862">
        <ele>465.86</ele>
        <time>2016-01-24T09:27:35Z</time>
      </trkpt>
      <trkpt lat="43.53697" lon="5.76863">
        <ele>466.94</ele>
        <time>2016-01-24T09:27:43Z</time>
      </trkpt>
      <trkpt lat="43.53717" lon="5.76866">
        <ele>466.82</ele>
        <time>2016-01-24T09:27:51Z</time>
      </trkpt>
      <trkpt lat="43.53735" lon="5.76876">
        <ele>467.6</ele>
        <time>2016-01-24T09:28:16Z</time>
      </trkpt>
      <trkpt lat="43.53753" lon="5.76886">
        <ele>469.51</ele>
        <time>2016-01-24T09:28:26Z</time>
      </trkpt>
      <trkpt lat="43.53771" lon="5.76895">
        <ele>472.71</ele>
        <time>2016-01-24T09:28:33Z</time>
      </trkpt>
      <trkpt lat="43.53789" lon="5.76907">
        <ele>476.36</ele>
        <time>2016-01-24T09:28:41Z</time>
      </trkpt>
      <trkpt lat="43.53802" lon="5.76925">
        <ele>480.74</ele>
        <time>2016-01-24T09:28:49Z</time>
      </trkpt>
      <trkpt lat="43.53815" lon="5.76946">
        <ele>483.29</ele>
        <time>2016-01-24T09:28:57Z</time>
      </trkpt>
      <trkpt lat="43.53829" lon="5.76965">
        <ele>486.15</ele>
        <time>2016-01-24T09:29:05Z</time>
      </trkpt>
      <trkpt lat="43.53837" lon="5.7699">
        <ele>488.82</ele>
        <time>2016-01-24T09:29:14Z</time>
      </trkpt>
      <trkpt lat="43.53838" lon="5.77015">
        <ele>491.05</ele>
        <time>2016-01-24T09:29:22Z</time>
      </trkpt>
      <trkpt lat="43.53844" lon="5.77039">
        <ele>492.23</ele>
        <time>2016-01-24T09:29:30Z</time>
      </trkpt>
      <trkpt lat="43.53852" lon="5.77062">
        <ele>493.7</ele>
        <time>2016-01-24T09:29:39Z</time>
      </trkpt>
      <trkpt lat="43.5386" lon="5.77085">
        <ele>492.86</ele>
        <time>2016-01-24T09:29:48Z</time>
      </trkpt>
      <trkpt lat="43.53865" lon="5.7711">
        <ele>492.74</ele>
        <time>2016-01-24T09:29:56Z</time>
      </trkpt>
      <trkpt lat="43.53873" lon="5.77136">
        <ele>494.73</ele>
        <time>2016-01-24T09:30:05Z</time>
      </trkpt>
      <trkpt lat="43.53879" lon="5.77159">
        <ele>496.3</ele>
        <time>2016-01-24T09:30:13Z</time>
      </trkpt>
      <trkpt lat="43.53885" lon="5.77184">
        <ele>494.75</ele>
        <time>2016-01-24T09:30:21Z</time>
      </trkpt>
      <trkpt lat="43.5388" lon="5.77208">
        <ele>491.63</ele>
        <time>2016-01-24T09:30:30Z</time>
      </trkpt>
      <trkpt lat="43.53868" lon="5.77229">
        <ele>490.42</ele>
        <time>2016-01-24T09:30:39Z</time>
      </trkpt>
      <trkpt lat="43.53851" lon="5.77242">
        <ele>483.91</ele>
        <time>2016-01-24T09:33:35Z</time>
      </trkpt>
      <trkpt lat="43.53837" lon="5.7726">
        <ele>484.66</ele>
        <time>2016-01-24T09:33:45Z</time>
      </trkpt>
      <trkpt lat="43.53823" lon="5.77277">
        <ele>485.95</ele>
        <time>2016-01-24T09:33:54Z</time>
      </trkpt>
      <trkpt lat="43.53809" lon="5.77296">
        <ele>486.82</ele>
        <time>2016-01-24T09:34:03Z</time>
      </trkpt>
      <trkpt lat="43.53796" lon="5.77313">
        <ele>487.36</ele>
        <time>2016-01-24T09:34:11Z</time>
      </trkpt>
      <trkpt lat="43.53784" lon="5.77332">
        <ele>488.44</ele>
        <time>2016-01-24T09:34:19Z</time>
      </trkpt>
      <trkpt lat="43.53772" lon="5.77351">
        <ele>489.36</ele>
        <time>2016-01-24T09:34:27Z</time>
      </trkpt>
      <trkpt lat="43.5376" lon="5.77369">
        <ele>490.29</ele>
        <time>2016-01-24T09:34:35Z</time>
      </trkpt>
      <trkpt lat="43.53744" lon="5.77386">
        <ele>492.12</ele>
        <time>2016-01-24T09:34:44Z</time>
      </trkpt>
      <trkpt lat="43.53729" lon="5.77401">
        <ele>492.92</ele>
        <time>2016-01-24T09:34:52Z</time>
      </trkpt>
      <trkpt lat="43.53714" lon="5.77415">
        <ele>493.34</ele>
        <time>2016-01-24T09:35:00Z</time>
      </trkpt>
      <trkpt lat="43.53698" lon="5.77428">
        <ele>493.01</ele>
        <time>2016-01-24T09:35:08Z</time>
      </trkpt>
      <trkpt lat="43.53689" lon="5.7745">
        <ele>492.6</ele>
        <time>2016-01-24T09:35:15Z</time>
      </trkpt>
      <trkpt lat="43.53695" lon="5.77476">
        <ele>492.55</ele>
        <time>2016-01-24T09:35:22Z</time>
      </trkpt>
      <trkpt lat="43.53706" lon="5.77501">
        <ele>492.57</ele>
        <time>2016-01-24T09:35:29Z</time>
      </trkpt>
      <trkpt lat="43.53714" lon="5.77524">
        <ele>493.55</ele>
        <time>2016-01-24T09:35:36Z</time>
      </trkpt>
      <trkpt lat="43.53723" lon="5.77548">
        <ele>495.45</ele>
        <time>2016-01-24T09:35:44Z</time>
      </trkpt>
      <trkpt lat="43.53734" lon="5.77569">
        <ele>499.59</ele>
        <time>2016-01-24T09:35:53Z</time>
      </trkpt>
      <trkpt lat="43.53748" lon="5.77589">
        <ele>501.07</ele>
        <time>2016-01-24T09:36:02Z</time>
      </trkpt>
      <trkpt lat="43.53763" lon="5.77608">
        <ele>502.35</ele>
        <time>2016-01-24T09:36:11Z</time>
      </trkpt>
      <trkpt lat="43.53777" lon="5.77625">
        <ele>504.26</ele>
        <time>2016-01-24T09:36:21Z</time>
      </trkpt>
      <trkpt lat="43.53793" lon="5.7764">
        <ele>505.76</ele>
        <time>2016-01-24T09:36:32Z</time>
      </trkpt>
      <trkpt lat="43.53809" lon="5.77652">
        <ele>506.4</ele>
        <time>2016-01-24T09:36:42Z</time>
      </trkpt>
      <trkpt lat="43.53822" lon="5.77673">
        <ele>509.58</ele>
        <time>2016-01-24T09:36:53Z</time>
      </trkpt>
      <trkpt lat="43.53812" lon="5.77695">
        <ele>509.06</ele>
        <time>2016-01-24T09:37:04Z</time>
      </trkpt>
      <trkpt lat="43.538" lon="5.77714">
        <ele>507.68</ele>
        <time>2016-01-24T09:37:13Z</time>
      </trkpt>
      <trkpt lat="43.53793" lon="5.7774">
        <ele>507.55</ele>
        <time>2016-01-24T09:38:16Z</time>
      </trkpt>
      <trkpt lat="43.53798" lon="5.77767">
        <ele>510.31</ele>
        <time>2016-01-24T09:38:23Z</time>
      </trkpt>
      <trkpt lat="43.53807" lon="5.7779">
        <ele>512.13</ele>
        <time>2016-01-24T09:38:29Z</time>
      </trkpt>
      <trkpt lat="43.53817" lon="5.77811">
        <ele>515.58</ele>
        <time>2016-01-24T09:38:34Z</time>
      </trkpt>
      <trkpt lat="43.53828" lon="5.77834">
        <ele>516.83</ele>
        <time>2016-01-24T09:38:39Z</time>
      </trkpt>
      <trkpt lat="43.53836" lon="5.7786">
        <ele>516.84</ele>
        <time>2016-01-24T09:38:43Z</time>
      </trkpt>
      <trkpt lat="43.5384" lon="5.77889">
        <ele>516.03</ele>
        <time>2016-01-24T09:38:47Z</time>
      </trkpt>
      <trkpt lat="43.53834" lon="5.77921">
        <ele>514.94</ele>
        <time>2016-01-24T09:38:51Z</time>
      </trkpt>
      <trkpt lat="43.53822" lon="5.77943">
        <ele>516.1</ele>
        <time>2016-01-24T09:38:56Z</time>
      </trkpt>
      <trkpt lat="43.53807" lon="5.77958">
        <ele>515.39</ele>
        <time>2016-01-24T09:39:02Z</time>
      </trkpt>
      <trkpt lat="43.53792" lon="5.77976">
        <ele>514.56</ele>
        <time>2016-01-24T09:39:06Z</time>
      </trkpt>
      <trkpt lat="43.53777" lon="5.77998">
        <ele>514.04</ele>
        <time>2016-01-24T09:39:10Z</time>
      </trkpt>
      <trkpt lat="43.53761" lon="5.78018">
        <ele>513.28</ele>
        <time>2016-01-24T09:39:14Z</time>
      </trkpt>
      <trkpt lat="43.53744" lon="5.78038">
        <ele>511.96</ele>
        <time>2016-01-24T09:39:18Z</time>
      </trkpt>
      <trkpt lat="43.53731" lon="5.78056">
        <ele>509.93</ele>
        <time>2016-01-24T09:39:21Z</time>
      </trkpt>
      <trkpt lat="43.53719" lon="5.78082">
        <ele>507.32</ele>
        <time>2016-01-24T09:39:25Z</time>
      </trkpt>
      <trkpt lat="43.53717" lon="5.78112">
        <ele>504.91</ele>
        <time>2016-01-24T09:39:29Z</time>
      </trkpt>
      <trkpt lat="43.53721" lon="5.78145">
        <ele>502.68</ele>
        <time>2016-01-24T09:39:33Z</time>
      </trkpt>
      <trkpt lat="43.53724" lon="5.78173">
        <ele>500.68</ele>
        <time>2016-01-24T09:39:36Z</time>
      </trkpt>
      <trkpt lat="43.53725" lon="5.78201">
        <ele>499.56</ele>
        <time>2016-01-24T09:39:39Z</time>
      </trkpt>
      <trkpt lat="43.53725" lon="5.78231">
        <ele>498.18</ele>
        <time>2016-01-24T09:39:43Z</time>
      </trkpt>
      <trkpt lat="43.53703" lon="5.78224">
        <ele>495.22</ele>
        <time>2016-01-24T09:39:52Z</time>
      </trkpt>
      <trkpt lat="43.53688" lon="5.7821">
        <ele>493.4</ele>
        <time>2016-01-24T09:39:56Z</time>
      </trkpt>
      <trkpt lat="43.53667" lon="5.78193">
        <ele>490.63</ele>
        <time>2016-01-24T09:40:00Z</time>
      </trkpt>
      <trkpt lat="43.53647" lon="5.7818">
        <ele>488.18</ele>
        <time>2016-01-24T09:40:03Z</time>
      </trkpt>
      <trkpt lat="43.53624" lon="5.78161">
        <ele>485.8</ele>
        <time>2016-01-24T09:40:06Z</time>
      </trkpt>
      <trkpt lat="43.53604" lon="5.78137">
        <ele>481.71</ele>
        <time>2016-01-24T09:40:09Z</time>
      </trkpt>
      <trkpt lat="43.5359" lon="5.78118">
        <ele>478.8</ele>
        <time>2016-01-24T09:40:11Z</time>
      </trkpt>
      <trkpt lat="43.53576" lon="5.78099">
        <ele>476</ele>
        <time>2016-01-24T09:40:13Z</time>
      </trkpt>
      <trkpt lat="43.53562" lon="5.7808">
        <ele>473.63</ele>
        <time>2016-01-24T09:40:15Z</time>
      </trkpt>
      <trkpt lat="43.53543" lon="5.78056">
        <ele>469.96</ele>
        <time>2016-01-24T09:40:18Z</time>
      </trkpt>
      <trkpt lat="43.53529" lon="5.78041">
        <ele>467.59</ele>
        <time>2016-01-24T09:40:20Z</time>
      </trkpt>
      <trkpt lat="43.53515" lon="5.78025">
        <ele>465.15</ele>
        <time>2016-01-24T09:40:22Z</time>
      </trkpt>
      <trkpt lat="43.53501" lon="5.78008">
        <ele>462.79</ele>
        <time>2016-01-24T09:40:24Z</time>
      </trkpt>
      <trkpt lat="43.53487" lon="5.7799">
        <ele>460.52</ele>
        <time>2016-01-24T09:40:26Z</time>
      </trkpt>
      <trkpt lat="43.53466" lon="5.7797">
        <ele>457.64</ele>
        <time>2016-01-24T09:40:29Z</time>
      </trkpt>
      <trkpt lat="43.53442" lon="5.77958">
        <ele>454.93</ele>
        <time>2016-01-24T09:40:32Z</time>
      </trkpt>
      <trkpt lat="43.5342" lon="5.77946">
        <ele>452.55</ele>
        <time>2016-01-24T09:40:35Z</time>
      </trkpt>
      <trkpt lat="43.534" lon="5.77937">
        <ele>450.3</ele>
        <time>2016-01-24T09:40:38Z</time>
      </trkpt>
      <trkpt lat="43.53379" lon="5.77937">
        <ele>449.04</ele>
        <time>2016-01-24T09:40:42Z</time>
      </trkpt>
      <trkpt lat="43.53357" lon="5.77943">
        <ele>448.59</ele>
        <time>2016-01-24T09:40:46Z</time>
      </trkpt>
      <trkpt lat="43.53339" lon="5.77948">
        <ele>448.28</ele>
        <time>2016-01-24T09:40:49Z</time>
      </trkpt>
      <trkpt lat="43.53322" lon="5.77956">
        <ele>448.5</ele>
        <time>2016-01-24T09:40:52Z</time>
      </trkpt>
      <trkpt lat="43.53304" lon="5.77962">
        <ele>448.48</ele>
        <time>2016-01-24T09:40:55Z</time>
      </trkpt>
      <trkpt lat="43.53282" lon="5.77955">
        <ele>447.8</ele>
        <time>2016-01-24T09:40:59Z</time>
      </trkpt>
      <trkpt lat="43.5326" lon="5.77943">
        <ele>447.91</ele>
        <time>2016-01-24T09:41:03Z</time>
      </trkpt>
      <trkpt lat="43.53242" lon="5.77933">
        <ele>447.96</ele>
        <time>2016-01-24T09:41:06Z</time>
      </trkpt>
      <trkpt lat="43.53223" lon="5.77928">
        <ele>447.51</ele>
        <time>2016-01-24T09:41:09Z</time>
      </trkpt>
      <trkpt lat="43.53203" lon="5.77923">
        <ele>445.45</ele>
        <time>2016-01-24T09:41:12Z</time>
      </trkpt>
      <trkpt lat="43.53185" lon="5.77914">
        <ele>443.03</ele>
        <time>2016-01-24T09:41:15Z</time>
      </trkpt>
      <trkpt lat="43.53163" lon="5.77906">
        <ele>441.78</ele>
        <time>2016-01-24T09:41:18Z</time>
      </trkpt>
      <trkpt lat="43.5314" lon="5.77898">
        <ele>441.24</ele>
        <time>2016-01-24T09:41:21Z</time>
      </trkpt>
      <trkpt lat="43.53118" lon="5.7789">
        <ele>440.6</ele>
        <time>2016-01-24T09:41:24Z</time>
      </trkpt>
      <trkpt lat="43.53095" lon="5.77881">
        <ele>439.32</ele>
        <time>2016-01-24T09:41:27Z</time>
      </trkpt>
      <trkpt lat="43.53073" lon="5.77874">
        <ele>437.53</ele>
        <time>2016-01-24T09:41:30Z</time>
      </trkpt>
      <trkpt lat="43.53052" lon="5.77876">
        <ele>437.85</ele>
        <time>2016-01-24T09:41:33Z</time>
      </trkpt>
      <trkpt lat="43.53033" lon="5.77884">
        <ele>438.54</ele>
        <time>2016-01-24T09:41:36Z</time>
      </trkpt>
      <trkpt lat="43.53011" lon="5.77886">
        <ele>439.49</ele>
        <time>2016-01-24T09:41:40Z</time>
      </trkpt>
      <trkpt lat="43.52992" lon="5.77885">
        <ele>439.75</ele>
        <time>2016-01-24T09:41:43Z</time>
      </trkpt>
      <trkpt lat="43.52972" lon="5.77884">
        <ele>438.57</ele>
        <time>2016-01-24T09:41:46Z</time>
      </trkpt>
      <trkpt lat="43.52953" lon="5.77886">
        <ele>437.76</ele>
        <time>2016-01-24T09:41:49Z</time>
      </trkpt>
      <trkpt lat="43.52934" lon="5.77884">
        <ele>436.93</ele>
        <time>2016-01-24T09:41:52Z</time>
      </trkpt>
      <trkpt lat="43.52915" lon="5.77879">
        <ele>436.24</ele>
        <time>2016-01-24T09:41:55Z</time>
      </trkpt>
      <trkpt lat="43.52896" lon="5.77871">
        <ele>435.47</ele>
        <time>2016-01-24T09:41:58Z</time>
      </trkpt>
      <trkpt lat="43.52876" lon="5.77859">
        <ele>433.38</ele>
        <time>2016-01-24T09:42:02Z</time>
      </trkpt>
      <trkpt lat="43.5286" lon="5.7784">
        <ele>431.38</ele>
        <time>2016-01-24T09:42:06Z</time>
      </trkpt>
      <trkpt lat="43.52851" lon="5.77818">
        <ele>429.98</ele>
        <time>2016-01-24T09:42:09Z</time>
      </trkpt>
      <trkpt lat="43.52843" lon="5.77793">
        <ele>429.05</ele>
        <time>2016-01-24T09:42:13Z</time>
      </trkpt>
      <trkpt lat="43.5283" lon="5.77775">
        <ele>423.68</ele>
        <time>2016-01-24T09:43:10Z</time>
      </trkpt>
      <trkpt lat="43.52812" lon="5.77759">
        <ele>423.56</ele>
        <time>2016-01-24T09:43:18Z</time>
      </trkpt>
      <trkpt lat="43.52792" lon="5.77746">
        <ele>423.75</ele>
        <time>2016-01-24T09:43:23Z</time>
      </trkpt>
      <trkpt lat="43.52773" lon="5.77739">
        <ele>423.99</ele>
        <time>2016-01-24T09:43:27Z</time>
      </trkpt>
      <trkpt lat="43.52753" lon="5.77736">
        <ele>424.32</ele>
        <time>2016-01-24T09:43:31Z</time>
      </trkpt>
      <trkpt lat="43.52734" lon="5.77734">
        <ele>424.98</ele>
        <time>2016-01-24T09:43:35Z</time>
      </trkpt>
      <trkpt lat="43.52711" lon="5.77735">
        <ele>424.94</ele>
        <time>2016-01-24T09:43:39Z</time>
      </trkpt>
      <trkpt lat="43.52692" lon="5.77736">
        <ele>424.67</ele>
        <time>2016-01-24T09:43:42Z</time>
      </trkpt>
      <trkpt lat="43.52669" lon="5.77738">
        <ele>424.58</ele>
        <time>2016-01-24T09:43:45Z</time>
      </trkpt>
      <trkpt lat="43.52651" lon="5.77742">
        <ele>424.73</ele>
        <time>2016-01-24T09:43:48Z</time>
      </trkpt>
      <trkpt lat="43.52631" lon="5.77747">
        <ele>424.88</ele>
        <time>2016-01-24T09:43:51Z</time>
      </trkpt>
      <trkpt lat="43.52612" lon="5.77753">
        <ele>424.77</ele>
        <time>2016-01-24T09:43:54Z</time>
      </trkpt>
      <trkpt lat="43.52593" lon="5.77758">
        <ele>424.22</ele>
        <time>2016-01-24T09:43:58Z</time>
      </trkpt>
      <trkpt lat="43.5257" lon="5.77763">
        <ele>424.22</ele>
        <time>2016-01-24T09:44:03Z</time>
      </trkpt>
      <trkpt lat="43.52551" lon="5.77768">
        <ele>424.28</ele>
        <time>2016-01-24T09:44:07Z</time>
      </trkpt>
      <trkpt lat="43.52531" lon="5.77772">
        <ele>423.73</ele>
        <time>2016-01-24T09:44:11Z</time>
      </trkpt>
      <trkpt lat="43.52513" lon="5.77778">
        <ele>424.61</ele>
        <time>2016-01-24T09:44:15Z</time>
      </trkpt>
      <trkpt lat="43.52493" lon="5.77782">
        <ele>425.2</ele>
        <time>2016-01-24T09:44:19Z</time>
      </trkpt>
      <trkpt lat="43.52472" lon="5.77788">
        <ele>424.21</ele>
        <time>2016-01-24T09:44:23Z</time>
      </trkpt>
      <trkpt lat="43.52452" lon="5.77802">
        <ele>423.34</ele>
        <time>2016-01-24T09:44:27Z</time>
      </trkpt>
      <trkpt lat="43.52436" lon="5.77814">
        <ele>422.9</ele>
        <time>2016-01-24T09:44:30Z</time>
      </trkpt>
      <trkpt lat="43.52419" lon="5.77824">
        <ele>422.87</ele>
        <time>2016-01-24T09:44:33Z</time>
      </trkpt>
      <trkpt lat="43.52405" lon="5.7784">
        <ele>423.08</ele>
        <time>2016-01-24T09:44:36Z</time>
      </trkpt>
      <trkpt lat="43.52392" lon="5.77865">
        <ele>422.71</ele>
        <time>2016-01-24T09:44:40Z</time>
      </trkpt>
      <trkpt lat="43.52384" lon="5.77895">
        <ele>422.1</ele>
        <time>2016-01-24T09:44:44Z</time>
      </trkpt>
      <trkpt lat="43.52377" lon="5.77918">
        <ele>421.21</ele>
        <time>2016-01-24T09:44:47Z</time>
      </trkpt>
      <trkpt lat="43.52362" lon="5.77939">
        <ele>418.67</ele>
        <time>2016-01-24T09:44:51Z</time>
      </trkpt>
      <trkpt lat="43.52341" lon="5.7795">
        <ele>416.76</ele>
        <time>2016-01-24T09:44:55Z</time>
      </trkpt>
      <trkpt lat="43.52318" lon="5.77957">
        <ele>414.74</ele>
        <time>2016-01-24T09:44:59Z</time>
      </trkpt>
      <trkpt lat="43.52295" lon="5.7796">
        <ele>413.14</ele>
        <time>2016-01-24T09:45:03Z</time>
      </trkpt>
      <trkpt lat="43.52276" lon="5.77967">
        <ele>412.45</ele>
        <time>2016-01-24T09:45:06Z</time>
      </trkpt>
      <trkpt lat="43.52259" lon="5.77978">
        <ele>412.52</ele>
        <time>2016-01-24T09:45:09Z</time>
      </trkpt>
      <trkpt lat="43.52239" lon="5.77992">
        <ele>411.36</ele>
        <time>2016-01-24T09:45:13Z</time>
      </trkpt>
      <trkpt lat="43.52218" lon="5.78004">
        <ele>411.17</ele>
        <time>2016-01-24T09:45:17Z</time>
      </trkpt>
      <trkpt lat="43.52199" lon="5.78015">
        <ele>411.17</ele>
        <time>2016-01-24T09:45:21Z</time>
      </trkpt>
      <trkpt lat="43.52181" lon="5.7803">
        <ele>410.53</ele>
        <time>2016-01-24T09:45:25Z</time>
      </trkpt>
      <trkpt lat="43.52162" lon="5.78045">
        <ele>409.42</ele>
        <time>2016-01-24T09:45:29Z</time>
      </trkpt>
      <trkpt lat="43.52144" lon="5.7806">
        <ele>409.45</ele>
        <time>2016-01-24T09:45:33Z</time>
      </trkpt>
      <trkpt lat="43.52127" lon="5.78073">
        <ele>410.07</ele>
        <time>2016-01-24T09:45:37Z</time>
      </trkpt>
      <trkpt lat="43.5211" lon="5.78087">
        <ele>410.48</ele>
        <time>2016-01-24T09:45:41Z</time>
      </trkpt>
      <trkpt lat="43.52094" lon="5.78101">
        <ele>412.31</ele>
        <time>2016-01-24T09:45:45Z</time>
      </trkpt>
      <trkpt lat="43.52077" lon="5.78113">
        <ele>413.42</ele>
        <time>2016-01-24T09:45:49Z</time>
      </trkpt>
      <trkpt lat="43.52059" lon="5.78125">
        <ele>414.47</ele>
        <time>2016-01-24T09:45:53Z</time>
      </trkpt>
      <trkpt lat="43.52041" lon="5.78138">
        <ele>414.44</ele>
        <time>2016-01-24T09:45:57Z</time>
      </trkpt>
      <trkpt lat="43.52021" lon="5.78147">
        <ele>413.47</ele>
        <time>2016-01-24T09:46:02Z</time>
      </trkpt>
      <trkpt lat="43.52003" lon="5.78135">
        <ele>409.94</ele>
        <time>2016-01-24T09:46:09Z</time>
      </trkpt>
      <trkpt lat="43.51991" lon="5.78115">
        <ele>407.01</ele>
        <time>2016-01-24T09:46:15Z</time>
      </trkpt>
      <trkpt lat="43.51974" lon="5.78107">
        <ele>407.53</ele>
        <time>2016-01-24T09:46:21Z</time>
      </trkpt>
      <trkpt lat="43.51953" lon="5.78107">
        <ele>409.37</ele>
        <time>2016-01-24T09:46:27Z</time>
      </trkpt>
      <trkpt lat="43.51933" lon="5.78104">
        <ele>411.2</ele>
        <time>2016-01-24T09:46:33Z</time>
      </trkpt>
      <trkpt lat="43.51912" lon="5.781">
        <ele>412.92</ele>
        <time>2016-01-24T09:46:38Z</time>
      </trkpt>
      <trkpt lat="43.51894" lon="5.78088">
        <ele>414.06</ele>
        <time>2016-01-24T09:46:42Z</time>
      </trkpt>
      <trkpt lat="43.51878" lon="5.78069">
        <ele>412.66</ele>
        <time>2016-01-24T09:46:46Z</time>
      </trkpt>
      <trkpt lat="43.51864" lon="5.78046">
        <ele>409.07</ele>
        <time>2016-01-24T09:46:50Z</time>
      </trkpt>
      <trkpt lat="43.51855" lon="5.78023">
        <ele>405.78</ele>
        <time>2016-01-24T09:46:54Z</time>
      </trkpt>
      <trkpt lat="43.51841" lon="5.78002">
        <ele>404.19</ele>
        <time>2016-01-24T09:46:58Z</time>
      </trkpt>
      <trkpt lat="43.51829" lon="5.77982">
        <ele>401.23</ele>
        <time>2016-01-24T09:47:02Z</time>
      </trkpt>
      <trkpt lat="43.51816" lon="5.77965">
        <ele>399.78</ele>
        <time>2016-01-24T09:47:06Z</time>
      </trkpt>
      <trkpt lat="43.51799" lon="5.77945">
        <ele>398.76</ele>
        <time>2016-01-24T09:47:11Z</time>
      </trkpt>
      <trkpt lat="43.51785" lon="5.77927">
        <ele>397.71</ele>
        <time>2016-01-24T09:47:15Z</time>
      </trkpt>
      <trkpt lat="43.51771" lon="5.77905">
        <ele>395.95</ele>
        <time>2016-01-24T09:47:19Z</time>
      </trkpt>
      <trkpt lat="43.5176" lon="5.77877">
        <ele>394.26</ele>
        <time>2016-01-24T09:47:23Z</time>
      </trkpt>
      <trkpt lat="43.51754" lon="5.77848">
        <ele>392.92</ele>
        <time>2016-01-24T09:47:27Z</time>
      </trkpt>
      <trkpt lat="43.51751" lon="5.7782">
        <ele>392</ele>
        <time>2016-01-24T09:47:31Z</time>
      </trkpt>
      <trkpt lat="43.51749" lon="5.77789">
        <ele>390.54</ele>
        <time>2016-01-24T09:47:35Z</time>
      </trkpt>
      <trkpt lat="43.51738" lon="5.77764">
        <ele>390.13</ele>
        <time>2016-01-24T09:47:39Z</time>
      </trkpt>
      <trkpt lat="43.5172" lon="5.77748">
        <ele>390.67</ele>
        <time>2016-01-24T09:47:43Z</time>
      </trkpt>
      <trkpt lat="43.51702" lon="5.77736">
        <ele>389.82</ele>
        <time>2016-01-24T09:47:47Z</time>
      </trkpt>
      <trkpt lat="43.51683" lon="5.77721">
        <ele>389.45</ele>
        <time>2016-01-24T09:47:51Z</time>
      </trkpt>
      <trkpt lat="43.51664" lon="5.77708">
        <ele>389.59</ele>
        <time>2016-01-24T09:47:55Z</time>
      </trkpt>
      <trkpt lat="43.51645" lon="5.77697">
        <ele>389.79</ele>
        <time>2016-01-24T09:47:59Z</time>
      </trkpt>
      <trkpt lat="43.51626" lon="5.77681">
        <ele>390.6</ele>
        <time>2016-01-24T09:48:04Z</time>
      </trkpt>
      <trkpt lat="43.51613" lon="5.77654">
        <ele>389.9</ele>
        <time>2016-01-24T09:48:08Z</time>
      </trkpt>
      <trkpt lat="43.51607" lon="5.7763">
        <ele>388.87</ele>
        <time>2016-01-24T09:48:11Z</time>
      </trkpt>
      <trkpt lat="43.51602" lon="5.77606">
        <ele>387.96</ele>
        <time>2016-01-24T09:48:14Z</time>
      </trkpt>
      <trkpt lat="43.51593" lon="5.77583">
        <ele>386.76</ele>
        <time>2016-01-24T09:48:17Z</time>
      </trkpt>
      <trkpt lat="43.5158" lon="5.77565">
        <ele>386.43</ele>
        <time>2016-01-24T09:48:20Z</time>
      </trkpt>
      <trkpt lat="43.51563" lon="5.77548">
        <ele>385.75</ele>
        <time>2016-01-24T09:48:24Z</time>
      </trkpt>
      <trkpt lat="43.51545" lon="5.77527">
        <ele>384.42</ele>
        <time>2016-01-24T09:48:28Z</time>
      </trkpt>
      <trkpt lat="43.5153" lon="5.77507">
        <ele>383.88</ele>
        <time>2016-01-24T09:48:32Z</time>
      </trkpt>
      <trkpt lat="43.51516" lon="5.77492">
        <ele>383.95</ele>
        <time>2016-01-24T09:48:41Z</time>
      </trkpt>
      <trkpt lat="43.515" lon="5.77476">
        <ele>384.86</ele>
        <time>2016-01-24T09:48:52Z</time>
      </trkpt>
      <trkpt lat="43.51488" lon="5.77456">
        <ele>384.05</ele>
        <time>2016-01-24T09:49:01Z</time>
      </trkpt>
      <trkpt lat="43.51496" lon="5.7748">
        <ele>387.43</ele>
        <time>2016-01-24T09:51:31Z</time>
      </trkpt>
      <trkpt lat="43.51508" lon="5.775">
        <ele>392.87</ele>
        <time>2016-01-24T09:51:40Z</time>
      </trkpt>
      <trkpt lat="43.51525" lon="5.77508">
        <ele>394.07</ele>
        <time>2016-01-24T09:51:48Z</time>
      </trkpt>
      <trkpt lat="43.51538" lon="5.77527">
        <ele>394.93</ele>
        <time>2016-01-24T09:51:56Z</time>
      </trkpt>
      <trkpt lat="43.51553" lon="5.77541">
        <ele>396.01</ele>
        <time>2016-01-24T09:52:04Z</time>
      </trkpt>
      <trkpt lat="43.51567" lon="5.77557">
        <ele>398.69</ele>
        <time>2016-01-24T09:52:11Z</time>
      </trkpt>
      <trkpt lat="43.51579" lon="5.77577">
        <ele>401.43</ele>
        <time>2016-01-24T09:52:17Z</time>
      </trkpt>
      <trkpt lat="43.51588" lon="5.77601">
        <ele>402.48</ele>
        <time>2016-01-24T09:52:23Z</time>
      </trkpt>
      <trkpt lat="43.51597" lon="5.77628">
        <ele>401.61</ele>
        <time>2016-01-24T09:52:29Z</time>
      </trkpt>
      <trkpt lat="43.51606" lon="5.77654">
        <ele>401.66</ele>
        <time>2016-01-24T09:52:35Z</time>
      </trkpt>
      <trkpt lat="43.51616" lon="5.77677">
        <ele>403.01</ele>
        <time>2016-01-24T09:52:41Z</time>
      </trkpt>
      <trkpt lat="43.51633" lon="5.7769">
        <ele>404.77</ele>
        <time>2016-01-24T09:52:48Z</time>
      </trkpt>
      <trkpt lat="43.5165" lon="5.777">
        <ele>403.81</ele>
        <time>2016-01-24T09:52:55Z</time>
      </trkpt>
      <trkpt lat="43.51668" lon="5.77711">
        <ele>405.22</ele>
        <time>2016-01-24T09:53:03Z</time>
      </trkpt>
      <trkpt lat="43.51684" lon="5.77724">
        <ele>406.38</ele>
        <time>2016-01-24T09:53:11Z</time>
      </trkpt>
      <trkpt lat="43.51701" lon="5.77737">
        <ele>407.65</ele>
        <time>2016-01-24T09:53:18Z</time>
      </trkpt>
      <trkpt lat="43.51717" lon="5.77753">
        <ele>409.99</ele>
        <time>2016-01-24T09:53:25Z</time>
      </trkpt>
      <trkpt lat="43.51729" lon="5.77771">
        <ele>410.82</ele>
        <time>2016-01-24T09:53:32Z</time>
      </trkpt>
      <trkpt lat="43.51738" lon="5.77796">
        <ele>409.47</ele>
        <time>2016-01-24T09:53:39Z</time>
      </trkpt>
      <trkpt lat="43.51743" lon="5.77822">
        <ele>405.16</ele>
        <time>2016-01-24T09:53:46Z</time>
      </trkpt>
      <trkpt lat="43.5175" lon="5.77847">
        <ele>404.63</ele>
        <time>2016-01-24T09:53:53Z</time>
      </trkpt>
      <trkpt lat="43.51754" lon="5.77873">
        <ele>404.67</ele>
        <time>2016-01-24T09:54:00Z</time>
      </trkpt>
      <trkpt lat="43.51762" lon="5.77898">
        <ele>405.66</ele>
        <time>2016-01-24T09:54:07Z</time>
      </trkpt>
      <trkpt lat="43.51774" lon="5.77921">
        <ele>408.39</ele>
        <time>2016-01-24T09:54:14Z</time>
      </trkpt>
      <trkpt lat="43.51785" lon="5.77941">
        <ele>412.15</ele>
        <time>2016-01-24T09:54:21Z</time>
      </trkpt>
      <trkpt lat="43.51799" lon="5.7796">
        <ele>415.13</ele>
        <time>2016-01-24T09:54:28Z</time>
      </trkpt>
      <trkpt lat="43.51813" lon="5.7798">
        <ele>417.98</ele>
        <time>2016-01-24T09:54:35Z</time>
      </trkpt>
      <trkpt lat="43.51827" lon="5.77999">
        <ele>420.92</ele>
        <time>2016-01-24T09:54:42Z</time>
      </trkpt>
      <trkpt lat="43.51839" lon="5.78019">
        <ele>421.32</ele>
        <time>2016-01-24T09:54:48Z</time>
      </trkpt>
      <trkpt lat="43.51851" lon="5.78039">
        <ele>419.54</ele>
        <time>2016-01-24T09:54:53Z</time>
      </trkpt>
      <trkpt lat="43.51859" lon="5.78061">
        <ele>417.6</ele>
        <time>2016-01-24T09:54:59Z</time>
      </trkpt>
      <trkpt lat="43.51873" lon="5.78081">
        <ele>418.38</ele>
        <time>2016-01-24T09:55:06Z</time>
      </trkpt>
      <trkpt lat="43.51893" lon="5.78089">
        <ele>417.71</ele>
        <time>2016-01-24T09:55:13Z</time>
      </trkpt>
      <trkpt lat="43.51912" lon="5.78092">
        <ele>415.75</ele>
        <time>2016-01-24T09:55:19Z</time>
      </trkpt>
      <trkpt lat="43.51932" lon="5.78093">
        <ele>413.77</ele>
        <time>2016-01-24T09:55:25Z</time>
      </trkpt>
      <trkpt lat="43.51953" lon="5.78097">
        <ele>412.09</ele>
        <time>2016-01-24T09:55:31Z</time>
      </trkpt>
      <trkpt lat="43.51971" lon="5.78105">
        <ele>410.59</ele>
        <time>2016-01-24T09:55:37Z</time>
      </trkpt>
      <trkpt lat="43.51986" lon="5.7812">
        <ele>412.01</ele>
        <time>2016-01-24T09:55:43Z</time>
      </trkpt>
      <trkpt lat="43.51997" lon="5.78143">
        <ele>413.47</ele>
        <time>2016-01-24T09:55:50Z</time>
      </trkpt>
      <trkpt lat="43.52016" lon="5.78145">
        <ele>408.32</ele>
        <time>2016-01-24T09:56:57Z</time>
      </trkpt>
      <trkpt lat="43.52018" lon="5.78172">
        <ele>405.47</ele>
        <time>2016-01-24T09:57:48Z</time>
      </trkpt>
      <trkpt lat="43.52007" lon="5.78194">
        <ele>410.46</ele>
        <time>2016-01-24T09:57:57Z</time>
      </trkpt>
      <trkpt lat="43.52" lon="5.78219">
        <ele>409.42</ele>
        <time>2016-01-24T09:58:51Z</time>
      </trkpt>
      <trkpt lat="43.51987" lon="5.78237">
        <ele>406.84</ele>
        <time>2016-01-24T09:59:09Z</time>
      </trkpt>
      <trkpt lat="43.51971" lon="5.78226">
        <ele>408.34</ele>
        <time>2016-01-24T09:59:19Z</time>
      </trkpt>
      <trkpt lat="43.51952" lon="5.78217">
        <ele>410.54</ele>
        <time>2016-01-24T09:59:27Z</time>
      </trkpt>
      <trkpt lat="43.51935" lon="5.78204">
        <ele>412.96</ele>
        <time>2016-01-24T09:59:34Z</time>
      </trkpt>
      <trkpt lat="43.51915" lon="5.78196">
        <ele>415.61</ele>
        <time>2016-01-24T09:59:40Z</time>
      </trkpt>
      <trkpt lat="43.51894" lon="5.78186">
        <ele>416.73</ele>
        <time>2016-01-24T09:59:45Z</time>
      </trkpt>
      <trkpt lat="43.51877" lon="5.78175">
        <ele>418.4</ele>
        <time>2016-01-24T09:59:50Z</time>
      </trkpt>
      <trkpt lat="43.51862" lon="5.78157">
        <ele>416.62</ele>
        <time>2016-01-24T09:59:56Z</time>
      </trkpt>
      <trkpt lat="43.51846" lon="5.7814">
        <ele>413.63</ele>
        <time>2016-01-24T10:00:01Z</time>
      </trkpt>
      <trkpt lat="43.51831" lon="5.78123">
        <ele>411.91</ele>
        <time>2016-01-24T10:00:06Z</time>
      </trkpt>
      <trkpt lat="43.51813" lon="5.78107">
        <ele>410.82</ele>
        <time>2016-01-24T10:00:12Z</time>
      </trkpt>
      <trkpt lat="43.51793" lon="5.78098">
        <ele>410.1</ele>
        <time>2016-01-24T10:00:18Z</time>
      </trkpt>
      <trkpt lat="43.51776" lon="5.7809">
        <ele>409</ele>
        <time>2016-01-24T10:00:23Z</time>
      </trkpt>
      <trkpt lat="43.51758" lon="5.78083">
        <ele>408.76</ele>
        <time>2016-01-24T10:00:28Z</time>
      </trkpt>
      <trkpt lat="43.51737" lon="5.78073">
        <ele>408.43</ele>
        <time>2016-01-24T10:00:33Z</time>
      </trkpt>
      <trkpt lat="43.5172" lon="5.78063">
        <ele>407.88</ele>
        <time>2016-01-24T10:00:38Z</time>
      </trkpt>
      <trkpt lat="43.51702" lon="5.78054">
        <ele>406.4</ele>
        <time>2016-01-24T10:00:44Z</time>
      </trkpt>
      <trkpt lat="43.51685" lon="5.78044">
        <ele>406.9</ele>
        <time>2016-01-24T10:00:49Z</time>
      </trkpt>
      <trkpt lat="43.51667" lon="5.78035">
        <ele>406.33</ele>
        <time>2016-01-24T10:00:54Z</time>
      </trkpt>
      <trkpt lat="43.51648" lon="5.78025">
        <ele>406.04</ele>
        <time>2016-01-24T10:00:59Z</time>
      </trkpt>
      <trkpt lat="43.51628" lon="5.78014">
        <ele>405.73</ele>
        <time>2016-01-24T10:01:04Z</time>
      </trkpt>
      <trkpt lat="43.51607" lon="5.78004">
        <ele>405.26</ele>
        <time>2016-01-24T10:01:09Z</time>
      </trkpt>
      <trkpt lat="43.51587" lon="5.77994">
        <ele>406.08</ele>
        <time>2016-01-24T10:01:14Z</time>
      </trkpt>
      <trkpt lat="43.51567" lon="5.77985">
        <ele>406.75</ele>
        <time>2016-01-24T10:01:18Z</time>
      </trkpt>
      <trkpt lat="43.51549" lon="5.77979">
        <ele>407.22</ele>
        <time>2016-01-24T10:01:21Z</time>
      </trkpt>
      <trkpt lat="43.51532" lon="5.77973">
        <ele>407.55</ele>
        <time>2016-01-24T10:01:24Z</time>
      </trkpt>
      <trkpt lat="43.51511" lon="5.77963">
        <ele>408.28</ele>
        <time>2016-01-24T10:01:28Z</time>
      </trkpt>
      <trkpt lat="43.51491" lon="5.77955">
        <ele>408.46</ele>
        <time>2016-01-24T10:01:31Z</time>
      </trkpt>
      <trkpt lat="43.5147" lon="5.77948">
        <ele>408.52</ele>
        <time>2016-01-24T10:01:34Z</time>
      </trkpt>
      <trkpt lat="43.51448" lon="5.7794">
        <ele>408.98</ele>
        <time>2016-01-24T10:01:38Z</time>
      </trkpt>
      <trkpt lat="43.51427" lon="5.77931">
        <ele>409.19</ele>
        <time>2016-01-24T10:01:42Z</time>
      </trkpt>
      <trkpt lat="43.51408" lon="5.77921">
        <ele>409.61</ele>
        <time>2016-01-24T10:01:46Z</time>
      </trkpt>
      <trkpt lat="43.51391" lon="5.77912">
        <ele>409.31</ele>
        <time>2016-01-24T10:01:50Z</time>
      </trkpt>
      <trkpt lat="43.51372" lon="5.77902">
        <ele>409.37</ele>
        <time>2016-01-24T10:01:54Z</time>
      </trkpt>
      <trkpt lat="43.51351" lon="5.77894">
        <ele>409.8</ele>
        <time>2016-01-24T10:01:58Z</time>
      </trkpt>
      <trkpt lat="43.51328" lon="5.77887">
        <ele>410.41</ele>
        <time>2016-01-24T10:02:02Z</time>
      </trkpt>
      <trkpt lat="43.5131" lon="5.77881">
        <ele>410.32</ele>
        <time>2016-01-24T10:02:05Z</time>
      </trkpt>
      <trkpt lat="43.51291" lon="5.77875">
        <ele>410.33</ele>
        <time>2016-01-24T10:02:08Z</time>
      </trkpt>
      <trkpt lat="43.51269" lon="5.77867">
        <ele>410.76</ele>
        <time>2016-01-24T10:02:12Z</time>
      </trkpt>
      <trkpt lat="43.5125" lon="5.77862">
        <ele>410.89</ele>
        <time>2016-01-24T10:02:15Z</time>
      </trkpt>
      <trkpt lat="43.5123" lon="5.77853">
        <ele>410.37</ele>
        <time>2016-01-24T10:02:18Z</time>
      </trkpt>
      <trkpt lat="43.51212" lon="5.77844">
        <ele>409.43</ele>
        <time>2016-01-24T10:02:21Z</time>
      </trkpt>
      <trkpt lat="43.51194" lon="5.77839">
        <ele>408.38</ele>
        <time>2016-01-24T10:02:24Z</time>
      </trkpt>
      <trkpt lat="43.51171" lon="5.77839">
        <ele>407.04</ele>
        <time>2016-01-24T10:02:28Z</time>
      </trkpt>
      <trkpt lat="43.51151" lon="5.77847">
        <ele>406.45</ele>
        <time>2016-01-24T10:02:31Z</time>
      </trkpt>
      <trkpt lat="43.51133" lon="5.77858">
        <ele>406.28</ele>
        <time>2016-01-24T10:02:35Z</time>
      </trkpt>
      <trkpt lat="43.51115" lon="5.77872">
        <ele>406.4</ele>
        <time>2016-01-24T10:02:41Z</time>
      </trkpt>
      <trkpt lat="43.51097" lon="5.77886">
        <ele>406.61</ele>
        <time>2016-01-24T10:02:47Z</time>
      </trkpt>
      <trkpt lat="43.51078" lon="5.77899">
        <ele>407.55</ele>
        <time>2016-01-24T10:02:53Z</time>
      </trkpt>
      <trkpt lat="43.5106" lon="5.77911">
        <ele>408.69</ele>
        <time>2016-01-24T10:02:59Z</time>
      </trkpt>
      <trkpt lat="43.51041" lon="5.77922">
        <ele>410.05</ele>
        <time>2016-01-24T10:03:05Z</time>
      </trkpt>
      <trkpt lat="43.51023" lon="5.77933">
        <ele>412.07</ele>
        <time>2016-01-24T10:03:12Z</time>
      </trkpt>
      <trkpt lat="43.51005" lon="5.77947">
        <ele>415.48</ele>
        <time>2016-01-24T10:03:21Z</time>
      </trkpt>
      <trkpt lat="43.50989" lon="5.77961">
        <ele>417.51</ele>
        <time>2016-01-24T10:03:30Z</time>
      </trkpt>
      <trkpt lat="43.50974" lon="5.77975">
        <ele>414.6</ele>
        <time>2016-01-24T10:03:37Z</time>
      </trkpt>
      <trkpt lat="43.50958" lon="5.7799">
        <ele>411.55</ele>
        <time>2016-01-24T10:03:44Z</time>
      </trkpt>
      <trkpt lat="43.50942" lon="5.78006">
        <ele>411.2</ele>
        <time>2016-01-24T10:03:51Z</time>
      </trkpt>
      <trkpt lat="43.50926" lon="5.7802">
        <ele>412.22</ele>
        <time>2016-01-24T10:03:58Z</time>
      </trkpt>
      <trkpt lat="43.50908" lon="5.78031">
        <ele>412.31</ele>
        <time>2016-01-24T10:04:06Z</time>
      </trkpt>
      <trkpt lat="43.5089" lon="5.78042">
        <ele>410.23</ele>
        <time>2016-01-24T10:04:14Z</time>
      </trkpt>
      <trkpt lat="43.50873" lon="5.78052">
        <ele>407.58</ele>
        <time>2016-01-24T10:04:23Z</time>
      </trkpt>
      <trkpt lat="43.50856" lon="5.78061">
        <ele>405.12</ele>
        <time>2016-01-24T10:04:31Z</time>
      </trkpt>
      <trkpt lat="43.50838" lon="5.78074">
        <ele>404.3</ele>
        <time>2016-01-24T10:04:38Z</time>
      </trkpt>
      <trkpt lat="43.50822" lon="5.78088">
        <ele>404.11</ele>
        <time>2016-01-24T10:04:43Z</time>
      </trkpt>
      <trkpt lat="43.50806" lon="5.78101">
        <ele>403.45</ele>
        <time>2016-01-24T10:04:47Z</time>
      </trkpt>
      <trkpt lat="43.50788" lon="5.78117">
        <ele>402.52</ele>
        <time>2016-01-24T10:04:51Z</time>
      </trkpt>
      <trkpt lat="43.50771" lon="5.7813">
        <ele>401.58</ele>
        <time>2016-01-24T10:04:54Z</time>
      </trkpt>
      <trkpt lat="43.50754" lon="5.78145">
        <ele>399.46</ele>
        <time>2016-01-24T10:04:57Z</time>
      </trkpt>
      <trkpt lat="43.50738" lon="5.78159">
        <ele>398.83</ele>
        <time>2016-01-24T10:05:00Z</time>
      </trkpt>
      <trkpt lat="43.50723" lon="5.78171">
        <ele>398.61</ele>
        <time>2016-01-24T10:05:03Z</time>
      </trkpt>
      <trkpt lat="43.50702" lon="5.78186">
        <ele>399.24</ele>
        <time>2016-01-24T10:05:07Z</time>
      </trkpt>
      <trkpt lat="43.50685" lon="5.78202">
        <ele>400.42</ele>
        <time>2016-01-24T10:05:11Z</time>
      </trkpt>
      <trkpt lat="43.50669" lon="5.78215">
        <ele>401.4</ele>
        <time>2016-01-24T10:05:14Z</time>
      </trkpt>
      <trkpt lat="43.5065" lon="5.78232">
        <ele>403.56</ele>
        <time>2016-01-24T10:05:18Z</time>
      </trkpt>
      <trkpt lat="43.50632" lon="5.78247">
        <ele>405.55</ele>
        <time>2016-01-24T10:05:22Z</time>
      </trkpt>
      <trkpt lat="43.50615" lon="5.78259">
        <ele>406.94</ele>
        <time>2016-01-24T10:05:26Z</time>
      </trkpt>
      <trkpt lat="43.50595" lon="5.78272">
        <ele>407.33</ele>
        <time>2016-01-24T10:05:31Z</time>
      </trkpt>
      <trkpt lat="43.50577" lon="5.78285">
        <ele>407.11</ele>
        <time>2016-01-24T10:05:36Z</time>
      </trkpt>
      <trkpt lat="43.50559" lon="5.78297">
        <ele>407.91</ele>
        <time>2016-01-24T10:05:41Z</time>
      </trkpt>
      <trkpt lat="43.50542" lon="5.78308">
        <ele>408.66</ele>
        <time>2016-01-24T10:05:47Z</time>
      </trkpt>
      <trkpt lat="43.50524" lon="5.7832">
        <ele>408.69</ele>
        <time>2016-01-24T10:05:54Z</time>
      </trkpt>
      <trkpt lat="43.50505" lon="5.78334">
        <ele>409.82</ele>
        <time>2016-01-24T10:06:01Z</time>
      </trkpt>
      <trkpt lat="43.50491" lon="5.78349">
        <ele>411.49</ele>
        <time>2016-01-24T10:06:06Z</time>
      </trkpt>
      <trkpt lat="43.50472" lon="5.78361">
        <ele>412.21</ele>
        <time>2016-01-24T10:06:11Z</time>
      </trkpt>
      <trkpt lat="43.50452" lon="5.78375">
        <ele>412.79</ele>
        <time>2016-01-24T10:06:16Z</time>
      </trkpt>
      <trkpt lat="43.5043" lon="5.78385">
        <ele>409.88</ele>
        <time>2016-01-24T10:06:20Z</time>
      </trkpt>
      <trkpt lat="43.50414" lon="5.78397">
        <ele>409.13</ele>
        <time>2016-01-24T10:06:24Z</time>
      </trkpt>
      <trkpt lat="43.50398" lon="5.78411">
        <ele>408.71</ele>
        <time>2016-01-24T10:06:28Z</time>
      </trkpt>
      <trkpt lat="43.50379" lon="5.78423">
        <ele>408.58</ele>
        <time>2016-01-24T10:06:33Z</time>
      </trkpt>
      <trkpt lat="43.50362" lon="5.78434">
        <ele>409.02</ele>
        <time>2016-01-24T10:06:39Z</time>
      </trkpt>
      <trkpt lat="43.50344" lon="5.7844">
        <ele>408.31</ele>
        <time>2016-01-24T10:06:48Z</time>
      </trkpt>
      <trkpt lat="43.50328" lon="5.78452">
        <ele>408.21</ele>
        <time>2016-01-24T10:06:56Z</time>
      </trkpt>
      <trkpt lat="43.50313" lon="5.78466">
        <ele>409.03</ele>
        <time>2016-01-24T10:07:03Z</time>
      </trkpt>
      <trkpt lat="43.50296" lon="5.78479">
        <ele>410.14</ele>
        <time>2016-01-24T10:07:10Z</time>
      </trkpt>
      <trkpt lat="43.50276" lon="5.78483">
        <ele>405.83</ele>
        <time>2016-01-24T10:07:19Z</time>
      </trkpt>
      <trkpt lat="43.50258" lon="5.78485">
        <ele>390.44</ele>
        <time>2016-01-24T10:09:10Z</time>
      </trkpt>
      <trkpt lat="43.5024" lon="5.78492">
        <ele>386.42</ele>
        <time>2016-01-24T10:09:19Z</time>
      </trkpt>
      <trkpt lat="43.50222" lon="5.78503">
        <ele>385.86</ele>
        <time>2016-01-24T10:09:26Z</time>
      </trkpt>
      <trkpt lat="43.50206" lon="5.78514">
        <ele>384.87</ele>
        <time>2016-01-24T10:09:32Z</time>
      </trkpt>
      <trkpt lat="43.50187" lon="5.78529">
        <ele>384.08</ele>
        <time>2016-01-24T10:09:38Z</time>
      </trkpt>
      <trkpt lat="43.5017" lon="5.78542">
        <ele>382.21</ele>
        <time>2016-01-24T10:09:42Z</time>
      </trkpt>
      <trkpt lat="43.50153" lon="5.78556">
        <ele>380.76</ele>
        <time>2016-01-24T10:09:46Z</time>
      </trkpt>
      <trkpt lat="43.50135" lon="5.78569">
        <ele>378.54</ele>
        <time>2016-01-24T10:09:50Z</time>
      </trkpt>
      <trkpt lat="43.50117" lon="5.78582">
        <ele>376.75</ele>
        <time>2016-01-24T10:09:54Z</time>
      </trkpt>
      <trkpt lat="43.50101" lon="5.78593">
        <ele>375.29</ele>
        <time>2016-01-24T10:09:57Z</time>
      </trkpt>
      <trkpt lat="43.50081" lon="5.78607">
        <ele>373.62</ele>
        <time>2016-01-24T10:10:00Z</time>
      </trkpt>
      <trkpt lat="43.50059" lon="5.78623">
        <ele>373.11</ele>
        <time>2016-01-24T10:10:03Z</time>
      </trkpt>
      <trkpt lat="43.50039" lon="5.78638">
        <ele>372.44</ele>
        <time>2016-01-24T10:10:06Z</time>
      </trkpt>
      <trkpt lat="43.50021" lon="5.78651">
        <ele>371.88</ele>
        <time>2016-01-24T10:10:09Z</time>
      </trkpt>
      <trkpt lat="43.50001" lon="5.78665">
        <ele>371.74</ele>
        <time>2016-01-24T10:10:13Z</time>
      </trkpt>
      <trkpt lat="43.49984" lon="5.78675">
        <ele>372.16</ele>
        <time>2016-01-24T10:10:18Z</time>
      </trkpt>
      <trkpt lat="43.49967" lon="5.78689">
        <ele>371.63</ele>
        <time>2016-01-24T10:10:24Z</time>
      </trkpt>
      <trkpt lat="43.49956" lon="5.7871">
        <ele>369.99</ele>
        <time>2016-01-24T10:10:28Z</time>
      </trkpt>
      <trkpt lat="43.4995" lon="5.78735">
        <ele>368.15</ele>
        <time>2016-01-24T10:10:32Z</time>
      </trkpt>
      <trkpt lat="43.49941" lon="5.78761">
        <ele>366.22</ele>
        <time>2016-01-24T10:10:36Z</time>
      </trkpt>
      <trkpt lat="43.4993" lon="5.78784">
        <ele>363.85</ele>
        <time>2016-01-24T10:10:41Z</time>
      </trkpt>
      <trkpt lat="43.4992" lon="5.78807">
        <ele>364.72</ele>
        <time>2016-01-24T10:11:48Z</time>
      </trkpt>
      <trkpt lat="43.4991" lon="5.78831">
        <ele>367.02</ele>
        <time>2016-01-24T10:11:54Z</time>
      </trkpt>
      <trkpt lat="43.49899" lon="5.78852">
        <ele>365.84</ele>
        <time>2016-01-24T10:11:58Z</time>
      </trkpt>
      <trkpt lat="43.4988" lon="5.78846">
        <ele>364.33</ele>
        <time>2016-01-24T10:12:06Z</time>
      </trkpt>
      <trkpt lat="43.4987" lon="5.78822">
        <ele>365.58</ele>
        <time>2016-01-24T10:12:14Z</time>
      </trkpt>
      <trkpt lat="43.4986" lon="5.78801">
        <ele>366.23</ele>
        <time>2016-01-24T10:12:22Z</time>
      </trkpt>
      <trkpt lat="43.49843" lon="5.78787">
        <ele>368.51</ele>
        <time>2016-01-24T10:12:31Z</time>
      </trkpt>
      <trkpt lat="43.49823" lon="5.78779">
        <ele>369.24</ele>
        <time>2016-01-24T10:12:39Z</time>
      </trkpt>
      <trkpt lat="43.49804" lon="5.78775">
        <ele>369.05</ele>
        <time>2016-01-24T10:12:47Z</time>
      </trkpt>
      <trkpt lat="43.49786" lon="5.78773">
        <ele>368.96</ele>
        <time>2016-01-24T10:12:54Z</time>
      </trkpt>
      <trkpt lat="43.49767" lon="5.78767">
        <ele>368.85</ele>
        <time>2016-01-24T10:13:02Z</time>
      </trkpt>
      <trkpt lat="43.49749" lon="5.78753">
        <ele>369.1</ele>
        <time>2016-01-24T10:13:10Z</time>
      </trkpt>
      <trkpt lat="43.49736" lon="5.78736">
        <ele>371.18</ele>
        <time>2016-01-24T10:13:18Z</time>
      </trkpt>
      <trkpt lat="43.49723" lon="5.78718">
        <ele>373.82</ele>
        <time>2016-01-24T10:13:29Z</time>
      </trkpt>
      <trkpt lat="43.49707" lon="5.78702">
        <ele>373.95</ele>
        <time>2016-01-24T10:13:39Z</time>
      </trkpt>
      <trkpt lat="43.49692" lon="5.78685">
        <ele>374.92</ele>
        <time>2016-01-24T10:13:47Z</time>
      </trkpt>
      <trkpt lat="43.49676" lon="5.78669">
        <ele>375.97</ele>
        <time>2016-01-24T10:13:55Z</time>
      </trkpt>
      <trkpt lat="43.49661" lon="5.78655">
        <ele>375.93</ele>
        <time>2016-01-24T10:14:03Z</time>
      </trkpt>
      <trkpt lat="43.49642" lon="5.78655">
        <ele>375.63</ele>
        <time>2016-01-24T10:14:11Z</time>
      </trkpt>
      <trkpt lat="43.49628" lon="5.78671">
        <ele>376.02</ele>
        <time>2016-01-24T10:15:25Z</time>
      </trkpt>
      <trkpt lat="43.49619" lon="5.78694">
        <ele>376.17</ele>
        <time>2016-01-24T10:15:30Z</time>
      </trkpt>
      <trkpt lat="43.49609" lon="5.78717">
        <ele>376.06</ele>
        <time>2016-01-24T10:15:35Z</time>
      </trkpt>
      <trkpt lat="43.4959" lon="5.78733">
        <ele>374.59</ele>
        <time>2016-01-24T10:15:40Z</time>
      </trkpt>
      <trkpt lat="43.4957" lon="5.78743">
        <ele>373.22</ele>
        <time>2016-01-24T10:15:44Z</time>
      </trkpt>
      <trkpt lat="43.49551" lon="5.78752">
        <ele>372.22</ele>
        <time>2016-01-24T10:15:48Z</time>
      </trkpt>
      <trkpt lat="43.49533" lon="5.78759">
        <ele>372.05</ele>
        <time>2016-01-24T10:15:52Z</time>
      </trkpt>
      <trkpt lat="43.49512" lon="5.78762">
        <ele>371.81</ele>
        <time>2016-01-24T10:15:56Z</time>
      </trkpt>
      <trkpt lat="43.49492" lon="5.78771">
        <ele>371.67</ele>
        <time>2016-01-24T10:16:00Z</time>
      </trkpt>
      <trkpt lat="43.49472" lon="5.78782">
        <ele>371.08</ele>
        <time>2016-01-24T10:16:04Z</time>
      </trkpt>
      <trkpt lat="43.49453" lon="5.78795">
        <ele>370.01</ele>
        <time>2016-01-24T10:16:08Z</time>
      </trkpt>
      <trkpt lat="43.49432" lon="5.78809">
        <ele>368.38</ele>
        <time>2016-01-24T10:16:12Z</time>
      </trkpt>
      <trkpt lat="43.49417" lon="5.78824">
        <ele>367.35</ele>
        <time>2016-01-24T10:16:15Z</time>
      </trkpt>
      <trkpt lat="43.49402" lon="5.78849">
        <ele>366.52</ele>
        <time>2016-01-24T10:16:19Z</time>
      </trkpt>
      <trkpt lat="43.49394" lon="5.78877">
        <ele>366.4</ele>
        <time>2016-01-24T10:16:23Z</time>
      </trkpt>
      <trkpt lat="43.49387" lon="5.78907">
        <ele>366.77</ele>
        <time>2016-01-24T10:16:27Z</time>
      </trkpt>
      <trkpt lat="43.4938" lon="5.78937">
        <ele>366.55</ele>
        <time>2016-01-24T10:16:31Z</time>
      </trkpt>
      <trkpt lat="43.49373" lon="5.78965">
        <ele>366.05</ele>
        <time>2016-01-24T10:16:35Z</time>
      </trkpt>
      <trkpt lat="43.49374" lon="5.78993">
        <ele>365.37</ele>
        <time>2016-01-24T10:16:39Z</time>
      </trkpt>
      <trkpt lat="43.49371" lon="5.79019">
        <ele>365.26</ele>
        <time>2016-01-24T10:16:43Z</time>
      </trkpt>
      <trkpt lat="43.49354" lon="5.79035">
        <ele>364.74</ele>
        <time>2016-01-24T10:16:48Z</time>
      </trkpt>
      <trkpt lat="43.49335" lon="5.79044">
        <ele>363.06</ele>
        <time>2016-01-24T10:16:53Z</time>
      </trkpt>
      <trkpt lat="43.49317" lon="5.79051">
        <ele>361.12</ele>
        <time>2016-01-24T10:17:52Z</time>
      </trkpt>
      <trkpt lat="43.49303" lon="5.79031">
        <ele>361.05</ele>
        <time>2016-01-24T10:17:58Z</time>
      </trkpt>
      <trkpt lat="43.4929" lon="5.79012">
        <ele>360.73</ele>
        <time>2016-01-24T10:18:02Z</time>
      </trkpt>
      <trkpt lat="43.49278" lon="5.78988">
        <ele>358.46</ele>
        <time>2016-01-24T10:18:07Z</time>
      </trkpt>
      <trkpt lat="43.49259" lon="5.78972">
        <ele>357.34</ele>
        <time>2016-01-24T10:18:12Z</time>
      </trkpt>
      <trkpt lat="43.49241" lon="5.78964">
        <ele>356.99</ele>
        <time>2016-01-24T10:18:17Z</time>
      </trkpt>
      <trkpt lat="43.49223" lon="5.78955">
        <ele>358.27</ele>
        <time>2016-01-24T10:18:26Z</time>
      </trkpt>
      <trkpt lat="43.49204" lon="5.78964">
        <ele>361.21</ele>
        <time>2016-01-24T10:18:34Z</time>
      </trkpt>
      <trkpt lat="43.49188" lon="5.78982">
        <ele>362.91</ele>
        <time>2016-01-24T10:18:40Z</time>
      </trkpt>
      <trkpt lat="43.49176" lon="5.79001">
        <ele>362.8</ele>
        <time>2016-01-24T10:18:47Z</time>
      </trkpt>
      <trkpt lat="43.49166" lon="5.79024">
        <ele>362.54</ele>
        <time>2016-01-24T10:18:53Z</time>
      </trkpt>
      <trkpt lat="43.49157" lon="5.79048">
        <ele>363.19</ele>
        <time>2016-01-24T10:18:59Z</time>
      </trkpt>
      <trkpt lat="43.49149" lon="5.79073">
        <ele>363.15</ele>
        <time>2016-01-24T10:19:04Z</time>
      </trkpt>
      <trkpt lat="43.49141" lon="5.79101">
        <ele>362.14</ele>
        <time>2016-01-24T10:19:09Z</time>
      </trkpt>
      <trkpt lat="43.49133" lon="5.79124">
        <ele>361.06</ele>
        <time>2016-01-24T10:19:13Z</time>
      </trkpt>
      <trkpt lat="43.49125" lon="5.7915">
        <ele>359.35</ele>
        <time>2016-01-24T10:19:17Z</time>
      </trkpt>
      <trkpt lat="43.49118" lon="5.79181">
        <ele>356.78</ele>
        <time>2016-01-24T10:19:21Z</time>
      </trkpt>
      <trkpt lat="43.49111" lon="5.7921">
        <ele>354.05</ele>
        <time>2016-01-24T10:19:25Z</time>
      </trkpt>
      <trkpt lat="43.49101" lon="5.79233">
        <ele>352.89</ele>
        <time>2016-01-24T10:19:28Z</time>
      </trkpt>
      <trkpt lat="43.49094" lon="5.79262">
        <ele>352.03</ele>
        <time>2016-01-24T10:19:32Z</time>
      </trkpt>
      <trkpt lat="43.49087" lon="5.79287">
        <ele>351.3</ele>
        <time>2016-01-24T10:19:36Z</time>
      </trkpt>
      <trkpt lat="43.49079" lon="5.79311">
        <ele>352.2</ele>
        <time>2016-01-24T10:19:40Z</time>
      </trkpt>
      <trkpt lat="43.49071" lon="5.79334">
        <ele>353.06</ele>
        <time>2016-01-24T10:19:44Z</time>
      </trkpt>
      <trkpt lat="43.49067" lon="5.79362">
        <ele>352.61</ele>
        <time>2016-01-24T10:19:49Z</time>
      </trkpt>
      <trkpt lat="43.4906" lon="5.79384">
        <ele>352.82</ele>
        <time>2016-01-24T10:19:53Z</time>
      </trkpt>
      <trkpt lat="43.49052" lon="5.79411">
        <ele>352.09</ele>
        <time>2016-01-24T10:19:57Z</time>
      </trkpt>
      <trkpt lat="43.49043" lon="5.79441">
        <ele>350.83</ele>
        <time>2016-01-24T10:20:01Z</time>
      </trkpt>
      <trkpt lat="43.49032" lon="5.79467">
        <ele>350.19</ele>
        <time>2016-01-24T10:20:05Z</time>
      </trkpt>
      <trkpt lat="43.49025" lon="5.79491">
        <ele>349.96</ele>
        <time>2016-01-24T10:20:09Z</time>
      </trkpt>
      <trkpt lat="43.49018" lon="5.79514">
        <ele>349.57</ele>
        <time>2016-01-24T10:20:13Z</time>
      </trkpt>
      <trkpt lat="43.49009" lon="5.79537">
        <ele>349.23</ele>
        <time>2016-01-24T10:20:17Z</time>
      </trkpt>
      <trkpt lat="43.49" lon="5.79559">
        <ele>349.42</ele>
        <time>2016-01-24T10:20:21Z</time>
      </trkpt>
      <trkpt lat="43.48993" lon="5.79586">
        <ele>350.32</ele>
        <time>2016-01-24T10:20:26Z</time>
      </trkpt>
      <trkpt lat="43.48983" lon="5.79613">
        <ele>350.67</ele>
        <time>2016-01-24T10:20:31Z</time>
      </trkpt>
      <trkpt lat="43.48974" lon="5.79638">
        <ele>351.43</ele>
        <time>2016-01-24T10:20:36Z</time>
      </trkpt>
      <trkpt lat="43.48965" lon="5.79665">
        <ele>351.57</ele>
        <time>2016-01-24T10:20:41Z</time>
      </trkpt>
      <trkpt lat="43.48957" lon="5.79691">
        <ele>351.39</ele>
        <time>2016-01-24T10:20:45Z</time>
      </trkpt>
      <trkpt lat="43.48948" lon="5.79722">
        <ele>350.7</ele>
        <time>2016-01-24T10:20:49Z</time>
      </trkpt>
      <trkpt lat="43.48941" lon="5.79746">
        <ele>349.77</ele>
        <time>2016-01-24T10:20:52Z</time>
      </trkpt>
      <trkpt lat="43.48934" lon="5.7977">
        <ele>349.36</ele>
        <time>2016-01-24T10:20:55Z</time>
      </trkpt>
      <trkpt lat="43.48926" lon="5.79793">
        <ele>348.78</ele>
        <time>2016-01-24T10:20:58Z</time>
      </trkpt>
      <trkpt lat="43.48919" lon="5.79818">
        <ele>348.03</ele>
        <time>2016-01-24T10:21:01Z</time>
      </trkpt>
      <trkpt lat="43.48911" lon="5.79848">
        <ele>347.39</ele>
        <time>2016-01-24T10:21:05Z</time>
      </trkpt>
      <trkpt lat="43.48902" lon="5.79877">
        <ele>346.68</ele>
        <time>2016-01-24T10:21:09Z</time>
      </trkpt>
      <trkpt lat="43.48894" lon="5.79906">
        <ele>346.29</ele>
        <time>2016-01-24T10:21:13Z</time>
      </trkpt>
      <trkpt lat="43.48885" lon="5.79935">
        <ele>346.04</ele>
        <time>2016-01-24T10:21:17Z</time>
      </trkpt>
      <trkpt lat="43.48877" lon="5.79964">
        <ele>345.32</ele>
        <time>2016-01-24T10:21:21Z</time>
      </trkpt>
      <trkpt lat="43.48869" lon="5.7999">
        <ele>344.31</ele>
        <time>2016-01-24T10:21:24Z</time>
      </trkpt>
      <trkpt lat="43.48862" lon="5.80016">
        <ele>343.59</ele>
        <time>2016-01-24T10:21:27Z</time>
      </trkpt>
      <trkpt lat="43.48853" lon="5.80042">
        <ele>343</ele>
        <time>2016-01-24T10:21:30Z</time>
      </trkpt>
      <trkpt lat="43.48845" lon="5.80065">
        <ele>342.62</ele>
        <time>2016-01-24T10:21:33Z</time>
      </trkpt>
      <trkpt lat="43.48836" lon="5.80088">
        <ele>342.05</ele>
        <time>2016-01-24T10:21:36Z</time>
      </trkpt>
      <trkpt lat="43.48829" lon="5.80113">
        <ele>341.93</ele>
        <time>2016-01-24T10:21:39Z</time>
      </trkpt>
      <trkpt lat="43.48821" lon="5.80143">
        <ele>342.27</ele>
        <time>2016-01-24T10:21:43Z</time>
      </trkpt>
      <trkpt lat="43.48814" lon="5.80167">
        <ele>342.29</ele>
        <time>2016-01-24T10:21:46Z</time>
      </trkpt>
      <trkpt lat="43.48807" lon="5.80192">
        <ele>342.8</ele>
        <time>2016-01-24T10:21:49Z</time>
      </trkpt>
      <trkpt lat="43.48799" lon="5.80217">
        <ele>344.51</ele>
        <time>2016-01-24T10:21:52Z</time>
      </trkpt>
      <trkpt lat="43.48789" lon="5.80244">
        <ele>346.73</ele>
        <time>2016-01-24T10:21:56Z</time>
      </trkpt>
      <trkpt lat="43.4878" lon="5.80269">
        <ele>348.01</ele>
        <time>2016-01-24T10:22:00Z</time>
      </trkpt>
      <trkpt lat="43.48773" lon="5.80294">
        <ele>348.93</ele>
        <time>2016-01-24T10:22:04Z</time>
      </trkpt>
      <trkpt lat="43.48765" lon="5.80322">
        <ele>349.89</ele>
        <time>2016-01-24T10:22:09Z</time>
      </trkpt>
      <trkpt lat="43.48758" lon="5.80348">
        <ele>350.47</ele>
        <time>2016-01-24T10:22:14Z</time>
      </trkpt>
      <trkpt lat="43.48751" lon="5.80372">
        <ele>351.45</ele>
        <time>2016-01-24T10:22:19Z</time>
      </trkpt>
      <trkpt lat="43.48743" lon="5.80398">
        <ele>352.41</ele>
        <time>2016-01-24T10:22:24Z</time>
      </trkpt>
      <trkpt lat="43.48734" lon="5.80422">
        <ele>352.7</ele>
        <time>2016-01-24T10:22:29Z</time>
      </trkpt>
      <trkpt lat="43.48727" lon="5.80446">
        <ele>351.79</ele>
        <time>2016-01-24T10:22:33Z</time>
      </trkpt>
      <trkpt lat="43.48722" lon="5.80472">
        <ele>350.77</ele>
        <time>2016-01-24T10:22:37Z</time>
      </trkpt>
      <trkpt lat="43.48717" lon="5.80498">
        <ele>349.83</ele>
        <time>2016-01-24T10:22:41Z</time>
      </trkpt>
      <trkpt lat="43.48713" lon="5.80526">
        <ele>348.36</ele>
        <time>2016-01-24T10:22:45Z</time>
      </trkpt>
      <trkpt lat="43.48709" lon="5.80551">
        <ele>346.86</ele>
        <time>2016-01-24T10:22:48Z</time>
      </trkpt>
      <trkpt lat="43.48702" lon="5.80575">
        <ele>344.72</ele>
        <time>2016-01-24T10:22:51Z</time>
      </trkpt>
      <trkpt lat="43.48697" lon="5.80599">
        <ele>343.55</ele>
        <time>2016-01-24T10:22:54Z</time>
      </trkpt>
      <trkpt lat="43.48695" lon="5.80625">
        <ele>342.04</ele>
        <time>2016-01-24T10:22:57Z</time>
      </trkpt>
      <trkpt lat="43.48691" lon="5.80652">
        <ele>340.22</ele>
        <time>2016-01-24T10:23:00Z</time>
      </trkpt>
      <trkpt lat="43.48687" lon="5.80679">
        <ele>338.6</ele>
        <time>2016-01-24T10:23:03Z</time>
      </trkpt>
      <trkpt lat="43.48684" lon="5.80706">
        <ele>337.6</ele>
        <time>2016-01-24T10:23:06Z</time>
      </trkpt>
      <trkpt lat="43.48681" lon="5.80734">
        <ele>335.51</ele>
        <time>2016-01-24T10:23:09Z</time>
      </trkpt>
      <trkpt lat="43.4867" lon="5.80758">
        <ele>333.25</ele>
        <time>2016-01-24T10:23:12Z</time>
      </trkpt>
      <trkpt lat="43.48655" lon="5.80776">
        <ele>330.73</ele>
        <time>2016-01-24T10:23:15Z</time>
      </trkpt>
      <trkpt lat="43.48637" lon="5.8079">
        <ele>328.74</ele>
        <time>2016-01-24T10:23:18Z</time>
      </trkpt>
      <trkpt lat="43.48617" lon="5.80802">
        <ele>327.62</ele>
        <time>2016-01-24T10:23:21Z</time>
      </trkpt>
      <trkpt lat="43.48596" lon="5.80813">
        <ele>325.99</ele>
        <time>2016-01-24T10:23:25Z</time>
      </trkpt>
      <trkpt lat="43.4858" lon="5.80829">
        <ele>324.33</ele>
        <time>2016-01-24T10:23:30Z</time>
      </trkpt>
      <trkpt lat="43.4857" lon="5.80855">
        <ele>322.43</ele>
        <time>2016-01-24T10:23:35Z</time>
      </trkpt>
      <trkpt lat="43.48552" lon="5.80875">
        <ele>321.38</ele>
        <time>2016-01-24T10:23:40Z</time>
      </trkpt>
      <trkpt lat="43.4854" lon="5.80901">
        <ele>321.12</ele>
        <time>2016-01-24T10:23:43Z</time>
      </trkpt>
      <trkpt lat="43.48532" lon="5.80927">
        <ele>320.59</ele>
        <time>2016-01-24T10:23:46Z</time>
      </trkpt>
      <trkpt lat="43.4853" lon="5.80958">
        <ele>319.72</ele>
        <time>2016-01-24T10:23:49Z</time>
      </trkpt>
      <trkpt lat="43.4853" lon="5.80991">
        <ele>318.51</ele>
        <time>2016-01-24T10:23:52Z</time>
      </trkpt>
      <trkpt lat="43.48529" lon="5.81023">
        <ele>317.96</ele>
        <time>2016-01-24T10:23:55Z</time>
      </trkpt>
      <trkpt lat="43.48526" lon="5.81054">
        <ele>317.34</ele>
        <time>2016-01-24T10:23:58Z</time>
      </trkpt>
      <trkpt lat="43.48523" lon="5.81085">
        <ele>316.72</ele>
        <time>2016-01-24T10:24:01Z</time>
      </trkpt>
      <trkpt lat="43.48522" lon="5.81117">
        <ele>315.21</ele>
        <time>2016-01-24T10:24:04Z</time>
      </trkpt>
      <trkpt lat="43.48519" lon="5.8115">
        <ele>313.12</ele>
        <time>2016-01-24T10:24:07Z</time>
      </trkpt>
      <trkpt lat="43.48517" lon="5.81184">
        <ele>311.2</ele>
        <time>2016-01-24T10:24:10Z</time>
      </trkpt>
      <trkpt lat="43.48514" lon="5.81218">
        <ele>309.26</ele>
        <time>2016-01-24T10:24:13Z</time>
      </trkpt>
      <trkpt lat="43.48511" lon="5.81249">
        <ele>308.12</ele>
        <time>2016-01-24T10:24:16Z</time>
      </trkpt>
      <trkpt lat="43.48506" lon="5.81279">
        <ele>307.18</ele>
        <time>2016-01-24T10:24:19Z</time>
      </trkpt>
      <trkpt lat="43.485" lon="5.81308">
        <ele>306.27</ele>
        <time>2016-01-24T10:24:22Z</time>
      </trkpt>
      <trkpt lat="43.48491" lon="5.81337">
        <ele>305.28</ele>
        <time>2016-01-24T10:24:25Z</time>
      </trkpt>
      <trkpt lat="43.4848" lon="5.81366">
        <ele>303.92</ele>
        <time>2016-01-24T10:24:28Z</time>
      </trkpt>
      <trkpt lat="43.48468" lon="5.81394">
        <ele>303.25</ele>
        <time>2016-01-24T10:24:31Z</time>
      </trkpt>
      <trkpt lat="43.48456" lon="5.81421">
        <ele>302.3</ele>
        <time>2016-01-24T10:24:34Z</time>
      </trkpt>
      <trkpt lat="43.48444" lon="5.81447">
        <ele>302.01</ele>
        <time>2016-01-24T10:24:37Z</time>
      </trkpt>
      <trkpt lat="43.48432" lon="5.81471">
        <ele>301.5</ele>
        <time>2016-01-24T10:24:40Z</time>
      </trkpt>
      <trkpt lat="43.48423" lon="5.81495">
        <ele>301.51</ele>
        <time>2016-01-24T10:24:43Z</time>
      </trkpt>
      <trkpt lat="43.48415" lon="5.81523">
        <ele>300.99</ele>
        <time>2016-01-24T10:24:46Z</time>
      </trkpt>
      <trkpt lat="43.48409" lon="5.81551">
        <ele>299.98</ele>
        <time>2016-01-24T10:24:49Z</time>
      </trkpt>
      <trkpt lat="43.48404" lon="5.81579">
        <ele>299.43</ele>
        <time>2016-01-24T10:24:52Z</time>
      </trkpt>
      <trkpt lat="43.48399" lon="5.81604">
        <ele>299.06</ele>
        <time>2016-01-24T10:24:55Z</time>
      </trkpt>
      <trkpt lat="43.48395" lon="5.81629">
        <ele>299.16</ele>
        <time>2016-01-24T10:24:58Z</time>
      </trkpt>
      <trkpt lat="43.48389" lon="5.8166">
        <ele>299.35</ele>
        <time>2016-01-24T10:25:02Z</time>
      </trkpt>
      <trkpt lat="43.48384" lon="5.81688">
        <ele>299.51</ele>
        <time>2016-01-24T10:25:06Z</time>
      </trkpt>
      <trkpt lat="43.4838" lon="5.81714">
        <ele>298.62</ele>
        <time>2016-01-24T10:25:10Z</time>
      </trkpt>
      <trkpt lat="43.48375" lon="5.81743">
        <ele>297.64</ele>
        <time>2016-01-24T10:25:14Z</time>
      </trkpt>
      <trkpt lat="43.4837" lon="5.81768">
        <ele>297.25</ele>
        <time>2016-01-24T10:25:17Z</time>
      </trkpt>
      <trkpt lat="43.48365" lon="5.81793">
        <ele>297.45</ele>
        <time>2016-01-24T10:25:20Z</time>
      </trkpt>
      <trkpt lat="43.48359" lon="5.81821">
        <ele>297.23</ele>
        <time>2016-01-24T10:25:23Z</time>
      </trkpt>
      <trkpt lat="43.48355" lon="5.81848">
        <ele>297.1</ele>
        <time>2016-01-24T10:25:26Z</time>
      </trkpt>
      <trkpt lat="43.4835" lon="5.81874">
        <ele>296.45</ele>
        <time>2016-01-24T10:25:29Z</time>
      </trkpt>
      <trkpt lat="43.48346" lon="5.81904">
        <ele>295.77</ele>
        <time>2016-01-24T10:25:33Z</time>
      </trkpt>
      <trkpt lat="43.48341" lon="5.81932">
        <ele>295.58</ele>
        <time>2016-01-24T10:25:37Z</time>
      </trkpt>
      <trkpt lat="43.48335" lon="5.81958">
        <ele>295.13</ele>
        <time>2016-01-24T10:25:41Z</time>
      </trkpt>
      <trkpt lat="43.4833" lon="5.81988">
        <ele>294.04</ele>
        <time>2016-01-24T10:25:45Z</time>
      </trkpt>
      <trkpt lat="43.48326" lon="5.82019">
        <ele>291.95</ele>
        <time>2016-01-24T10:25:48Z</time>
      </trkpt>
      <trkpt lat="43.48323" lon="5.82054">
        <ele>289.87</ele>
        <time>2016-01-24T10:25:51Z</time>
      </trkpt>
      <trkpt lat="43.48322" lon="5.82091">
        <ele>287.91</ele>
        <time>2016-01-24T10:25:54Z</time>
      </trkpt>
      <trkpt lat="43.48324" lon="5.82126">
        <ele>285.61</ele>
        <time>2016-01-24T10:25:57Z</time>
      </trkpt>
      <trkpt lat="43.48325" lon="5.82161">
        <ele>283.32</ele>
        <time>2016-01-24T10:26:00Z</time>
      </trkpt>
      <trkpt lat="43.48327" lon="5.82195">
        <ele>281.5</ele>
        <time>2016-01-24T10:26:03Z</time>
      </trkpt>
      <trkpt lat="43.48328" lon="5.8223">
        <ele>279.5</ele>
        <time>2016-01-24T10:26:06Z</time>
      </trkpt>
      <trkpt lat="43.4833" lon="5.82266">
        <ele>277.5</ele>
        <time>2016-01-24T10:26:09Z</time>
      </trkpt>
      <trkpt lat="43.48333" lon="5.823">
        <ele>275.89</ele>
        <time>2016-01-24T10:26:12Z</time>
      </trkpt>
      <trkpt lat="43.48346" lon="5.82317">
        <ele>276.62</ele>
        <time>2016-01-24T10:26:15Z</time>
      </trkpt>
      <trkpt lat="43.48346" lon="5.82346">
        <ele>278.71</ele>
        <time>2016-01-24T10:26:21Z</time>
      </trkpt>
      <trkpt lat="43.48341" lon="5.82371">
        <ele>278.84</ele>
        <time>2016-01-24T10:26:24Z</time>
      </trkpt>
      <trkpt lat="43.48339" lon="5.82399">
        <ele>278.51</ele>
        <time>2016-01-24T10:26:27Z</time>
      </trkpt>
      <trkpt lat="43.48338" lon="5.82427">
        <ele>277.99</ele>
        <time>2016-01-24T10:26:30Z</time>
      </trkpt>
      <trkpt lat="43.48338" lon="5.82454">
        <ele>277.52</ele>
        <time>2016-01-24T10:26:33Z</time>
      </trkpt>
      <trkpt lat="43.48335" lon="5.8248">
        <ele>277.23</ele>
        <time>2016-01-24T10:26:36Z</time>
      </trkpt>
      <trkpt lat="43.48328" lon="5.82504">
        <ele>277.01</ele>
        <time>2016-01-24T10:26:39Z</time>
      </trkpt>
      <trkpt lat="43.48315" lon="5.8253">
        <ele>277.27</ele>
        <time>2016-01-24T10:26:43Z</time>
      </trkpt>
      <trkpt lat="43.48299" lon="5.82553">
        <ele>276.91</ele>
        <time>2016-01-24T10:26:47Z</time>
      </trkpt>
      <trkpt lat="43.48283" lon="5.82578">
        <ele>276.98</ele>
        <time>2016-01-24T10:26:51Z</time>
      </trkpt>
      <trkpt lat="43.48273" lon="5.82599">
        <ele>276.83</ele>
        <time>2016-01-24T10:26:54Z</time>
      </trkpt>
      <trkpt lat="43.48268" lon="5.82623">
        <ele>275.9</ele>
        <time>2016-01-24T10:26:57Z</time>
      </trkpt>
      <trkpt lat="43.48274" lon="5.82647">
        <ele>274.32</ele>
        <time>2016-01-24T10:27:00Z</time>
      </trkpt>
      <trkpt lat="43.48285" lon="5.82669">
        <ele>274.25</ele>
        <time>2016-01-24T10:27:04Z</time>
      </trkpt>
    </trkseg>
  </trk>
</gpx>